<?xml version="1.0" encoding="UTF-8" standalone="no" ?>
<gpx xmlns="http://www.topografix.com/GPX/1/1" xmlns:xsi="http://www.w3.org/2001/XMLSchema-instance" xsi:schemaLocation="http://www.topografix.com/GPX/1/1 http://www.topografix.com/GPX/1/1/gpx.xsd" version="1.1" creator="VisuGPX - https://www.visugpx.com">
  <metadata>
    <name>Vacances 2021</name>
  </metadata>
  <trk>
    <name><![CDATA[Journal actif: 2021-08-06 17:50]]></name>
    <trkseg>
      <trkpt lat="46.66286" lon="0.36839">
        <ele>94.35</ele>
        <time>2021-08-06T19:50:21Z</time>
      </trkpt>
      <trkpt lat="46.66285" lon="0.3683">
        <ele>84.73</ele>
        <time>2021-08-06T19:51:10Z</time>
      </trkpt>
      <trkpt lat="46.6631" lon="0.36853">
        <ele>83.29</ele>
        <time>2021-08-06T19:51:23Z</time>
      </trkpt>
      <trkpt lat="46.66335" lon="0.36844">
        <ele>82.81</ele>
        <time>2021-08-06T19:51:35Z</time>
      </trkpt>
      <trkpt lat="46.6634" lon="0.36834">
        <ele>81.37</ele>
        <time>2021-08-06T19:51:54Z</time>
      </trkpt>
      <trkpt lat="46.66345" lon="0.36827">
        <ele>81.37</ele>
        <time>2021-08-06T19:53:42Z</time>
      </trkpt>
      <trkpt lat="46.66355" lon="0.36812">
        <ele>80.89</ele>
        <time>2021-08-06T19:59:57Z</time>
      </trkpt>
      <trkpt lat="46.66357" lon="0.36783">
        <ele>81.37</ele>
        <time>2021-08-06T20:00:09Z</time>
      </trkpt>
      <trkpt lat="46.66375" lon="0.36736">
        <ele>81.85</ele>
        <time>2021-08-06T20:00:18Z</time>
      </trkpt>
      <trkpt lat="46.6637" lon="0.36731">
        <ele>81.85</ele>
        <time>2021-08-06T20:00:21Z</time>
      </trkpt>
      <trkpt lat="46.66367" lon="0.36729">
        <ele>81.85</ele>
        <time>2021-08-06T20:00:22Z</time>
      </trkpt>
      <trkpt lat="46.66342" lon="0.36715">
        <ele>81.85</ele>
        <time>2021-08-06T20:00:33Z</time>
      </trkpt>
      <trkpt lat="46.66328" lon="0.36708">
        <ele>78.48</ele>
        <time>2021-08-06T20:01:00Z</time>
      </trkpt>
      <trkpt lat="46.66273" lon="0.36677">
        <ele>80.89</ele>
        <time>2021-08-06T20:01:10Z</time>
      </trkpt>
      <trkpt lat="46.66208" lon="0.3664">
        <ele>81.37</ele>
        <time>2021-08-06T20:01:20Z</time>
      </trkpt>
      <trkpt lat="46.66207" lon="0.36639">
        <ele>81.37</ele>
        <time>2021-08-06T20:01:21Z</time>
      </trkpt>
      <trkpt lat="46.6615" lon="0.36596">
        <ele>82.33</ele>
        <time>2021-08-06T20:01:32Z</time>
      </trkpt>
      <trkpt lat="46.66149" lon="0.36591">
        <ele>82.33</ele>
        <time>2021-08-06T20:01:33Z</time>
      </trkpt>
      <trkpt lat="46.66142" lon="0.36563">
        <ele>82.81</ele>
        <time>2021-08-06T20:01:37Z</time>
      </trkpt>
      <trkpt lat="46.66139" lon="0.36553">
        <ele>82.81</ele>
        <time>2021-08-06T20:01:38Z</time>
      </trkpt>
      <trkpt lat="46.66134" lon="0.36547">
        <ele>82.81</ele>
        <time>2021-08-06T20:01:39Z</time>
      </trkpt>
      <trkpt lat="46.6613" lon="0.36541">
        <ele>82.81</ele>
        <time>2021-08-06T20:01:40Z</time>
      </trkpt>
      <trkpt lat="46.66115" lon="0.36538">
        <ele>82.81</ele>
        <time>2021-08-06T20:01:41Z</time>
      </trkpt>
      <trkpt lat="46.66115" lon="0.36538">
        <ele>82.33</ele>
        <time>2021-08-06T20:01:42Z</time>
      </trkpt>
      <trkpt lat="46.66101" lon="0.36541">
        <ele>82.33</ele>
        <time>2021-08-06T20:01:43Z</time>
      </trkpt>
      <trkpt lat="46.66101" lon="0.36541">
        <ele>81.85</ele>
        <time>2021-08-06T20:01:44Z</time>
      </trkpt>
      <trkpt lat="46.66096" lon="0.36547">
        <ele>81.85</ele>
        <time>2021-08-06T20:01:45Z</time>
      </trkpt>
      <trkpt lat="46.66084" lon="0.36563">
        <ele>81.85</ele>
        <time>2021-08-06T20:01:46Z</time>
      </trkpt>
      <trkpt lat="46.66084" lon="0.36563">
        <ele>81.37</ele>
        <time>2021-08-06T20:01:47Z</time>
      </trkpt>
      <trkpt lat="46.66083" lon="0.36582">
        <ele>81.37</ele>
        <time>2021-08-06T20:01:48Z</time>
      </trkpt>
      <trkpt lat="46.66083" lon="0.36592">
        <ele>80.89</ele>
        <time>2021-08-06T20:01:49Z</time>
      </trkpt>
      <trkpt lat="46.66083" lon="0.36592">
        <ele>80.41</ele>
        <time>2021-08-06T20:01:50Z</time>
      </trkpt>
      <trkpt lat="46.66086" lon="0.36604">
        <ele>80.41</ele>
        <time>2021-08-06T20:01:51Z</time>
      </trkpt>
      <trkpt lat="46.66091" lon="0.36618">
        <ele>80.41</ele>
        <time>2021-08-06T20:01:53Z</time>
      </trkpt>
      <trkpt lat="46.66091" lon="0.36618">
        <ele>80.41</ele>
        <time>2021-08-06T20:01:54Z</time>
      </trkpt>
      <trkpt lat="46.66101" lon="0.36646">
        <ele>79.93</ele>
        <time>2021-08-06T20:01:55Z</time>
      </trkpt>
      <trkpt lat="46.66094" lon="0.36669">
        <ele>79.93</ele>
        <time>2021-08-06T20:01:56Z</time>
      </trkpt>
      <trkpt lat="46.66094" lon="0.36669">
        <ele>79.93</ele>
        <time>2021-08-06T20:01:57Z</time>
      </trkpt>
      <trkpt lat="46.66059" lon="0.36798">
        <ele>77.52</ele>
        <time>2021-08-06T20:02:07Z</time>
      </trkpt>
      <trkpt lat="46.66054" lon="0.36815">
        <ele>79.45</ele>
        <time>2021-08-06T20:02:10Z</time>
      </trkpt>
      <trkpt lat="46.66052" lon="0.3682">
        <ele>79.93</ele>
        <time>2021-08-06T20:02:11Z</time>
      </trkpt>
      <trkpt lat="46.66044" lon="0.36823">
        <ele>79.93</ele>
        <time>2021-08-06T20:02:12Z</time>
      </trkpt>
      <trkpt lat="46.66032" lon="0.36822">
        <ele>80.41</ele>
        <time>2021-08-06T20:02:14Z</time>
      </trkpt>
      <trkpt lat="46.66025" lon="0.36822">
        <ele>80.89</ele>
        <time>2021-08-06T20:02:15Z</time>
      </trkpt>
      <trkpt lat="46.66018" lon="0.36825">
        <ele>80.89</ele>
        <time>2021-08-06T20:02:16Z</time>
      </trkpt>
      <trkpt lat="46.66007" lon="0.3683">
        <ele>81.37</ele>
        <time>2021-08-06T20:02:17Z</time>
      </trkpt>
      <trkpt lat="46.65998" lon="0.36849">
        <ele>81.37</ele>
        <time>2021-08-06T20:02:18Z</time>
      </trkpt>
      <trkpt lat="46.65998" lon="0.36849">
        <ele>81.85</ele>
        <time>2021-08-06T20:02:19Z</time>
      </trkpt>
      <trkpt lat="46.65994" lon="0.36859">
        <ele>81.85</ele>
        <time>2021-08-06T20:02:20Z</time>
      </trkpt>
      <trkpt lat="46.65989" lon="0.36868">
        <ele>82.33</ele>
        <time>2021-08-06T20:02:21Z</time>
      </trkpt>
      <trkpt lat="46.65982" lon="0.36891">
        <ele>82.81</ele>
        <time>2021-08-06T20:02:22Z</time>
      </trkpt>
      <trkpt lat="46.65981" lon="0.36904">
        <ele>82.81</ele>
        <time>2021-08-06T20:02:23Z</time>
      </trkpt>
      <trkpt lat="46.65981" lon="0.36904">
        <ele>82.81</ele>
        <time>2021-08-06T20:02:24Z</time>
      </trkpt>
      <trkpt lat="46.65979" lon="0.3692">
        <ele>81.85</ele>
        <time>2021-08-06T20:02:25Z</time>
      </trkpt>
      <trkpt lat="46.65977" lon="0.36933">
        <ele>80.89</ele>
        <time>2021-08-06T20:02:27Z</time>
      </trkpt>
      <trkpt lat="46.65985" lon="0.36953">
        <ele>80.89</ele>
        <time>2021-08-06T20:02:28Z</time>
      </trkpt>
      <trkpt lat="46.65989" lon="0.36963">
        <ele>80.41</ele>
        <time>2021-08-06T20:02:29Z</time>
      </trkpt>
      <trkpt lat="46.65999" lon="0.36978">
        <ele>80.41</ele>
        <time>2021-08-06T20:02:30Z</time>
      </trkpt>
      <trkpt lat="46.65999" lon="0.36978">
        <ele>80.41</ele>
        <time>2021-08-06T20:02:31Z</time>
      </trkpt>
      <trkpt lat="46.66005" lon="0.36983">
        <ele>80.89</ele>
        <time>2021-08-06T20:02:32Z</time>
      </trkpt>
      <trkpt lat="46.66013" lon="0.36984">
        <ele>80.89</ele>
        <time>2021-08-06T20:02:33Z</time>
      </trkpt>
      <trkpt lat="46.66022" lon="0.36985">
        <ele>80.89</ele>
        <time>2021-08-06T20:02:34Z</time>
      </trkpt>
      <trkpt lat="46.66031" lon="0.36985">
        <ele>80.89</ele>
        <time>2021-08-06T20:02:35Z</time>
      </trkpt>
      <trkpt lat="46.6604" lon="0.36978">
        <ele>79.93</ele>
        <time>2021-08-06T20:02:36Z</time>
      </trkpt>
      <trkpt lat="46.66049" lon="0.3697">
        <ele>78.97</ele>
        <time>2021-08-06T20:02:37Z</time>
      </trkpt>
      <trkpt lat="46.66059" lon="0.36967">
        <ele>78.48</ele>
        <time>2021-08-06T20:02:38Z</time>
      </trkpt>
      <trkpt lat="46.66068" lon="0.36966">
        <ele>78.97</ele>
        <time>2021-08-06T20:02:39Z</time>
      </trkpt>
      <trkpt lat="46.66088" lon="0.36965">
        <ele>79.93</ele>
        <time>2021-08-06T20:02:40Z</time>
      </trkpt>
      <trkpt lat="46.66098" lon="0.36968">
        <ele>80.41</ele>
        <time>2021-08-06T20:02:41Z</time>
      </trkpt>
      <trkpt lat="46.66098" lon="0.36968">
        <ele>81.37</ele>
        <time>2021-08-06T20:02:42Z</time>
      </trkpt>
      <trkpt lat="46.6623" lon="0.37028">
        <ele>80.89</ele>
        <time>2021-08-06T20:02:54Z</time>
      </trkpt>
      <trkpt lat="46.66422" lon="0.37126">
        <ele>73.68</ele>
        <time>2021-08-06T20:03:07Z</time>
      </trkpt>
      <trkpt lat="46.66604" lon="0.37228">
        <ele>65.51</ele>
        <time>2021-08-06T20:03:20Z</time>
      </trkpt>
      <trkpt lat="46.6673" lon="0.37299">
        <ele>63.58</ele>
        <time>2021-08-06T20:03:32Z</time>
      </trkpt>
      <trkpt lat="46.66739" lon="0.37304">
        <ele>63.1</ele>
        <time>2021-08-06T20:03:33Z</time>
      </trkpt>
      <trkpt lat="46.66747" lon="0.37308">
        <ele>62.62</ele>
        <time>2021-08-06T20:03:34Z</time>
      </trkpt>
      <trkpt lat="46.66746" lon="0.37332">
        <ele>62.14</ele>
        <time>2021-08-06T20:03:35Z</time>
      </trkpt>
      <trkpt lat="46.6675" lon="0.37343">
        <ele>61.66</ele>
        <time>2021-08-06T20:03:36Z</time>
      </trkpt>
      <trkpt lat="46.66754" lon="0.37354">
        <ele>61.66</ele>
        <time>2021-08-06T20:03:37Z</time>
      </trkpt>
      <trkpt lat="46.66758" lon="0.37364">
        <ele>60.7</ele>
        <time>2021-08-06T20:03:38Z</time>
      </trkpt>
      <trkpt lat="46.66758" lon="0.37376">
        <ele>60.22</ele>
        <time>2021-08-06T20:03:39Z</time>
      </trkpt>
      <trkpt lat="46.66757" lon="0.37391">
        <ele>60.22</ele>
        <time>2021-08-06T20:03:40Z</time>
      </trkpt>
      <trkpt lat="46.66755" lon="0.37418">
        <ele>60.7</ele>
        <time>2021-08-06T20:03:42Z</time>
      </trkpt>
      <trkpt lat="46.66753" lon="0.37442">
        <ele>61.18</ele>
        <time>2021-08-06T20:03:44Z</time>
      </trkpt>
      <trkpt lat="46.66751" lon="0.37453">
        <ele>61.66</ele>
        <time>2021-08-06T20:03:45Z</time>
      </trkpt>
      <trkpt lat="46.66748" lon="0.37463">
        <ele>62.14</ele>
        <time>2021-08-06T20:03:46Z</time>
      </trkpt>
      <trkpt lat="46.6673" lon="0.37504">
        <ele>63.58</ele>
        <time>2021-08-06T20:03:50Z</time>
      </trkpt>
      <trkpt lat="46.6672" lon="0.37553">
        <ele>62.62</ele>
        <time>2021-08-06T20:03:54Z</time>
      </trkpt>
      <trkpt lat="46.66722" lon="0.37564">
        <ele>62.62</ele>
        <time>2021-08-06T20:03:55Z</time>
      </trkpt>
      <trkpt lat="46.66727" lon="0.37571">
        <ele>62.14</ele>
        <time>2021-08-06T20:03:56Z</time>
      </trkpt>
      <trkpt lat="46.66731" lon="0.37577">
        <ele>62.14</ele>
        <time>2021-08-06T20:03:57Z</time>
      </trkpt>
      <trkpt lat="46.66745" lon="0.37579">
        <ele>62.14</ele>
        <time>2021-08-06T20:03:58Z</time>
      </trkpt>
      <trkpt lat="46.66751" lon="0.37573">
        <ele>62.14</ele>
        <time>2021-08-06T20:03:59Z</time>
      </trkpt>
      <trkpt lat="46.66757" lon="0.37566">
        <ele>62.14</ele>
        <time>2021-08-06T20:04:00Z</time>
      </trkpt>
      <trkpt lat="46.66763" lon="0.37559">
        <ele>61.66</ele>
        <time>2021-08-06T20:04:01Z</time>
      </trkpt>
      <trkpt lat="46.66763" lon="0.37559">
        <ele>61.18</ele>
        <time>2021-08-06T20:04:02Z</time>
      </trkpt>
      <trkpt lat="46.66766" lon="0.37552">
        <ele>61.18</ele>
        <time>2021-08-06T20:04:03Z</time>
      </trkpt>
      <trkpt lat="46.66772" lon="0.37527">
        <ele>60.7</ele>
        <time>2021-08-06T20:04:04Z</time>
      </trkpt>
      <trkpt lat="46.66772" lon="0.37527">
        <ele>60.7</ele>
        <time>2021-08-06T20:04:05Z</time>
      </trkpt>
      <trkpt lat="46.66772" lon="0.375">
        <ele>60.22</ele>
        <time>2021-08-06T20:04:06Z</time>
      </trkpt>
      <trkpt lat="46.66771" lon="0.37486">
        <ele>59.74</ele>
        <time>2021-08-06T20:04:07Z</time>
      </trkpt>
      <trkpt lat="46.66771" lon="0.37486">
        <ele>59.26</ele>
        <time>2021-08-06T20:04:08Z</time>
      </trkpt>
      <trkpt lat="46.66769" lon="0.37473">
        <ele>59.26</ele>
        <time>2021-08-06T20:04:09Z</time>
      </trkpt>
      <trkpt lat="46.66767" lon="0.37461">
        <ele>58.78</ele>
        <time>2021-08-06T20:04:10Z</time>
      </trkpt>
      <trkpt lat="46.66766" lon="0.3745">
        <ele>58.78</ele>
        <time>2021-08-06T20:04:11Z</time>
      </trkpt>
      <trkpt lat="46.66764" lon="0.37439">
        <ele>58.78</ele>
        <time>2021-08-06T20:04:12Z</time>
      </trkpt>
      <trkpt lat="46.66763" lon="0.37429">
        <ele>58.3</ele>
        <time>2021-08-06T20:04:13Z</time>
      </trkpt>
      <trkpt lat="46.66765" lon="0.37416">
        <ele>58.3</ele>
        <time>2021-08-06T20:04:14Z</time>
      </trkpt>
      <trkpt lat="46.66767" lon="0.37402">
        <ele>57.82</ele>
        <time>2021-08-06T20:04:15Z</time>
      </trkpt>
      <trkpt lat="46.66769" lon="0.37385">
        <ele>57.82</ele>
        <time>2021-08-06T20:04:16Z</time>
      </trkpt>
      <trkpt lat="46.66773" lon="0.37369">
        <ele>57.82</ele>
        <time>2021-08-06T20:04:17Z</time>
      </trkpt>
      <trkpt lat="46.66792" lon="0.37286">
        <ele>57.34</ele>
        <time>2021-08-06T20:04:22Z</time>
      </trkpt>
      <trkpt lat="46.66793" lon="0.37271">
        <ele>58.3</ele>
        <time>2021-08-06T20:04:23Z</time>
      </trkpt>
      <trkpt lat="46.66795" lon="0.37255">
        <ele>59.26</ele>
        <time>2021-08-06T20:04:24Z</time>
      </trkpt>
      <trkpt lat="46.668" lon="0.37226">
        <ele>62.14</ele>
        <time>2021-08-06T20:04:26Z</time>
      </trkpt>
      <trkpt lat="46.66802" lon="0.37217">
        <ele>62.62</ele>
        <time>2021-08-06T20:04:27Z</time>
      </trkpt>
      <trkpt lat="46.66806" lon="0.372">
        <ele>63.1</ele>
        <time>2021-08-06T20:04:28Z</time>
      </trkpt>
      <trkpt lat="46.66806" lon="0.372">
        <ele>62.62</ele>
        <time>2021-08-06T20:04:29Z</time>
      </trkpt>
      <trkpt lat="46.6681" lon="0.37196">
        <ele>62.14</ele>
        <time>2021-08-06T20:04:30Z</time>
      </trkpt>
      <trkpt lat="46.66823" lon="0.37176">
        <ele>62.14</ele>
        <time>2021-08-06T20:04:31Z</time>
      </trkpt>
      <trkpt lat="46.66828" lon="0.37164">
        <ele>62.62</ele>
        <time>2021-08-06T20:04:32Z</time>
      </trkpt>
      <trkpt lat="46.66829" lon="0.37149">
        <ele>63.1</ele>
        <time>2021-08-06T20:04:33Z</time>
      </trkpt>
      <trkpt lat="46.66829" lon="0.37149">
        <ele>63.1</ele>
        <time>2021-08-06T20:04:34Z</time>
      </trkpt>
      <trkpt lat="46.66825" lon="0.37123">
        <ele>63.1</ele>
        <time>2021-08-06T20:04:35Z</time>
      </trkpt>
      <trkpt lat="46.66825" lon="0.37123">
        <ele>62.62</ele>
        <time>2021-08-06T20:04:36Z</time>
      </trkpt>
      <trkpt lat="46.66821" lon="0.37113">
        <ele>62.62</ele>
        <time>2021-08-06T20:04:37Z</time>
      </trkpt>
      <trkpt lat="46.66814" lon="0.37103">
        <ele>62.62</ele>
        <time>2021-08-06T20:04:38Z</time>
      </trkpt>
      <trkpt lat="46.66807" lon="0.37098">
        <ele>63.1</ele>
        <time>2021-08-06T20:04:39Z</time>
      </trkpt>
      <trkpt lat="46.66798" lon="0.37092">
        <ele>62.62</ele>
        <time>2021-08-06T20:04:40Z</time>
      </trkpt>
      <trkpt lat="46.6679" lon="0.37092">
        <ele>61.66</ele>
        <time>2021-08-06T20:04:41Z</time>
      </trkpt>
      <trkpt lat="46.66783" lon="0.37092">
        <ele>61.66</ele>
        <time>2021-08-06T20:04:42Z</time>
      </trkpt>
      <trkpt lat="46.66773" lon="0.37098">
        <ele>62.14</ele>
        <time>2021-08-06T20:04:43Z</time>
      </trkpt>
      <trkpt lat="46.66769" lon="0.371">
        <ele>62.14</ele>
        <time>2021-08-06T20:04:44Z</time>
      </trkpt>
      <trkpt lat="46.66761" lon="0.37114">
        <ele>63.1</ele>
        <time>2021-08-06T20:04:45Z</time>
      </trkpt>
      <trkpt lat="46.66757" lon="0.37121">
        <ele>63.58</ele>
        <time>2021-08-06T20:04:46Z</time>
      </trkpt>
      <trkpt lat="46.66734" lon="0.37113">
        <ele>63.58</ele>
        <time>2021-08-06T20:04:47Z</time>
      </trkpt>
      <trkpt lat="46.66734" lon="0.37113">
        <ele>63.58</ele>
        <time>2021-08-06T20:04:48Z</time>
      </trkpt>
      <trkpt lat="46.66729" lon="0.37109">
        <ele>63.58</ele>
        <time>2021-08-06T20:04:49Z</time>
      </trkpt>
      <trkpt lat="46.66724" lon="0.37106">
        <ele>63.58</ele>
        <time>2021-08-06T20:04:50Z</time>
      </trkpt>
      <trkpt lat="46.66666" lon="0.37073">
        <ele>66.95</ele>
        <time>2021-08-06T20:05:01Z</time>
      </trkpt>
      <trkpt lat="46.66658" lon="0.37072">
        <ele>67.43</ele>
        <time>2021-08-06T20:05:04Z</time>
      </trkpt>
      <trkpt lat="46.66655" lon="0.37075">
        <ele>67.43</ele>
        <time>2021-08-06T20:05:05Z</time>
      </trkpt>
      <trkpt lat="46.66646" lon="0.3709">
        <ele>67.43</ele>
        <time>2021-08-06T20:05:06Z</time>
      </trkpt>
      <trkpt lat="46.66646" lon="0.3709">
        <ele>67.91</ele>
        <time>2021-08-06T20:05:07Z</time>
      </trkpt>
      <trkpt lat="46.66644" lon="0.37098">
        <ele>67.91</ele>
        <time>2021-08-06T20:05:08Z</time>
      </trkpt>
      <trkpt lat="46.66631" lon="0.37125">
        <ele>68.39</ele>
        <time>2021-08-06T20:05:15Z</time>
      </trkpt>
      <trkpt lat="46.66628" lon="0.37126">
        <ele>68.39</ele>
        <time>2021-08-06T20:05:18Z</time>
      </trkpt>
      <trkpt lat="46.66634" lon="0.37133">
        <ele>68.87</ele>
        <time>2021-08-06T20:05:19Z</time>
      </trkpt>
      <trkpt lat="46.66633" lon="0.37136">
        <ele>68.87</ele>
        <time>2021-08-06T20:05:20Z</time>
      </trkpt>
      <trkpt lat="46.66628" lon="0.37151">
        <ele>68.39</ele>
        <time>2021-08-06T20:05:23Z</time>
      </trkpt>
      <trkpt lat="46.66626" lon="0.37157">
        <ele>68.39</ele>
        <time>2021-08-06T20:05:24Z</time>
      </trkpt>
      <trkpt lat="46.66624" lon="0.37163">
        <ele>68.87</ele>
        <time>2021-08-06T20:05:25Z</time>
      </trkpt>
      <trkpt lat="46.66616" lon="0.37189">
        <ele>68.39</ele>
        <time>2021-08-06T20:05:30Z</time>
      </trkpt>
      <trkpt lat="46.66618" lon="0.37196">
        <ele>68.39</ele>
        <time>2021-08-06T20:05:31Z</time>
      </trkpt>
      <trkpt lat="46.66618" lon="0.37196">
        <ele>68.39</ele>
        <time>2021-08-06T20:05:33Z</time>
      </trkpt>
      <trkpt lat="46.66624" lon="0.37199">
        <ele>67.91</ele>
        <time>2021-08-06T20:05:34Z</time>
      </trkpt>
      <trkpt lat="46.66636" lon="0.37201">
        <ele>67.91</ele>
        <time>2021-08-06T20:05:35Z</time>
      </trkpt>
      <trkpt lat="46.66642" lon="0.37184">
        <ele>67.91</ele>
        <time>2021-08-06T20:05:38Z</time>
      </trkpt>
      <trkpt lat="46.66645" lon="0.37171">
        <ele>67.91</ele>
        <time>2021-08-06T20:05:40Z</time>
      </trkpt>
      <trkpt lat="46.66646" lon="0.37171">
        <ele>67.91</ele>
        <time>2021-08-06T20:05:41Z</time>
      </trkpt>
      <trkpt lat="46.6665" lon="0.37168">
        <ele>67.43</ele>
        <time>2021-08-06T20:05:42Z</time>
      </trkpt>
      <trkpt lat="46.66654" lon="0.37166">
        <ele>67.43</ele>
        <time>2021-08-06T20:05:43Z</time>
      </trkpt>
      <trkpt lat="46.66658" lon="0.37164">
        <ele>67.43</ele>
        <time>2021-08-06T20:05:44Z</time>
      </trkpt>
      <trkpt lat="46.66661" lon="0.37162">
        <ele>67.43</ele>
        <time>2021-08-06T20:05:45Z</time>
      </trkpt>
      <trkpt lat="46.66662" lon="0.37161">
        <ele>67.43</ele>
        <time>2021-08-06T20:05:46Z</time>
      </trkpt>
      <trkpt lat="46.66664" lon="0.3716">
        <ele>67.91</ele>
        <time>2021-08-06T20:05:47Z</time>
      </trkpt>
      <trkpt lat="46.66643" lon="0.37149">
        <ele>67.91</ele>
        <time>2021-08-06T20:05:48Z</time>
      </trkpt>
      <trkpt lat="46.66645" lon="0.37134">
        <ele>67.91</ele>
        <time>2021-08-06T20:05:49Z</time>
      </trkpt>
      <trkpt lat="46.66646" lon="0.3713">
        <ele>67.91</ele>
        <time>2021-08-06T20:05:50Z</time>
      </trkpt>
      <trkpt lat="46.66646" lon="0.37127">
        <ele>67.91</ele>
        <time>2021-08-06T20:05:51Z</time>
      </trkpt>
      <trkpt lat="46.66647" lon="0.37124">
        <ele>67.91</ele>
        <time>2021-08-06T20:06:08Z</time>
      </trkpt>
      <trkpt lat="46.66647" lon="0.37124">
        <ele>67.91</ele>
        <time>2021-08-06T20:07:54Z</time>
      </trkpt>
      <trkpt lat="46.66648" lon="0.37121">
        <ele>68.39</ele>
        <time>2021-08-06T20:07:57Z</time>
      </trkpt>
      <trkpt lat="46.66648" lon="0.3712">
        <ele>68.39</ele>
        <time>2021-08-06T20:07:58Z</time>
      </trkpt>
      <trkpt lat="46.66648" lon="0.37118">
        <ele>68.39</ele>
        <time>2021-08-06T20:08:16Z</time>
      </trkpt>
      <trkpt lat="46.66648" lon="0.37118">
        <ele>67.91</ele>
        <time>2021-08-06T20:09:59Z</time>
      </trkpt>
      <trkpt lat="46.66657" lon="0.371">
        <ele>67.91</ele>
        <time>2021-08-06T20:10:36Z</time>
      </trkpt>
      <trkpt lat="46.66659" lon="0.37097">
        <ele>67.91</ele>
        <time>2021-08-06T20:10:52Z</time>
      </trkpt>
      <trkpt lat="46.66659" lon="0.37097">
        <ele>67.91</ele>
        <time>2021-08-06T20:11:13Z</time>
      </trkpt>
      <trkpt lat="46.66659" lon="0.37097">
        <ele>67.91</ele>
        <time>2021-08-06T20:11:29Z</time>
      </trkpt>
      <trkpt lat="46.66659" lon="0.37097">
        <ele>67.91</ele>
        <time>2021-08-06T20:12:13Z</time>
      </trkpt>
      <trkpt lat="46.66674" lon="0.37087">
        <ele>67.91</ele>
        <time>2021-08-06T20:12:50Z</time>
      </trkpt>
      <trkpt lat="46.66689" lon="0.37088">
        <ele>67.43</ele>
        <time>2021-08-06T20:13:03Z</time>
      </trkpt>
      <trkpt lat="46.66693" lon="0.37089">
        <ele>66.95</ele>
        <time>2021-08-06T20:13:04Z</time>
      </trkpt>
      <trkpt lat="46.66732" lon="0.37111">
        <ele>64.55</ele>
        <time>2021-08-06T20:13:11Z</time>
      </trkpt>
      <trkpt lat="46.66737" lon="0.37115">
        <ele>64.55</ele>
        <time>2021-08-06T20:13:12Z</time>
      </trkpt>
      <trkpt lat="46.66742" lon="0.37118">
        <ele>64.07</ele>
        <time>2021-08-06T20:13:13Z</time>
      </trkpt>
      <trkpt lat="46.66745" lon="0.3712">
        <ele>64.07</ele>
        <time>2021-08-06T20:13:14Z</time>
      </trkpt>
      <trkpt lat="46.66748" lon="0.37122">
        <ele>63.58</ele>
        <time>2021-08-06T20:13:15Z</time>
      </trkpt>
      <trkpt lat="46.66753" lon="0.37136">
        <ele>63.58</ele>
        <time>2021-08-06T20:13:16Z</time>
      </trkpt>
      <trkpt lat="46.66753" lon="0.37142">
        <ele>63.58</ele>
        <time>2021-08-06T20:13:17Z</time>
      </trkpt>
      <trkpt lat="46.66751" lon="0.37157">
        <ele>63.1</ele>
        <time>2021-08-06T20:13:18Z</time>
      </trkpt>
      <trkpt lat="46.66751" lon="0.37157">
        <ele>63.1</ele>
        <time>2021-08-06T20:13:19Z</time>
      </trkpt>
      <trkpt lat="46.6675" lon="0.37165">
        <ele>63.1</ele>
        <time>2021-08-06T20:13:20Z</time>
      </trkpt>
      <trkpt lat="46.66748" lon="0.37172">
        <ele>63.1</ele>
        <time>2021-08-06T20:13:21Z</time>
      </trkpt>
      <trkpt lat="46.66747" lon="0.37181">
        <ele>63.1</ele>
        <time>2021-08-06T20:13:22Z</time>
      </trkpt>
      <trkpt lat="46.66743" lon="0.37203">
        <ele>63.1</ele>
        <time>2021-08-06T20:13:24Z</time>
      </trkpt>
      <trkpt lat="46.66741" lon="0.37215">
        <ele>63.1</ele>
        <time>2021-08-06T20:13:25Z</time>
      </trkpt>
      <trkpt lat="46.66738" lon="0.37229">
        <ele>63.1</ele>
        <time>2021-08-06T20:13:26Z</time>
      </trkpt>
      <trkpt lat="46.66731" lon="0.37238">
        <ele>62.62</ele>
        <time>2021-08-06T20:13:27Z</time>
      </trkpt>
      <trkpt lat="46.66712" lon="0.37253">
        <ele>63.1</ele>
        <time>2021-08-06T20:13:28Z</time>
      </trkpt>
      <trkpt lat="46.66712" lon="0.37253">
        <ele>63.1</ele>
        <time>2021-08-06T20:13:29Z</time>
      </trkpt>
      <trkpt lat="46.66701" lon="0.37254">
        <ele>63.58</ele>
        <time>2021-08-06T20:13:30Z</time>
      </trkpt>
      <trkpt lat="46.66692" lon="0.37254">
        <ele>64.07</ele>
        <time>2021-08-06T20:13:31Z</time>
      </trkpt>
      <trkpt lat="46.66681" lon="0.37253">
        <ele>64.07</ele>
        <time>2021-08-06T20:13:32Z</time>
      </trkpt>
      <trkpt lat="46.6667" lon="0.37249">
        <ele>64.55</ele>
        <time>2021-08-06T20:13:33Z</time>
      </trkpt>
      <trkpt lat="46.66658" lon="0.37244">
        <ele>65.03</ele>
        <time>2021-08-06T20:13:34Z</time>
      </trkpt>
      <trkpt lat="46.66529" lon="0.37184">
        <ele>70.79</ele>
        <time>2021-08-06T20:13:44Z</time>
      </trkpt>
      <trkpt lat="46.66297" lon="0.37055">
        <ele>81.37</ele>
        <time>2021-08-06T20:14:02Z</time>
      </trkpt>
      <trkpt lat="46.66026" lon="0.36904">
        <ele>87.14</ele>
        <time>2021-08-06T20:14:20Z</time>
      </trkpt>
      <trkpt lat="46.65691" lon="0.36713">
        <ele>92.9</ele>
        <time>2021-08-06T20:14:42Z</time>
      </trkpt>
      <trkpt lat="46.65343" lon="0.36525">
        <ele>90.02</ele>
        <time>2021-08-06T20:15:05Z</time>
      </trkpt>
      <trkpt lat="46.65063" lon="0.36401">
        <ele>78.48</ele>
        <time>2021-08-06T20:15:23Z</time>
      </trkpt>
      <trkpt lat="46.6488" lon="0.36319">
        <ele>76.08</ele>
        <time>2021-08-06T20:15:36Z</time>
      </trkpt>
      <trkpt lat="46.64755" lon="0.36262">
        <ele>75.12</ele>
        <time>2021-08-06T20:15:49Z</time>
      </trkpt>
      <trkpt lat="46.6472" lon="0.36237">
        <ele>75.12</ele>
        <time>2021-08-06T20:15:58Z</time>
      </trkpt>
      <trkpt lat="46.64711" lon="0.36208">
        <ele>74.64</ele>
        <time>2021-08-06T20:16:02Z</time>
      </trkpt>
      <trkpt lat="46.64707" lon="0.36199">
        <ele>74.16</ele>
        <time>2021-08-06T20:16:03Z</time>
      </trkpt>
      <trkpt lat="46.647" lon="0.36197">
        <ele>74.16</ele>
        <time>2021-08-06T20:16:04Z</time>
      </trkpt>
      <trkpt lat="46.64693" lon="0.36194">
        <ele>74.16</ele>
        <time>2021-08-06T20:16:05Z</time>
      </trkpt>
      <trkpt lat="46.64685" lon="0.36191">
        <ele>74.16</ele>
        <time>2021-08-06T20:16:06Z</time>
      </trkpt>
      <trkpt lat="46.64685" lon="0.36191">
        <ele>74.16</ele>
        <time>2021-08-06T20:16:07Z</time>
      </trkpt>
      <trkpt lat="46.64672" lon="0.36198">
        <ele>74.16</ele>
        <time>2021-08-06T20:16:08Z</time>
      </trkpt>
      <trkpt lat="46.64665" lon="0.36203">
        <ele>73.68</ele>
        <time>2021-08-06T20:16:09Z</time>
      </trkpt>
      <trkpt lat="46.64665" lon="0.36203">
        <ele>73.68</ele>
        <time>2021-08-06T20:16:10Z</time>
      </trkpt>
      <trkpt lat="46.64656" lon="0.36206">
        <ele>73.68</ele>
        <time>2021-08-06T20:16:11Z</time>
      </trkpt>
      <trkpt lat="46.64647" lon="0.36207">
        <ele>73.68</ele>
        <time>2021-08-06T20:16:12Z</time>
      </trkpt>
      <trkpt lat="46.64627" lon="0.36203">
        <ele>73.2</ele>
        <time>2021-08-06T20:16:13Z</time>
      </trkpt>
      <trkpt lat="46.64627" lon="0.36203">
        <ele>73.2</ele>
        <time>2021-08-06T20:16:14Z</time>
      </trkpt>
      <trkpt lat="46.64487" lon="0.36146">
        <ele>73.2</ele>
        <time>2021-08-06T20:16:25Z</time>
      </trkpt>
      <trkpt lat="46.6421" lon="0.3602">
        <ele>71.27</ele>
        <time>2021-08-06T20:16:46Z</time>
      </trkpt>
      <trkpt lat="46.63944" lon="0.35898">
        <ele>67.91</ele>
        <time>2021-08-06T20:17:06Z</time>
      </trkpt>
      <trkpt lat="46.6379" lon="0.35813">
        <ele>65.99</ele>
        <time>2021-08-06T20:17:17Z</time>
      </trkpt>
      <trkpt lat="46.63665" lon="0.35768">
        <ele>65.51</ele>
        <time>2021-08-06T20:17:27Z</time>
      </trkpt>
      <trkpt lat="46.635" lon="0.35764">
        <ele>65.51</ele>
        <time>2021-08-06T20:17:39Z</time>
      </trkpt>
      <trkpt lat="46.63311" lon="0.35746">
        <ele>74.16</ele>
        <time>2021-08-06T20:17:50Z</time>
      </trkpt>
      <trkpt lat="46.63064" lon="0.35645">
        <ele>77.52</ele>
        <time>2021-08-06T20:18:06Z</time>
      </trkpt>
      <trkpt lat="46.62776" lon="0.35521">
        <ele>72.72</ele>
        <time>2021-08-06T20:18:24Z</time>
      </trkpt>
      <trkpt lat="46.62546" lon="0.35432">
        <ele>71.76</ele>
        <time>2021-08-06T20:18:39Z</time>
      </trkpt>
      <trkpt lat="46.62331" lon="0.3531">
        <ele>73.2</ele>
        <time>2021-08-06T20:18:53Z</time>
      </trkpt>
      <trkpt lat="46.62252" lon="0.35237">
        <ele>74.16</ele>
        <time>2021-08-06T20:18:59Z</time>
      </trkpt>
      <trkpt lat="46.62252" lon="0.35237">
        <ele>74.16</ele>
        <time>2021-08-06T20:19:00Z</time>
      </trkpt>
      <trkpt lat="46.62243" lon="0.35228">
        <ele>73.68</ele>
        <time>2021-08-06T20:19:01Z</time>
      </trkpt>
      <trkpt lat="46.62242" lon="0.35213">
        <ele>74.64</ele>
        <time>2021-08-06T20:19:02Z</time>
      </trkpt>
      <trkpt lat="46.62242" lon="0.35202">
        <ele>74.64</ele>
        <time>2021-08-06T20:19:03Z</time>
      </trkpt>
      <trkpt lat="46.62237" lon="0.35187">
        <ele>75.12</ele>
        <time>2021-08-06T20:19:04Z</time>
      </trkpt>
      <trkpt lat="46.62231" lon="0.3518">
        <ele>75.6</ele>
        <time>2021-08-06T20:19:05Z</time>
      </trkpt>
      <trkpt lat="46.62225" lon="0.35172">
        <ele>76.56</ele>
        <time>2021-08-06T20:19:06Z</time>
      </trkpt>
      <trkpt lat="46.62215" lon="0.35171">
        <ele>77.04</ele>
        <time>2021-08-06T20:19:07Z</time>
      </trkpt>
      <trkpt lat="46.62207" lon="0.35171">
        <ele>78</ele>
        <time>2021-08-06T20:19:08Z</time>
      </trkpt>
      <trkpt lat="46.62196" lon="0.3518">
        <ele>78.97</ele>
        <time>2021-08-06T20:19:09Z</time>
      </trkpt>
      <trkpt lat="46.62188" lon="0.35178">
        <ele>78.97</ele>
        <time>2021-08-06T20:19:10Z</time>
      </trkpt>
      <trkpt lat="46.62178" lon="0.35176">
        <ele>78.48</ele>
        <time>2021-08-06T20:19:11Z</time>
      </trkpt>
      <trkpt lat="46.62167" lon="0.35174">
        <ele>77.52</ele>
        <time>2021-08-06T20:19:12Z</time>
      </trkpt>
      <trkpt lat="46.62157" lon="0.35169">
        <ele>77.04</ele>
        <time>2021-08-06T20:19:13Z</time>
      </trkpt>
      <trkpt lat="46.62053" lon="0.35122">
        <ele>77.52</ele>
        <time>2021-08-06T20:19:21Z</time>
      </trkpt>
      <trkpt lat="46.61956" lon="0.35116">
        <ele>78</ele>
        <time>2021-08-06T20:19:28Z</time>
      </trkpt>
      <trkpt lat="46.61932" lon="0.35116">
        <ele>78</ele>
        <time>2021-08-06T20:19:31Z</time>
      </trkpt>
      <trkpt lat="46.61918" lon="0.35116">
        <ele>78.48</ele>
        <time>2021-08-06T20:19:32Z</time>
      </trkpt>
      <trkpt lat="46.61918" lon="0.35116">
        <ele>78.97</ele>
        <time>2021-08-06T20:19:33Z</time>
      </trkpt>
      <trkpt lat="46.61905" lon="0.35097">
        <ele>78.97</ele>
        <time>2021-08-06T20:19:34Z</time>
      </trkpt>
      <trkpt lat="46.61905" lon="0.35097">
        <ele>78.97</ele>
        <time>2021-08-06T20:19:35Z</time>
      </trkpt>
      <trkpt lat="46.61893" lon="0.35085">
        <ele>78.48</ele>
        <time>2021-08-06T20:19:36Z</time>
      </trkpt>
      <trkpt lat="46.61893" lon="0.35085">
        <ele>78</ele>
        <time>2021-08-06T20:19:37Z</time>
      </trkpt>
      <trkpt lat="46.6189" lon="0.35073">
        <ele>78.48</ele>
        <time>2021-08-06T20:19:38Z</time>
      </trkpt>
      <trkpt lat="46.61888" lon="0.35061">
        <ele>78.48</ele>
        <time>2021-08-06T20:19:39Z</time>
      </trkpt>
      <trkpt lat="46.61891" lon="0.35032">
        <ele>77.52</ele>
        <time>2021-08-06T20:19:40Z</time>
      </trkpt>
      <trkpt lat="46.61891" lon="0.35032">
        <ele>78</ele>
        <time>2021-08-06T20:19:41Z</time>
      </trkpt>
      <trkpt lat="46.61893" lon="0.35015">
        <ele>78.97</ele>
        <time>2021-08-06T20:19:42Z</time>
      </trkpt>
      <trkpt lat="46.61897" lon="0.34999">
        <ele>79.45</ele>
        <time>2021-08-06T20:19:43Z</time>
      </trkpt>
      <trkpt lat="46.61904" lon="0.34985">
        <ele>79.93</ele>
        <time>2021-08-06T20:19:44Z</time>
      </trkpt>
      <trkpt lat="46.61912" lon="0.34978">
        <ele>79.45</ele>
        <time>2021-08-06T20:19:45Z</time>
      </trkpt>
      <trkpt lat="46.6192" lon="0.3497">
        <ele>78.97</ele>
        <time>2021-08-06T20:19:46Z</time>
      </trkpt>
      <trkpt lat="46.6193" lon="0.34971">
        <ele>79.93</ele>
        <time>2021-08-06T20:19:47Z</time>
      </trkpt>
      <trkpt lat="46.61941" lon="0.34972">
        <ele>78.97</ele>
        <time>2021-08-06T20:19:48Z</time>
      </trkpt>
      <trkpt lat="46.6195" lon="0.34982">
        <ele>78.48</ele>
        <time>2021-08-06T20:19:49Z</time>
      </trkpt>
      <trkpt lat="46.61959" lon="0.34994">
        <ele>78.48</ele>
        <time>2021-08-06T20:19:50Z</time>
      </trkpt>
      <trkpt lat="46.61963" lon="0.35006">
        <ele>77.52</ele>
        <time>2021-08-06T20:19:51Z</time>
      </trkpt>
      <trkpt lat="46.61965" lon="0.35021">
        <ele>77.52</ele>
        <time>2021-08-06T20:19:52Z</time>
      </trkpt>
      <trkpt lat="46.61967" lon="0.35038">
        <ele>77.04</ele>
        <time>2021-08-06T20:19:53Z</time>
      </trkpt>
      <trkpt lat="46.61968" lon="0.35057">
        <ele>77.52</ele>
        <time>2021-08-06T20:19:54Z</time>
      </trkpt>
      <trkpt lat="46.6197" lon="0.35077">
        <ele>76.56</ele>
        <time>2021-08-06T20:19:55Z</time>
      </trkpt>
      <trkpt lat="46.61943" lon="0.35315">
        <ele>68.39</ele>
        <time>2021-08-06T20:20:03Z</time>
      </trkpt>
      <trkpt lat="46.61879" lon="0.35577">
        <ele>63.1</ele>
        <time>2021-08-06T20:20:13Z</time>
      </trkpt>
      <trkpt lat="46.6173" lon="0.36083">
        <ele>83.77</ele>
        <time>2021-08-06T20:20:31Z</time>
      </trkpt>
      <trkpt lat="46.61635" lon="0.36252">
        <ele>88.58</ele>
        <time>2021-08-06T20:20:38Z</time>
      </trkpt>
      <trkpt lat="46.61465" lon="0.36521">
        <ele>90.98</ele>
        <time>2021-08-06T20:20:49Z</time>
      </trkpt>
      <trkpt lat="46.61404" lon="0.3674">
        <ele>92.42</ele>
        <time>2021-08-06T20:20:56Z</time>
      </trkpt>
      <trkpt lat="46.61397" lon="0.36978">
        <ele>91.94</ele>
        <time>2021-08-06T20:21:03Z</time>
      </trkpt>
      <trkpt lat="46.61444" lon="0.37185">
        <ele>86.66</ele>
        <time>2021-08-06T20:21:09Z</time>
      </trkpt>
      <trkpt lat="46.61564" lon="0.37533">
        <ele>84.25</ele>
        <time>2021-08-06T20:21:19Z</time>
      </trkpt>
      <trkpt lat="46.61605" lon="0.37788">
        <ele>87.62</ele>
        <time>2021-08-06T20:21:26Z</time>
      </trkpt>
      <trkpt lat="46.61598" lon="0.38082">
        <ele>94.35</ele>
        <time>2021-08-06T20:21:34Z</time>
      </trkpt>
      <trkpt lat="46.61534" lon="0.38356">
        <ele>91.46</ele>
        <time>2021-08-06T20:21:42Z</time>
      </trkpt>
      <trkpt lat="46.61423" lon="0.3859">
        <ele>86.18</ele>
        <time>2021-08-06T20:21:50Z</time>
      </trkpt>
      <trkpt lat="46.61272" lon="0.38774">
        <ele>91.46</ele>
        <time>2021-08-06T20:21:58Z</time>
      </trkpt>
      <trkpt lat="46.60989" lon="0.39042">
        <ele>99.15</ele>
        <time>2021-08-06T20:22:11Z</time>
      </trkpt>
      <trkpt lat="46.60817" lon="0.39226">
        <ele>103</ele>
        <time>2021-08-06T20:22:21Z</time>
      </trkpt>
      <trkpt lat="46.60696" lon="0.39301">
        <ele>101.56</ele>
        <time>2021-08-06T20:22:28Z</time>
      </trkpt>
      <trkpt lat="46.60537" lon="0.39342">
        <ele>97.71</ele>
        <time>2021-08-06T20:22:35Z</time>
      </trkpt>
      <trkpt lat="46.60376" lon="0.39324">
        <ele>85.21</ele>
        <time>2021-08-06T20:22:41Z</time>
      </trkpt>
      <trkpt lat="46.60182" lon="0.39242">
        <ele>84.25</ele>
        <time>2021-08-06T20:22:48Z</time>
      </trkpt>
      <trkpt lat="46.59917" lon="0.39097">
        <ele>94.35</ele>
        <time>2021-08-06T20:22:58Z</time>
      </trkpt>
      <trkpt lat="46.59745" lon="0.39058">
        <ele>98.67</ele>
        <time>2021-08-06T20:23:06Z</time>
      </trkpt>
      <trkpt lat="46.59541" lon="0.39075">
        <ele>101.08</ele>
        <time>2021-08-06T20:23:14Z</time>
      </trkpt>
      <trkpt lat="46.59024" lon="0.39169">
        <ele>105.4</ele>
        <time>2021-08-06T20:23:34Z</time>
      </trkpt>
      <trkpt lat="46.58555" lon="0.39273">
        <ele>114.05</ele>
        <time>2021-08-06T20:23:52Z</time>
      </trkpt>
      <trkpt lat="46.58191" lon="0.39411">
        <ele>115.01</ele>
        <time>2021-08-06T20:24:07Z</time>
      </trkpt>
      <trkpt lat="46.57782" lon="0.39627">
        <ele>125.11</ele>
        <time>2021-08-06T20:24:24Z</time>
      </trkpt>
      <trkpt lat="46.57406" lon="0.39792">
        <ele>127.51</ele>
        <time>2021-08-06T20:24:38Z</time>
      </trkpt>
      <trkpt lat="46.57114" lon="0.39855">
        <ele>121.26</ele>
        <time>2021-08-06T20:24:50Z</time>
      </trkpt>
      <trkpt lat="46.5679" lon="0.39861">
        <ele>119.82</ele>
        <time>2021-08-06T20:25:02Z</time>
      </trkpt>
      <trkpt lat="46.56354" lon="0.39794">
        <ele>121.26</ele>
        <time>2021-08-06T20:25:18Z</time>
      </trkpt>
      <trkpt lat="46.56031" lon="0.39765">
        <ele>124.15</ele>
        <time>2021-08-06T20:25:30Z</time>
      </trkpt>
      <trkpt lat="46.55712" lon="0.39815">
        <ele>126.07</ele>
        <time>2021-08-06T20:25:42Z</time>
      </trkpt>
      <trkpt lat="46.55494" lon="0.3989">
        <ele>127.51</ele>
        <time>2021-08-06T20:25:51Z</time>
      </trkpt>
      <trkpt lat="46.554" lon="0.39931">
        <ele>127.03</ele>
        <time>2021-08-06T20:25:57Z</time>
      </trkpt>
      <trkpt lat="46.55368" lon="0.39939">
        <ele>125.59</ele>
        <time>2021-08-06T20:26:00Z</time>
      </trkpt>
      <trkpt lat="46.5536" lon="0.39938">
        <ele>126.55</ele>
        <time>2021-08-06T20:26:01Z</time>
      </trkpt>
      <trkpt lat="46.55345" lon="0.39931">
        <ele>126.55</ele>
        <time>2021-08-06T20:26:02Z</time>
      </trkpt>
      <trkpt lat="46.55338" lon="0.39924">
        <ele>127.03</ele>
        <time>2021-08-06T20:26:04Z</time>
      </trkpt>
      <trkpt lat="46.55326" lon="0.39926">
        <ele>125.59</ele>
        <time>2021-08-06T20:26:05Z</time>
      </trkpt>
      <trkpt lat="46.55317" lon="0.3993">
        <ele>124.63</ele>
        <time>2021-08-06T20:26:06Z</time>
      </trkpt>
      <trkpt lat="46.5531" lon="0.3994">
        <ele>124.63</ele>
        <time>2021-08-06T20:26:07Z</time>
      </trkpt>
      <trkpt lat="46.55304" lon="0.39965">
        <ele>124.63</ele>
        <time>2021-08-06T20:26:08Z</time>
      </trkpt>
      <trkpt lat="46.55304" lon="0.39965">
        <ele>124.15</ele>
        <time>2021-08-06T20:26:09Z</time>
      </trkpt>
      <trkpt lat="46.55297" lon="0.39978">
        <ele>123.19</ele>
        <time>2021-08-06T20:26:10Z</time>
      </trkpt>
      <trkpt lat="46.55284" lon="0.40003">
        <ele>121.74</ele>
        <time>2021-08-06T20:26:11Z</time>
      </trkpt>
      <trkpt lat="46.55284" lon="0.40003">
        <ele>121.74</ele>
        <time>2021-08-06T20:26:12Z</time>
      </trkpt>
      <trkpt lat="46.55276" lon="0.40012">
        <ele>121.74</ele>
        <time>2021-08-06T20:26:13Z</time>
      </trkpt>
      <trkpt lat="46.55266" lon="0.40023">
        <ele>121.74</ele>
        <time>2021-08-06T20:26:14Z</time>
      </trkpt>
      <trkpt lat="46.55255" lon="0.40033">
        <ele>122.22</ele>
        <time>2021-08-06T20:26:15Z</time>
      </trkpt>
      <trkpt lat="46.55211" lon="0.40078">
        <ele>121.26</ele>
        <time>2021-08-06T20:26:21Z</time>
      </trkpt>
      <trkpt lat="46.55199" lon="0.4009">
        <ele>121.26</ele>
        <time>2021-08-06T20:26:30Z</time>
      </trkpt>
      <trkpt lat="46.55179" lon="0.40112">
        <ele>120.78</ele>
        <time>2021-08-06T20:26:59Z</time>
      </trkpt>
      <trkpt lat="46.55131" lon="0.40179">
        <ele>118.38</ele>
        <time>2021-08-06T20:27:06Z</time>
      </trkpt>
      <trkpt lat="46.5504" lon="0.40326">
        <ele>113.09</ele>
        <time>2021-08-06T20:27:15Z</time>
      </trkpt>
      <trkpt lat="46.54911" lon="0.40533">
        <ele>111.17</ele>
        <time>2021-08-06T20:27:25Z</time>
      </trkpt>
      <trkpt lat="46.54785" lon="0.40747">
        <ele>111.17</ele>
        <time>2021-08-06T20:27:34Z</time>
      </trkpt>
      <trkpt lat="46.54717" lon="0.40854">
        <ele>112.61</ele>
        <time>2021-08-06T20:27:42Z</time>
      </trkpt>
      <trkpt lat="46.54687" lon="0.40901">
        <ele>113.09</ele>
        <time>2021-08-06T20:27:50Z</time>
      </trkpt>
      <trkpt lat="46.54679" lon="0.40915">
        <ele>114.05</ele>
        <time>2021-08-06T20:27:59Z</time>
      </trkpt>
      <trkpt lat="46.54641" lon="0.40977">
        <ele>115.01</ele>
        <time>2021-08-06T20:28:10Z</time>
      </trkpt>
      <trkpt lat="46.54587" lon="0.41065">
        <ele>115.5</ele>
        <time>2021-08-06T20:28:20Z</time>
      </trkpt>
      <trkpt lat="46.5451" lon="0.41194">
        <ele>111.65</ele>
        <time>2021-08-06T20:28:33Z</time>
      </trkpt>
      <trkpt lat="46.54469" lon="0.41262">
        <ele>108.29</ele>
        <time>2021-08-06T20:28:47Z</time>
      </trkpt>
      <trkpt lat="46.54444" lon="0.41302">
        <ele>108.77</ele>
        <time>2021-08-06T20:28:59Z</time>
      </trkpt>
      <trkpt lat="46.54444" lon="0.41302">
        <ele>109.73</ele>
        <time>2021-08-06T20:29:26Z</time>
      </trkpt>
      <trkpt lat="46.54429" lon="0.41325">
        <ele>109.73</ele>
        <time>2021-08-06T20:29:44Z</time>
      </trkpt>
      <trkpt lat="46.54368" lon="0.41424">
        <ele>112.13</ele>
        <time>2021-08-06T20:29:56Z</time>
      </trkpt>
      <trkpt lat="46.54297" lon="0.41539">
        <ele>116.46</ele>
        <time>2021-08-06T20:30:05Z</time>
      </trkpt>
      <trkpt lat="46.54211" lon="0.4168">
        <ele>115.5</ele>
        <time>2021-08-06T20:30:16Z</time>
      </trkpt>
      <trkpt lat="46.5411" lon="0.41846">
        <ele>110.69</ele>
        <time>2021-08-06T20:30:25Z</time>
      </trkpt>
      <trkpt lat="46.53947" lon="0.4211">
        <ele>115.01</ele>
        <time>2021-08-06T20:30:40Z</time>
      </trkpt>
      <trkpt lat="46.53814" lon="0.42326">
        <ele>125.59</ele>
        <time>2021-08-06T20:30:52Z</time>
      </trkpt>
      <trkpt lat="46.53665" lon="0.42561">
        <ele>131.84</ele>
        <time>2021-08-06T20:31:08Z</time>
      </trkpt>
      <trkpt lat="46.53519" lon="0.428">
        <ele>134.24</ele>
        <time>2021-08-06T20:31:22Z</time>
      </trkpt>
      <trkpt lat="46.53368" lon="0.43054">
        <ele>130.88</ele>
        <time>2021-08-06T20:31:36Z</time>
      </trkpt>
      <trkpt lat="46.53211" lon="0.43308">
        <ele>126.55</ele>
        <time>2021-08-06T20:31:49Z</time>
      </trkpt>
      <trkpt lat="46.53032" lon="0.43601">
        <ele>122.71</ele>
        <time>2021-08-06T20:32:03Z</time>
      </trkpt>
      <trkpt lat="46.52819" lon="0.43951">
        <ele>122.71</ele>
        <time>2021-08-06T20:32:19Z</time>
      </trkpt>
      <trkpt lat="46.52705" lon="0.44139">
        <ele>125.59</ele>
        <time>2021-08-06T20:32:30Z</time>
      </trkpt>
      <trkpt lat="46.52542" lon="0.44403">
        <ele>120.78</ele>
        <time>2021-08-06T20:32:45Z</time>
      </trkpt>
      <trkpt lat="46.52361" lon="0.44699">
        <ele>121.74</ele>
        <time>2021-08-06T20:32:59Z</time>
      </trkpt>
      <trkpt lat="46.52126" lon="0.45082">
        <ele>123.19</ele>
        <time>2021-08-06T20:33:17Z</time>
      </trkpt>
      <trkpt lat="46.51849" lon="0.45529">
        <ele>122.22</ele>
        <time>2021-08-06T20:33:38Z</time>
      </trkpt>
      <trkpt lat="46.51619" lon="0.45903">
        <ele>122.71</ele>
        <time>2021-08-06T20:33:55Z</time>
      </trkpt>
      <trkpt lat="46.51433" lon="0.46207">
        <ele>128.47</ele>
        <time>2021-08-06T20:34:09Z</time>
      </trkpt>
      <trkpt lat="46.51266" lon="0.46478">
        <ele>124.63</ele>
        <time>2021-08-06T20:34:21Z</time>
      </trkpt>
      <trkpt lat="46.51004" lon="0.46906">
        <ele>123.19</ele>
        <time>2021-08-06T20:34:41Z</time>
      </trkpt>
      <trkpt lat="46.50923" lon="0.47039">
        <ele>123.19</ele>
        <time>2021-08-06T20:34:49Z</time>
      </trkpt>
      <trkpt lat="46.50831" lon="0.47181">
        <ele>127.03</ele>
        <time>2021-08-06T20:35:00Z</time>
      </trkpt>
      <trkpt lat="46.50817" lon="0.47196">
        <ele>127.03</ele>
        <time>2021-08-06T20:35:01Z</time>
      </trkpt>
      <trkpt lat="46.50817" lon="0.47196">
        <ele>126.55</ele>
        <time>2021-08-06T20:35:02Z</time>
      </trkpt>
      <trkpt lat="46.50794" lon="0.47207">
        <ele>126.55</ele>
        <time>2021-08-06T20:35:04Z</time>
      </trkpt>
      <trkpt lat="46.50788" lon="0.47219">
        <ele>126.07</ele>
        <time>2021-08-06T20:35:05Z</time>
      </trkpt>
      <trkpt lat="46.50788" lon="0.47219">
        <ele>126.07</ele>
        <time>2021-08-06T20:35:06Z</time>
      </trkpt>
      <trkpt lat="46.50787" lon="0.4723">
        <ele>125.59</ele>
        <time>2021-08-06T20:35:07Z</time>
      </trkpt>
      <trkpt lat="46.50785" lon="0.47239">
        <ele>125.59</ele>
        <time>2021-08-06T20:35:08Z</time>
      </trkpt>
      <trkpt lat="46.50785" lon="0.47239">
        <ele>125.59</ele>
        <time>2021-08-06T20:35:09Z</time>
      </trkpt>
      <trkpt lat="46.50778" lon="0.47279">
        <ele>125.59</ele>
        <time>2021-08-06T20:35:10Z</time>
      </trkpt>
      <trkpt lat="46.50778" lon="0.47279">
        <ele>125.11</ele>
        <time>2021-08-06T20:35:11Z</time>
      </trkpt>
      <trkpt lat="46.50773" lon="0.47289">
        <ele>125.59</ele>
        <time>2021-08-06T20:35:12Z</time>
      </trkpt>
      <trkpt lat="46.50697" lon="0.47409">
        <ele>126.55</ele>
        <time>2021-08-06T20:35:24Z</time>
      </trkpt>
      <trkpt lat="46.50574" lon="0.47601">
        <ele>126.07</ele>
        <time>2021-08-06T20:35:38Z</time>
      </trkpt>
      <trkpt lat="46.50432" lon="0.47788">
        <ele>124.15</ele>
        <time>2021-08-06T20:35:49Z</time>
      </trkpt>
      <trkpt lat="46.5026" lon="0.48039">
        <ele>121.26</ele>
        <time>2021-08-06T20:36:00Z</time>
      </trkpt>
      <trkpt lat="46.50095" lon="0.48308">
        <ele>120.78</ele>
        <time>2021-08-06T20:36:11Z</time>
      </trkpt>
      <trkpt lat="46.49859" lon="0.48691">
        <ele>116.46</ele>
        <time>2021-08-06T20:36:24Z</time>
      </trkpt>
      <trkpt lat="46.49524" lon="0.49232">
        <ele>115.98</ele>
        <time>2021-08-06T20:36:43Z</time>
      </trkpt>
      <trkpt lat="46.49196" lon="0.49754">
        <ele>118.38</ele>
        <time>2021-08-06T20:37:02Z</time>
      </trkpt>
      <trkpt lat="46.48863" lon="0.5026">
        <ele>120.3</ele>
        <time>2021-08-06T20:37:21Z</time>
      </trkpt>
      <trkpt lat="46.48741" lon="0.50541">
        <ele>121.74</ele>
        <time>2021-08-06T20:37:30Z</time>
      </trkpt>
      <trkpt lat="46.4866" lon="0.50852">
        <ele>124.63</ele>
        <time>2021-08-06T20:37:39Z</time>
      </trkpt>
      <trkpt lat="46.48622" lon="0.51217">
        <ele>122.71</ele>
        <time>2021-08-06T20:37:48Z</time>
      </trkpt>
      <trkpt lat="46.48605" lon="0.51904">
        <ele>118.86</ele>
        <time>2021-08-06T20:38:07Z</time>
      </trkpt>
      <trkpt lat="46.48571" lon="0.5248">
        <ele>116.94</ele>
        <time>2021-08-06T20:38:22Z</time>
      </trkpt>
      <trkpt lat="46.48492" lon="0.52851">
        <ele>115.98</ele>
        <time>2021-08-06T20:38:32Z</time>
      </trkpt>
      <trkpt lat="46.48365" lon="0.53183">
        <ele>118.38</ele>
        <time>2021-08-06T20:38:42Z</time>
      </trkpt>
      <trkpt lat="46.48205" lon="0.53466">
        <ele>119.82</ele>
        <time>2021-08-06T20:38:52Z</time>
      </trkpt>
      <trkpt lat="46.48006" lon="0.53704">
        <ele>115.98</ele>
        <time>2021-08-06T20:39:02Z</time>
      </trkpt>
      <trkpt lat="46.4778" lon="0.53881">
        <ele>114.05</ele>
        <time>2021-08-06T20:39:12Z</time>
      </trkpt>
      <trkpt lat="46.47248" lon="0.54215">
        <ele>118.86</ele>
        <time>2021-08-06T20:39:35Z</time>
      </trkpt>
      <trkpt lat="46.4678" lon="0.54506">
        <ele>113.57</ele>
        <time>2021-08-06T20:39:55Z</time>
      </trkpt>
      <trkpt lat="46.46453" lon="0.54742">
        <ele>112.13</ele>
        <time>2021-08-06T20:40:09Z</time>
      </trkpt>
      <trkpt lat="46.46227" lon="0.54967">
        <ele>113.57</ele>
        <time>2021-08-06T20:40:20Z</time>
      </trkpt>
      <trkpt lat="46.45989" lon="0.55278">
        <ele>107.32</ele>
        <time>2021-08-06T20:40:34Z</time>
      </trkpt>
      <trkpt lat="46.45803" lon="0.55557">
        <ele>111.65</ele>
        <time>2021-08-06T20:40:46Z</time>
      </trkpt>
      <trkpt lat="46.45652" lon="0.55729">
        <ele>116.46</ele>
        <time>2021-08-06T20:40:57Z</time>
      </trkpt>
      <trkpt lat="46.45605" lon="0.5578">
        <ele>117.42</ele>
        <time>2021-08-06T20:41:03Z</time>
      </trkpt>
      <trkpt lat="46.45597" lon="0.55792">
        <ele>117.9</ele>
        <time>2021-08-06T20:41:04Z</time>
      </trkpt>
      <trkpt lat="46.45582" lon="0.55784">
        <ele>119.34</ele>
        <time>2021-08-06T20:41:06Z</time>
      </trkpt>
      <trkpt lat="46.45575" lon="0.55786">
        <ele>119.34</ele>
        <time>2021-08-06T20:41:07Z</time>
      </trkpt>
      <trkpt lat="46.4557" lon="0.55799">
        <ele>118.86</ele>
        <time>2021-08-06T20:41:08Z</time>
      </trkpt>
      <trkpt lat="46.45567" lon="0.55807">
        <ele>118.86</ele>
        <time>2021-08-06T20:41:09Z</time>
      </trkpt>
      <trkpt lat="46.4557" lon="0.55815">
        <ele>118.38</ele>
        <time>2021-08-06T20:41:10Z</time>
      </trkpt>
      <trkpt lat="46.45572" lon="0.55832">
        <ele>117.9</ele>
        <time>2021-08-06T20:41:11Z</time>
      </trkpt>
      <trkpt lat="46.45568" lon="0.55844">
        <ele>115.98</ele>
        <time>2021-08-06T20:41:12Z</time>
      </trkpt>
      <trkpt lat="46.45563" lon="0.55859">
        <ele>115.98</ele>
        <time>2021-08-06T20:41:13Z</time>
      </trkpt>
      <trkpt lat="46.45496" lon="0.56055">
        <ele>115.5</ele>
        <time>2021-08-06T20:41:23Z</time>
      </trkpt>
      <trkpt lat="46.45401" lon="0.56229">
        <ele>113.57</ele>
        <time>2021-08-06T20:41:33Z</time>
      </trkpt>
      <trkpt lat="46.45204" lon="0.56575">
        <ele>104.92</ele>
        <time>2021-08-06T20:41:49Z</time>
      </trkpt>
      <trkpt lat="46.44952" lon="0.57019">
        <ele>101.08</ele>
        <time>2021-08-06T20:42:07Z</time>
      </trkpt>
      <trkpt lat="46.44729" lon="0.57413">
        <ele>97.71</ele>
        <time>2021-08-06T20:42:24Z</time>
      </trkpt>
      <trkpt lat="46.44559" lon="0.57714">
        <ele>102.04</ele>
        <time>2021-08-06T20:42:36Z</time>
      </trkpt>
      <trkpt lat="46.44307" lon="0.58156">
        <ele>117.42</ele>
        <time>2021-08-06T20:42:57Z</time>
      </trkpt>
      <trkpt lat="46.44161" lon="0.58416">
        <ele>115.5</ele>
        <time>2021-08-06T20:43:10Z</time>
      </trkpt>
      <trkpt lat="46.4396" lon="0.58767">
        <ele>102.52</ele>
        <time>2021-08-06T20:43:26Z</time>
      </trkpt>
      <trkpt lat="46.43921" lon="0.58836">
        <ele>100.11</ele>
        <time>2021-08-06T20:43:32Z</time>
      </trkpt>
      <trkpt lat="46.43886" lon="0.58898">
        <ele>98.19</ele>
        <time>2021-08-06T20:43:41Z</time>
      </trkpt>
      <trkpt lat="46.43815" lon="0.59021">
        <ele>92.9</ele>
        <time>2021-08-06T20:43:49Z</time>
      </trkpt>
      <trkpt lat="46.43713" lon="0.59197">
        <ele>98.19</ele>
        <time>2021-08-06T20:44:01Z</time>
      </trkpt>
      <trkpt lat="46.43587" lon="0.5942">
        <ele>88.1</ele>
        <time>2021-08-06T20:44:16Z</time>
      </trkpt>
      <trkpt lat="46.43581" lon="0.59434">
        <ele>88.1</ele>
        <time>2021-08-06T20:44:17Z</time>
      </trkpt>
      <trkpt lat="46.43577" lon="0.59446">
        <ele>89.54</ele>
        <time>2021-08-06T20:44:18Z</time>
      </trkpt>
      <trkpt lat="46.43574" lon="0.59456">
        <ele>90.02</ele>
        <time>2021-08-06T20:44:19Z</time>
      </trkpt>
      <trkpt lat="46.43574" lon="0.59468">
        <ele>89.54</ele>
        <time>2021-08-06T20:44:20Z</time>
      </trkpt>
      <trkpt lat="46.43576" lon="0.59483">
        <ele>87.62</ele>
        <time>2021-08-06T20:44:21Z</time>
      </trkpt>
      <trkpt lat="46.43579" lon="0.59495">
        <ele>86.18</ele>
        <time>2021-08-06T20:44:22Z</time>
      </trkpt>
      <trkpt lat="46.43584" lon="0.5951">
        <ele>85.21</ele>
        <time>2021-08-06T20:44:23Z</time>
      </trkpt>
      <trkpt lat="46.43588" lon="0.59526">
        <ele>84.25</ele>
        <time>2021-08-06T20:44:24Z</time>
      </trkpt>
      <trkpt lat="46.43591" lon="0.59542">
        <ele>83.77</ele>
        <time>2021-08-06T20:44:25Z</time>
      </trkpt>
      <trkpt lat="46.43591" lon="0.59556">
        <ele>83.29</ele>
        <time>2021-08-06T20:44:26Z</time>
      </trkpt>
      <trkpt lat="46.43588" lon="0.59572">
        <ele>82.81</ele>
        <time>2021-08-06T20:44:27Z</time>
      </trkpt>
      <trkpt lat="46.43585" lon="0.59589">
        <ele>83.29</ele>
        <time>2021-08-06T20:44:28Z</time>
      </trkpt>
      <trkpt lat="46.43567" lon="0.5969">
        <ele>87.62</ele>
        <time>2021-08-06T20:44:36Z</time>
      </trkpt>
      <trkpt lat="46.43561" lon="0.59726">
        <ele>89.06</ele>
        <time>2021-08-06T20:44:45Z</time>
      </trkpt>
      <trkpt lat="46.43553" lon="0.59765">
        <ele>90.5</ele>
        <time>2021-08-06T20:44:55Z</time>
      </trkpt>
      <trkpt lat="46.43514" lon="0.59878">
        <ele>98.67</ele>
        <time>2021-08-06T20:45:05Z</time>
      </trkpt>
      <trkpt lat="46.43444" lon="0.60068">
        <ele>106.36</ele>
        <time>2021-08-06T20:45:18Z</time>
      </trkpt>
      <trkpt lat="46.43363" lon="0.6029">
        <ele>111.65</ele>
        <time>2021-08-06T20:45:30Z</time>
      </trkpt>
      <trkpt lat="46.43245" lon="0.60619">
        <ele>127.51</ele>
        <time>2021-08-06T20:45:46Z</time>
      </trkpt>
      <trkpt lat="46.43145" lon="0.60887">
        <ele>124.63</ele>
        <time>2021-08-06T20:45:58Z</time>
      </trkpt>
      <trkpt lat="46.42965" lon="0.61384">
        <ele>109.25</ele>
        <time>2021-08-06T20:46:16Z</time>
      </trkpt>
      <trkpt lat="46.42838" lon="0.6173">
        <ele>103.48</ele>
        <time>2021-08-06T20:46:31Z</time>
      </trkpt>
      <trkpt lat="46.42689" lon="0.62135">
        <ele>118.38</ele>
        <time>2021-08-06T20:46:48Z</time>
      </trkpt>
      <trkpt lat="46.42548" lon="0.62522">
        <ele>132.32</ele>
        <time>2021-08-06T20:47:05Z</time>
      </trkpt>
      <trkpt lat="46.42433" lon="0.62834">
        <ele>124.63</ele>
        <time>2021-08-06T20:47:18Z</time>
      </trkpt>
      <trkpt lat="46.42311" lon="0.63166">
        <ele>127.99</ele>
        <time>2021-08-06T20:47:33Z</time>
      </trkpt>
      <trkpt lat="46.42277" lon="0.63254">
        <ele>131.36</ele>
        <time>2021-08-06T20:47:39Z</time>
      </trkpt>
      <trkpt lat="46.42277" lon="0.63254">
        <ele>132.32</ele>
        <time>2021-08-06T20:47:40Z</time>
      </trkpt>
      <trkpt lat="46.42275" lon="0.63257">
        <ele>132.8</ele>
        <time>2021-08-06T20:47:41Z</time>
      </trkpt>
      <trkpt lat="46.42265" lon="0.63259">
        <ele>133.76</ele>
        <time>2021-08-06T20:47:42Z</time>
      </trkpt>
      <trkpt lat="46.42256" lon="0.63266">
        <ele>133.76</ele>
        <time>2021-08-06T20:47:43Z</time>
      </trkpt>
      <trkpt lat="46.42252" lon="0.63274">
        <ele>134.24</ele>
        <time>2021-08-06T20:47:44Z</time>
      </trkpt>
      <trkpt lat="46.42249" lon="0.6329">
        <ele>134.24</ele>
        <time>2021-08-06T20:47:45Z</time>
      </trkpt>
      <trkpt lat="46.42251" lon="0.63299">
        <ele>133.76</ele>
        <time>2021-08-06T20:47:46Z</time>
      </trkpt>
      <trkpt lat="46.42252" lon="0.63304">
        <ele>133.28</ele>
        <time>2021-08-06T20:47:47Z</time>
      </trkpt>
      <trkpt lat="46.42252" lon="0.63327">
        <ele>131.84</ele>
        <time>2021-08-06T20:47:48Z</time>
      </trkpt>
      <trkpt lat="46.42247" lon="0.6334">
        <ele>132.32</ele>
        <time>2021-08-06T20:47:49Z</time>
      </trkpt>
      <trkpt lat="46.42192" lon="0.63491">
        <ele>132.32</ele>
        <time>2021-08-06T20:47:58Z</time>
      </trkpt>
      <trkpt lat="46.42105" lon="0.63734">
        <ele>129.92</ele>
        <time>2021-08-06T20:48:08Z</time>
      </trkpt>
      <trkpt lat="46.41947" lon="0.64169">
        <ele>137.13</ele>
        <time>2021-08-06T20:48:25Z</time>
      </trkpt>
      <trkpt lat="46.41698" lon="0.64848">
        <ele>138.09</ele>
        <time>2021-08-06T20:48:52Z</time>
      </trkpt>
      <trkpt lat="46.41458" lon="0.65535">
        <ele>138.09</ele>
        <time>2021-08-06T20:49:18Z</time>
      </trkpt>
      <trkpt lat="46.41452" lon="0.65564">
        <ele>138.09</ele>
        <time>2021-08-06T20:49:19Z</time>
      </trkpt>
      <trkpt lat="46.41406" lon="0.66025">
        <ele>128.47</ele>
        <time>2021-08-06T20:49:35Z</time>
      </trkpt>
      <trkpt lat="46.41391" lon="0.66334">
        <ele>120.3</ele>
        <time>2021-08-06T20:49:47Z</time>
      </trkpt>
      <trkpt lat="46.41399" lon="0.66432">
        <ele>117.9</ele>
        <time>2021-08-06T20:49:51Z</time>
      </trkpt>
      <trkpt lat="46.41404" lon="0.66455">
        <ele>117.42</ele>
        <time>2021-08-06T20:49:52Z</time>
      </trkpt>
      <trkpt lat="46.4141" lon="0.66477">
        <ele>117.42</ele>
        <time>2021-08-06T20:49:53Z</time>
      </trkpt>
      <trkpt lat="46.41418" lon="0.66499">
        <ele>116.94</ele>
        <time>2021-08-06T20:49:54Z</time>
      </trkpt>
      <trkpt lat="46.41429" lon="0.66519">
        <ele>115.98</ele>
        <time>2021-08-06T20:49:55Z</time>
      </trkpt>
      <trkpt lat="46.41441" lon="0.66538">
        <ele>115.5</ele>
        <time>2021-08-06T20:49:56Z</time>
      </trkpt>
      <trkpt lat="46.41542" lon="0.66688">
        <ele>106.84</ele>
        <time>2021-08-06T20:50:04Z</time>
      </trkpt>
      <trkpt lat="46.41551" lon="0.66709">
        <ele>105.4</ele>
        <time>2021-08-06T20:50:05Z</time>
      </trkpt>
      <trkpt lat="46.41559" lon="0.66731">
        <ele>103.96</ele>
        <time>2021-08-06T20:50:06Z</time>
      </trkpt>
      <trkpt lat="46.41579" lon="0.66804">
        <ele>102.04</ele>
        <time>2021-08-06T20:50:09Z</time>
      </trkpt>
      <trkpt lat="46.41585" lon="0.66829">
        <ele>101.08</ele>
        <time>2021-08-06T20:50:10Z</time>
      </trkpt>
      <trkpt lat="46.41635" lon="0.66939">
        <ele>99.15</ele>
        <time>2021-08-06T20:50:14Z</time>
      </trkpt>
      <trkpt lat="46.41646" lon="0.66983">
        <ele>97.71</ele>
        <time>2021-08-06T20:50:16Z</time>
      </trkpt>
      <trkpt lat="46.41646" lon="0.66983">
        <ele>96.27</ele>
        <time>2021-08-06T20:50:17Z</time>
      </trkpt>
      <trkpt lat="46.41653" lon="0.67029">
        <ele>96.75</ele>
        <time>2021-08-06T20:50:18Z</time>
      </trkpt>
      <trkpt lat="46.41652" lon="0.67054">
        <ele>96.75</ele>
        <time>2021-08-06T20:50:19Z</time>
      </trkpt>
      <trkpt lat="46.41652" lon="0.67054">
        <ele>96.75</ele>
        <time>2021-08-06T20:50:20Z</time>
      </trkpt>
      <trkpt lat="46.41651" lon="0.6708">
        <ele>95.79</ele>
        <time>2021-08-06T20:50:21Z</time>
      </trkpt>
      <trkpt lat="46.41641" lon="0.672">
        <ele>91.94</ele>
        <time>2021-08-06T20:50:26Z</time>
      </trkpt>
      <trkpt lat="46.41636" lon="0.67222">
        <ele>91.94</ele>
        <time>2021-08-06T20:50:27Z</time>
      </trkpt>
      <trkpt lat="46.4163" lon="0.67242">
        <ele>91.46</ele>
        <time>2021-08-06T20:50:28Z</time>
      </trkpt>
      <trkpt lat="46.41605" lon="0.6733">
        <ele>89.54</ele>
        <time>2021-08-06T20:50:32Z</time>
      </trkpt>
      <trkpt lat="46.41601" lon="0.67352">
        <ele>88.58</ele>
        <time>2021-08-06T20:50:33Z</time>
      </trkpt>
      <trkpt lat="46.416" lon="0.67375">
        <ele>87.62</ele>
        <time>2021-08-06T20:50:34Z</time>
      </trkpt>
      <trkpt lat="46.41599" lon="0.67397">
        <ele>86.66</ele>
        <time>2021-08-06T20:50:35Z</time>
      </trkpt>
      <trkpt lat="46.41603" lon="0.67419">
        <ele>85.21</ele>
        <time>2021-08-06T20:50:36Z</time>
      </trkpt>
      <trkpt lat="46.41607" lon="0.67442">
        <ele>85.21</ele>
        <time>2021-08-06T20:50:37Z</time>
      </trkpt>
      <trkpt lat="46.41614" lon="0.67463">
        <ele>85.21</ele>
        <time>2021-08-06T20:50:38Z</time>
      </trkpt>
      <trkpt lat="46.41622" lon="0.67484">
        <ele>84.25</ele>
        <time>2021-08-06T20:50:39Z</time>
      </trkpt>
      <trkpt lat="46.41631" lon="0.67504">
        <ele>83.77</ele>
        <time>2021-08-06T20:50:40Z</time>
      </trkpt>
      <trkpt lat="46.41642" lon="0.6752">
        <ele>83.29</ele>
        <time>2021-08-06T20:50:41Z</time>
      </trkpt>
      <trkpt lat="46.41654" lon="0.67536">
        <ele>83.29</ele>
        <time>2021-08-06T20:50:42Z</time>
      </trkpt>
      <trkpt lat="46.41723" lon="0.67656">
        <ele>77.52</ele>
        <time>2021-08-06T20:50:48Z</time>
      </trkpt>
      <trkpt lat="46.41723" lon="0.67656">
        <ele>76.56</ele>
        <time>2021-08-06T20:50:49Z</time>
      </trkpt>
      <trkpt lat="46.41729" lon="0.67699">
        <ele>76.08</ele>
        <time>2021-08-06T20:50:50Z</time>
      </trkpt>
      <trkpt lat="46.41729" lon="0.67699">
        <ele>75.6</ele>
        <time>2021-08-06T20:50:51Z</time>
      </trkpt>
      <trkpt lat="46.4173" lon="0.67746">
        <ele>74.64</ele>
        <time>2021-08-06T20:50:52Z</time>
      </trkpt>
      <trkpt lat="46.41727" lon="0.68037">
        <ele>72.24</ele>
        <time>2021-08-06T20:51:05Z</time>
      </trkpt>
      <trkpt lat="46.41726" lon="0.68059">
        <ele>73.2</ele>
        <time>2021-08-06T20:51:06Z</time>
      </trkpt>
      <trkpt lat="46.41721" lon="0.6808">
        <ele>74.16</ele>
        <time>2021-08-06T20:51:07Z</time>
      </trkpt>
      <trkpt lat="46.41715" lon="0.68097">
        <ele>75.6</ele>
        <time>2021-08-06T20:51:08Z</time>
      </trkpt>
      <trkpt lat="46.41706" lon="0.68114">
        <ele>77.04</ele>
        <time>2021-08-06T20:51:09Z</time>
      </trkpt>
      <trkpt lat="46.41697" lon="0.68129">
        <ele>78</ele>
        <time>2021-08-06T20:51:10Z</time>
      </trkpt>
      <trkpt lat="46.41677" lon="0.68159">
        <ele>78.48</ele>
        <time>2021-08-06T20:51:11Z</time>
      </trkpt>
      <trkpt lat="46.4156" lon="0.6831">
        <ele>79.93</ele>
        <time>2021-08-06T20:51:21Z</time>
      </trkpt>
      <trkpt lat="46.41216" lon="0.68739">
        <ele>75.6</ele>
        <time>2021-08-06T20:51:44Z</time>
      </trkpt>
      <trkpt lat="46.40926" lon="0.69101">
        <ele>73.68</ele>
        <time>2021-08-06T20:52:04Z</time>
      </trkpt>
      <trkpt lat="46.40685" lon="0.69401">
        <ele>74.16</ele>
        <time>2021-08-06T20:52:21Z</time>
      </trkpt>
      <trkpt lat="46.40543" lon="0.69579">
        <ele>71.76</ele>
        <time>2021-08-06T20:52:37Z</time>
      </trkpt>
      <trkpt lat="46.40498" lon="0.69638">
        <ele>72.24</ele>
        <time>2021-08-06T20:52:42Z</time>
      </trkpt>
      <trkpt lat="46.40485" lon="0.69664">
        <ele>71.27</ele>
        <time>2021-08-06T20:52:43Z</time>
      </trkpt>
      <trkpt lat="46.40485" lon="0.69664">
        <ele>71.76</ele>
        <time>2021-08-06T20:52:44Z</time>
      </trkpt>
      <trkpt lat="46.40481" lon="0.69679">
        <ele>69.83</ele>
        <time>2021-08-06T20:52:45Z</time>
      </trkpt>
      <trkpt lat="46.40477" lon="0.69696">
        <ele>68.87</ele>
        <time>2021-08-06T20:52:46Z</time>
      </trkpt>
      <trkpt lat="46.40475" lon="0.69711">
        <ele>67.91</ele>
        <time>2021-08-06T20:52:47Z</time>
      </trkpt>
      <trkpt lat="46.40474" lon="0.6973">
        <ele>68.39</ele>
        <time>2021-08-06T20:52:48Z</time>
      </trkpt>
      <trkpt lat="46.40461" lon="0.69944">
        <ele>69.83</ele>
        <time>2021-08-06T20:53:00Z</time>
      </trkpt>
      <trkpt lat="46.40448" lon="0.70188">
        <ele>69.83</ele>
        <time>2021-08-06T20:53:13Z</time>
      </trkpt>
      <trkpt lat="46.40434" lon="0.70409">
        <ele>66.47</ele>
        <time>2021-08-06T20:53:25Z</time>
      </trkpt>
      <trkpt lat="46.40432" lon="0.70471">
        <ele>65.99</ele>
        <time>2021-08-06T20:53:31Z</time>
      </trkpt>
      <trkpt lat="46.40431" lon="0.70478">
        <ele>65.99</ele>
        <time>2021-08-06T20:53:32Z</time>
      </trkpt>
      <trkpt lat="46.40431" lon="0.70496">
        <ele>65.51</ele>
        <time>2021-08-06T20:53:34Z</time>
      </trkpt>
      <trkpt lat="46.4043" lon="0.70506">
        <ele>65.03</ele>
        <time>2021-08-06T20:53:35Z</time>
      </trkpt>
      <trkpt lat="46.4043" lon="0.70517">
        <ele>64.55</ele>
        <time>2021-08-06T20:53:36Z</time>
      </trkpt>
      <trkpt lat="46.40429" lon="0.70529">
        <ele>63.58</ele>
        <time>2021-08-06T20:53:37Z</time>
      </trkpt>
      <trkpt lat="46.40428" lon="0.70542">
        <ele>64.55</ele>
        <time>2021-08-06T20:53:38Z</time>
      </trkpt>
      <trkpt lat="46.40428" lon="0.70557">
        <ele>65.51</ele>
        <time>2021-08-06T20:53:39Z</time>
      </trkpt>
      <trkpt lat="46.4043" lon="0.70731">
        <ele>68.87</ele>
        <time>2021-08-06T20:53:48Z</time>
      </trkpt>
      <trkpt lat="46.40444" lon="0.70911">
        <ele>75.6</ele>
        <time>2021-08-06T20:53:58Z</time>
      </trkpt>
      <trkpt lat="46.40444" lon="0.70938">
        <ele>76.56</ele>
        <time>2021-08-06T20:54:01Z</time>
      </trkpt>
      <trkpt lat="46.40443" lon="0.7095">
        <ele>77.52</ele>
        <time>2021-08-06T20:54:02Z</time>
      </trkpt>
      <trkpt lat="46.40439" lon="0.70964">
        <ele>78.48</ele>
        <time>2021-08-06T20:54:03Z</time>
      </trkpt>
      <trkpt lat="46.40422" lon="0.71027">
        <ele>79.93</ele>
        <time>2021-08-06T20:54:07Z</time>
      </trkpt>
      <trkpt lat="46.40418" lon="0.71058">
        <ele>81.85</ele>
        <time>2021-08-06T20:54:08Z</time>
      </trkpt>
      <trkpt lat="46.40421" lon="0.71074">
        <ele>83.77</ele>
        <time>2021-08-06T20:54:09Z</time>
      </trkpt>
      <trkpt lat="46.40421" lon="0.71074">
        <ele>84.73</ele>
        <time>2021-08-06T20:54:10Z</time>
      </trkpt>
      <trkpt lat="46.40426" lon="0.71086">
        <ele>86.66</ele>
        <time>2021-08-06T20:54:11Z</time>
      </trkpt>
      <trkpt lat="46.40434" lon="0.71098">
        <ele>86.18</ele>
        <time>2021-08-06T20:54:12Z</time>
      </trkpt>
      <trkpt lat="46.40442" lon="0.7111">
        <ele>87.62</ele>
        <time>2021-08-06T20:54:13Z</time>
      </trkpt>
      <trkpt lat="46.40456" lon="0.71136">
        <ele>88.58</ele>
        <time>2021-08-06T20:54:14Z</time>
      </trkpt>
      <trkpt lat="46.40456" lon="0.71136">
        <ele>89.06</ele>
        <time>2021-08-06T20:54:15Z</time>
      </trkpt>
      <trkpt lat="46.40458" lon="0.71151">
        <ele>89.54</ele>
        <time>2021-08-06T20:54:16Z</time>
      </trkpt>
      <trkpt lat="46.4047" lon="0.71268">
        <ele>89.54</ele>
        <time>2021-08-06T20:54:23Z</time>
      </trkpt>
      <trkpt lat="46.40469" lon="0.71284">
        <ele>90.02</ele>
        <time>2021-08-06T20:54:24Z</time>
      </trkpt>
      <trkpt lat="46.40466" lon="0.71299">
        <ele>91.94</ele>
        <time>2021-08-06T20:54:25Z</time>
      </trkpt>
      <trkpt lat="46.40463" lon="0.71315">
        <ele>93.87</ele>
        <time>2021-08-06T20:54:26Z</time>
      </trkpt>
      <trkpt lat="46.40456" lon="0.71329">
        <ele>95.31</ele>
        <time>2021-08-06T20:54:27Z</time>
      </trkpt>
      <trkpt lat="46.40449" lon="0.71341">
        <ele>97.23</ele>
        <time>2021-08-06T20:54:28Z</time>
      </trkpt>
      <trkpt lat="46.40441" lon="0.71351">
        <ele>97.23</ele>
        <time>2021-08-06T20:54:29Z</time>
      </trkpt>
      <trkpt lat="46.40398" lon="0.71409">
        <ele>98.19</ele>
        <time>2021-08-06T20:54:34Z</time>
      </trkpt>
      <trkpt lat="46.4039" lon="0.71422">
        <ele>97.23</ele>
        <time>2021-08-06T20:54:35Z</time>
      </trkpt>
      <trkpt lat="46.40384" lon="0.71437">
        <ele>97.23</ele>
        <time>2021-08-06T20:54:36Z</time>
      </trkpt>
      <trkpt lat="46.4038" lon="0.71451">
        <ele>97.23</ele>
        <time>2021-08-06T20:54:37Z</time>
      </trkpt>
      <trkpt lat="46.40377" lon="0.71467">
        <ele>95.31</ele>
        <time>2021-08-06T20:54:38Z</time>
      </trkpt>
      <trkpt lat="46.40362" lon="0.71633">
        <ele>99.15</ele>
        <time>2021-08-06T20:54:48Z</time>
      </trkpt>
      <trkpt lat="46.40345" lon="0.71908">
        <ele>101.56</ele>
        <time>2021-08-06T20:55:04Z</time>
      </trkpt>
      <trkpt lat="46.40331" lon="0.72162">
        <ele>103.48</ele>
        <time>2021-08-06T20:55:20Z</time>
      </trkpt>
      <trkpt lat="46.40322" lon="0.72302">
        <ele>103.96</ele>
        <time>2021-08-06T20:55:33Z</time>
      </trkpt>
      <trkpt lat="46.40303" lon="0.72375">
        <ele>103.48</ele>
        <time>2021-08-06T20:55:43Z</time>
      </trkpt>
      <trkpt lat="46.4025" lon="0.7246">
        <ele>102.04</ele>
        <time>2021-08-06T20:55:54Z</time>
      </trkpt>
      <trkpt lat="46.40172" lon="0.72553">
        <ele>102.04</ele>
        <time>2021-08-06T20:56:06Z</time>
      </trkpt>
      <trkpt lat="46.40051" lon="0.72697">
        <ele>101.56</ele>
        <time>2021-08-06T20:56:20Z</time>
      </trkpt>
      <trkpt lat="46.39917" lon="0.72858">
        <ele>105.88</ele>
        <time>2021-08-06T20:56:33Z</time>
      </trkpt>
      <trkpt lat="46.3979" lon="0.73011">
        <ele>109.25</ele>
        <time>2021-08-06T20:56:45Z</time>
      </trkpt>
      <trkpt lat="46.3969" lon="0.73129">
        <ele>107.81</ele>
        <time>2021-08-06T20:56:56Z</time>
      </trkpt>
      <trkpt lat="46.39618" lon="0.73201">
        <ele>107.32</ele>
        <time>2021-08-06T20:57:05Z</time>
      </trkpt>
      <trkpt lat="46.3961" lon="0.73205">
        <ele>107.32</ele>
        <time>2021-08-06T20:57:06Z</time>
      </trkpt>
      <trkpt lat="46.39603" lon="0.73208">
        <ele>107.81</ele>
        <time>2021-08-06T20:57:07Z</time>
      </trkpt>
      <trkpt lat="46.39586" lon="0.73213">
        <ele>107.81</ele>
        <time>2021-08-06T20:57:08Z</time>
      </trkpt>
      <trkpt lat="46.3958" lon="0.7322">
        <ele>107.81</ele>
        <time>2021-08-06T20:57:09Z</time>
      </trkpt>
      <trkpt lat="46.3958" lon="0.7322">
        <ele>107.81</ele>
        <time>2021-08-06T20:57:10Z</time>
      </trkpt>
      <trkpt lat="46.39579" lon="0.73232">
        <ele>107.81</ele>
        <time>2021-08-06T20:57:11Z</time>
      </trkpt>
      <trkpt lat="46.39577" lon="0.73244">
        <ele>107.81</ele>
        <time>2021-08-06T20:57:12Z</time>
      </trkpt>
      <trkpt lat="46.39576" lon="0.73257">
        <ele>107.81</ele>
        <time>2021-08-06T20:57:13Z</time>
      </trkpt>
      <trkpt lat="46.39561" lon="0.7328">
        <ele>107.81</ele>
        <time>2021-08-06T20:57:14Z</time>
      </trkpt>
      <trkpt lat="46.39553" lon="0.73293">
        <ele>108.29</ele>
        <time>2021-08-06T20:57:15Z</time>
      </trkpt>
      <trkpt lat="46.39478" lon="0.73387">
        <ele>110.69</ele>
        <time>2021-08-06T20:57:23Z</time>
      </trkpt>
      <trkpt lat="46.39299" lon="0.73604">
        <ele>110.21</ele>
        <time>2021-08-06T20:57:35Z</time>
      </trkpt>
      <trkpt lat="46.39041" lon="0.73918">
        <ele>107.81</ele>
        <time>2021-08-06T20:57:51Z</time>
      </trkpt>
      <trkpt lat="46.38734" lon="0.74292">
        <ele>115.98</ele>
        <time>2021-08-06T20:58:11Z</time>
      </trkpt>
      <trkpt lat="46.38371" lon="0.74742">
        <ele>110.21</ele>
        <time>2021-08-06T20:58:34Z</time>
      </trkpt>
      <trkpt lat="46.38111" lon="0.75063">
        <ele>113.57</ele>
        <time>2021-08-06T20:58:51Z</time>
      </trkpt>
      <trkpt lat="46.37831" lon="0.7541">
        <ele>116.94</ele>
        <time>2021-08-06T20:59:09Z</time>
      </trkpt>
      <trkpt lat="46.37486" lon="0.75835">
        <ele>110.69</ele>
        <time>2021-08-06T20:59:31Z</time>
      </trkpt>
      <trkpt lat="46.3721" lon="0.76171">
        <ele>110.21</ele>
        <time>2021-08-06T20:59:48Z</time>
      </trkpt>
      <trkpt lat="46.36904" lon="0.76545">
        <ele>115.98</ele>
        <time>2021-08-06T21:00:09Z</time>
      </trkpt>
      <trkpt lat="46.3657" lon="0.76948">
        <ele>115.01</ele>
        <time>2021-08-06T21:00:30Z</time>
      </trkpt>
      <trkpt lat="46.36276" lon="0.77305">
        <ele>115.98</ele>
        <time>2021-08-06T21:00:49Z</time>
      </trkpt>
      <trkpt lat="46.35977" lon="0.77671">
        <ele>126.07</ele>
        <time>2021-08-06T21:01:09Z</time>
      </trkpt>
      <trkpt lat="46.35721" lon="0.77984">
        <ele>133.76</ele>
        <time>2021-08-06T21:01:26Z</time>
      </trkpt>
      <trkpt lat="46.35501" lon="0.7825">
        <ele>144.34</ele>
        <time>2021-08-06T21:01:41Z</time>
      </trkpt>
      <trkpt lat="46.35309" lon="0.78482">
        <ele>140.97</ele>
        <time>2021-08-06T21:01:54Z</time>
      </trkpt>
      <trkpt lat="46.35048" lon="0.78796">
        <ele>136.64</ele>
        <time>2021-08-06T21:02:11Z</time>
      </trkpt>
      <trkpt lat="46.34824" lon="0.79062">
        <ele>137.13</ele>
        <time>2021-08-06T21:02:26Z</time>
      </trkpt>
      <trkpt lat="46.34641" lon="0.7928">
        <ele>140.49</ele>
        <time>2021-08-06T21:02:38Z</time>
      </trkpt>
      <trkpt lat="46.34287" lon="0.79705">
        <ele>149.62</ele>
        <time>2021-08-06T21:03:02Z</time>
      </trkpt>
      <trkpt lat="46.33927" lon="0.80136">
        <ele>162.6</ele>
        <time>2021-08-06T21:03:25Z</time>
      </trkpt>
      <trkpt lat="46.33558" lon="0.8058">
        <ele>155.87</ele>
        <time>2021-08-06T21:03:51Z</time>
      </trkpt>
      <trkpt lat="46.33393" lon="0.80784">
        <ele>147.7</ele>
        <time>2021-08-06T21:04:04Z</time>
      </trkpt>
      <trkpt lat="46.33219" lon="0.80994">
        <ele>144.82</ele>
        <time>2021-08-06T21:04:20Z</time>
      </trkpt>
      <trkpt lat="46.33066" lon="0.81178">
        <ele>153.47</ele>
        <time>2021-08-06T21:04:35Z</time>
      </trkpt>
      <trkpt lat="46.32926" lon="0.81351">
        <ele>157.79</ele>
        <time>2021-08-06T21:04:50Z</time>
      </trkpt>
      <trkpt lat="46.32806" lon="0.81494">
        <ele>149.62</ele>
        <time>2021-08-06T21:05:01Z</time>
      </trkpt>
      <trkpt lat="46.32653" lon="0.81648">
        <ele>140.01</ele>
        <time>2021-08-06T21:05:10Z</time>
      </trkpt>
      <trkpt lat="46.32423" lon="0.81832">
        <ele>146.74</ele>
        <time>2021-08-06T21:05:24Z</time>
      </trkpt>
      <trkpt lat="46.32155" lon="0.82051">
        <ele>160.68</ele>
        <time>2021-08-06T21:05:40Z</time>
      </trkpt>
      <trkpt lat="46.3182" lon="0.82321">
        <ele>169.33</ele>
        <time>2021-08-06T21:05:59Z</time>
      </trkpt>
      <trkpt lat="46.31588" lon="0.82509">
        <ele>175.1</ele>
        <time>2021-08-06T21:06:13Z</time>
      </trkpt>
      <trkpt lat="46.31292" lon="0.82751">
        <ele>176.06</ele>
        <time>2021-08-06T21:06:30Z</time>
      </trkpt>
      <trkpt lat="46.30843" lon="0.83121">
        <ele>179.42</ele>
        <time>2021-08-06T21:06:56Z</time>
      </trkpt>
      <trkpt lat="46.30435" lon="0.83456">
        <ele>184.23</ele>
        <time>2021-08-06T21:07:20Z</time>
      </trkpt>
      <trkpt lat="46.30042" lon="0.83783">
        <ele>186.63</ele>
        <time>2021-08-06T21:07:42Z</time>
      </trkpt>
      <trkpt lat="46.29684" lon="0.84083">
        <ele>191.92</ele>
        <time>2021-08-06T21:08:03Z</time>
      </trkpt>
      <trkpt lat="46.29435" lon="0.84295">
        <ele>187.11</ele>
        <time>2021-08-06T21:08:17Z</time>
      </trkpt>
      <trkpt lat="46.29117" lon="0.84566">
        <ele>188.56</ele>
        <time>2021-08-06T21:08:36Z</time>
      </trkpt>
      <trkpt lat="46.28832" lon="0.84809">
        <ele>188.56</ele>
        <time>2021-08-06T21:08:53Z</time>
      </trkpt>
      <trkpt lat="46.28565" lon="0.85039">
        <ele>191.44</ele>
        <time>2021-08-06T21:09:09Z</time>
      </trkpt>
      <trkpt lat="46.28293" lon="0.85269">
        <ele>192.88</ele>
        <time>2021-08-06T21:09:25Z</time>
      </trkpt>
      <trkpt lat="46.28059" lon="0.85467">
        <ele>199.61</ele>
        <time>2021-08-06T21:09:39Z</time>
      </trkpt>
      <trkpt lat="46.27804" lon="0.85686">
        <ele>197.21</ele>
        <time>2021-08-06T21:09:53Z</time>
      </trkpt>
      <trkpt lat="46.27583" lon="0.85873">
        <ele>194.8</ele>
        <time>2021-08-06T21:10:07Z</time>
      </trkpt>
      <trkpt lat="46.27396" lon="0.86033">
        <ele>207.78</ele>
        <time>2021-08-06T21:10:18Z</time>
      </trkpt>
      <trkpt lat="46.27173" lon="0.86223">
        <ele>209.7</ele>
        <time>2021-08-06T21:10:32Z</time>
      </trkpt>
      <trkpt lat="46.27034" lon="0.86342">
        <ele>204.9</ele>
        <time>2021-08-06T21:10:42Z</time>
      </trkpt>
      <trkpt lat="46.27026" lon="0.86349">
        <ele>205.38</ele>
        <time>2021-08-06T21:10:43Z</time>
      </trkpt>
      <trkpt lat="46.27018" lon="0.86356">
        <ele>206.34</ele>
        <time>2021-08-06T21:10:44Z</time>
      </trkpt>
      <trkpt lat="46.27011" lon="0.86362">
        <ele>207.3</ele>
        <time>2021-08-06T21:10:45Z</time>
      </trkpt>
      <trkpt lat="46.27" lon="0.86351">
        <ele>207.3</ele>
        <time>2021-08-06T21:10:46Z</time>
      </trkpt>
      <trkpt lat="46.26983" lon="0.86359">
        <ele>207.3</ele>
        <time>2021-08-06T21:10:47Z</time>
      </trkpt>
      <trkpt lat="46.26983" lon="0.86359">
        <ele>206.82</ele>
        <time>2021-08-06T21:10:48Z</time>
      </trkpt>
      <trkpt lat="46.26978" lon="0.86367">
        <ele>205.86</ele>
        <time>2021-08-06T21:10:49Z</time>
      </trkpt>
      <trkpt lat="46.26978" lon="0.86379">
        <ele>205.38</ele>
        <time>2021-08-06T21:10:50Z</time>
      </trkpt>
      <trkpt lat="46.2697" lon="0.86396">
        <ele>205.86</ele>
        <time>2021-08-06T21:10:51Z</time>
      </trkpt>
      <trkpt lat="46.26962" lon="0.86403">
        <ele>206.82</ele>
        <time>2021-08-06T21:10:52Z</time>
      </trkpt>
      <trkpt lat="46.26952" lon="0.86411">
        <ele>207.3</ele>
        <time>2021-08-06T21:10:53Z</time>
      </trkpt>
      <trkpt lat="46.26942" lon="0.86419">
        <ele>206.34</ele>
        <time>2021-08-06T21:10:54Z</time>
      </trkpt>
      <trkpt lat="46.26786" lon="0.86551">
        <ele>212.59</ele>
        <time>2021-08-06T21:11:05Z</time>
      </trkpt>
      <trkpt lat="46.26609" lon="0.86712">
        <ele>214.51</ele>
        <time>2021-08-06T21:11:18Z</time>
      </trkpt>
      <trkpt lat="46.26388" lon="0.86916">
        <ele>213.07</ele>
        <time>2021-08-06T21:11:31Z</time>
      </trkpt>
      <trkpt lat="46.26022" lon="0.87282">
        <ele>214.51</ele>
        <time>2021-08-06T21:11:52Z</time>
      </trkpt>
      <trkpt lat="46.25682" lon="0.87624">
        <ele>213.55</ele>
        <time>2021-08-06T21:12:12Z</time>
      </trkpt>
      <trkpt lat="46.25407" lon="0.87899">
        <ele>219.32</ele>
        <time>2021-08-06T21:12:29Z</time>
      </trkpt>
      <trkpt lat="46.25126" lon="0.88182">
        <ele>219.8</ele>
        <time>2021-08-06T21:12:46Z</time>
      </trkpt>
      <trkpt lat="46.24825" lon="0.88488">
        <ele>216.91</ele>
        <time>2021-08-06T21:13:04Z</time>
      </trkpt>
      <trkpt lat="46.24579" lon="0.88738">
        <ele>218.84</ele>
        <time>2021-08-06T21:13:19Z</time>
      </trkpt>
      <trkpt lat="46.24307" lon="0.89013">
        <ele>225.09</ele>
        <time>2021-08-06T21:13:36Z</time>
      </trkpt>
      <trkpt lat="46.24192" lon="0.89128">
        <ele>226.05</ele>
        <time>2021-08-06T21:13:44Z</time>
      </trkpt>
      <trkpt lat="46.24057" lon="0.89263">
        <ele>224.61</ele>
        <time>2021-08-06T21:13:56Z</time>
      </trkpt>
      <trkpt lat="46.23933" lon="0.89345">
        <ele>225.09</ele>
        <time>2021-08-06T21:14:06Z</time>
      </trkpt>
      <trkpt lat="46.23756" lon="0.89437">
        <ele>223.64</ele>
        <time>2021-08-06T21:14:17Z</time>
      </trkpt>
      <trkpt lat="46.23548" lon="0.89545">
        <ele>224.12</ele>
        <time>2021-08-06T21:14:30Z</time>
      </trkpt>
      <trkpt lat="46.23226" lon="0.89708">
        <ele>227.01</ele>
        <time>2021-08-06T21:14:47Z</time>
      </trkpt>
      <trkpt lat="46.23008" lon="0.89846">
        <ele>219.32</ele>
        <time>2021-08-06T21:14:59Z</time>
      </trkpt>
      <trkpt lat="46.22706" lon="0.90083">
        <ele>218.84</ele>
        <time>2021-08-06T21:15:16Z</time>
      </trkpt>
      <trkpt lat="46.22416" lon="0.90311">
        <ele>223.64</ele>
        <time>2021-08-06T21:15:32Z</time>
      </trkpt>
      <trkpt lat="46.22052" lon="0.90597">
        <ele>224.61</ele>
        <time>2021-08-06T21:15:50Z</time>
      </trkpt>
      <trkpt lat="46.2173" lon="0.90849">
        <ele>223.16</ele>
        <time>2021-08-06T21:16:08Z</time>
      </trkpt>
      <trkpt lat="46.21307" lon="0.91183">
        <ele>221.24</ele>
        <time>2021-08-06T21:16:31Z</time>
      </trkpt>
      <trkpt lat="46.20992" lon="0.91429">
        <ele>220.28</ele>
        <time>2021-08-06T21:16:48Z</time>
      </trkpt>
      <trkpt lat="46.20577" lon="0.91751">
        <ele>230.37</ele>
        <time>2021-08-06T21:17:11Z</time>
      </trkpt>
      <trkpt lat="46.20192" lon="0.92052">
        <ele>232.78</ele>
        <time>2021-08-06T21:17:33Z</time>
      </trkpt>
      <trkpt lat="46.19886" lon="0.9229">
        <ele>236.62</ele>
        <time>2021-08-06T21:17:50Z</time>
      </trkpt>
      <trkpt lat="46.19519" lon="0.92575">
        <ele>232.78</ele>
        <time>2021-08-06T21:18:10Z</time>
      </trkpt>
      <trkpt lat="46.19194" lon="0.92829">
        <ele>240.47</ele>
        <time>2021-08-06T21:18:29Z</time>
      </trkpt>
      <trkpt lat="46.18764" lon="0.93164">
        <ele>250.08</ele>
        <time>2021-08-06T21:18:54Z</time>
      </trkpt>
      <trkpt lat="46.18485" lon="0.93389">
        <ele>248.64</ele>
        <time>2021-08-06T21:19:09Z</time>
      </trkpt>
      <trkpt lat="46.18311" lon="0.93597">
        <ele>242.87</ele>
        <time>2021-08-06T21:19:20Z</time>
      </trkpt>
      <trkpt lat="46.18006" lon="0.93971">
        <ele>224.12</ele>
        <time>2021-08-06T21:19:40Z</time>
      </trkpt>
      <trkpt lat="46.17734" lon="0.94308">
        <ele>218.84</ele>
        <time>2021-08-06T21:19:57Z</time>
      </trkpt>
      <trkpt lat="46.17462" lon="0.94641">
        <ele>220.28</ele>
        <time>2021-08-06T21:20:16Z</time>
      </trkpt>
      <trkpt lat="46.17269" lon="0.9488">
        <ele>205.86</ele>
        <time>2021-08-06T21:20:29Z</time>
      </trkpt>
      <trkpt lat="46.17096" lon="0.95094">
        <ele>200.57</ele>
        <time>2021-08-06T21:20:41Z</time>
      </trkpt>
      <trkpt lat="46.16986" lon="0.95229">
        <ele>203.94</ele>
        <time>2021-08-06T21:20:51Z</time>
      </trkpt>
      <trkpt lat="46.16849" lon="0.95394">
        <ele>199.13</ele>
        <time>2021-08-06T21:21:04Z</time>
      </trkpt>
      <trkpt lat="46.16812" lon="0.95436">
        <ele>198.17</ele>
        <time>2021-08-06T21:21:07Z</time>
      </trkpt>
      <trkpt lat="46.16791" lon="0.95448">
        <ele>198.65</ele>
        <time>2021-08-06T21:21:08Z</time>
      </trkpt>
      <trkpt lat="46.16781" lon="0.95448">
        <ele>198.17</ele>
        <time>2021-08-06T21:21:09Z</time>
      </trkpt>
      <trkpt lat="46.16769" lon="0.95448">
        <ele>197.69</ele>
        <time>2021-08-06T21:21:10Z</time>
      </trkpt>
      <trkpt lat="46.16769" lon="0.95448">
        <ele>196.25</ele>
        <time>2021-08-06T21:21:11Z</time>
      </trkpt>
      <trkpt lat="46.16757" lon="0.95444">
        <ele>195.77</ele>
        <time>2021-08-06T21:21:12Z</time>
      </trkpt>
      <trkpt lat="46.16745" lon="0.9544">
        <ele>194.8</ele>
        <time>2021-08-06T21:21:13Z</time>
      </trkpt>
      <trkpt lat="46.16708" lon="0.95429">
        <ele>192.88</ele>
        <time>2021-08-06T21:21:16Z</time>
      </trkpt>
      <trkpt lat="46.16694" lon="0.95429">
        <ele>191.92</ele>
        <time>2021-08-06T21:21:17Z</time>
      </trkpt>
      <trkpt lat="46.16667" lon="0.95435">
        <ele>191.92</ele>
        <time>2021-08-06T21:21:18Z</time>
      </trkpt>
      <trkpt lat="46.16667" lon="0.95435">
        <ele>191.92</ele>
        <time>2021-08-06T21:21:19Z</time>
      </trkpt>
      <trkpt lat="46.16653" lon="0.95444">
        <ele>191.44</ele>
        <time>2021-08-06T21:21:20Z</time>
      </trkpt>
      <trkpt lat="46.16641" lon="0.95455">
        <ele>190.96</ele>
        <time>2021-08-06T21:21:21Z</time>
      </trkpt>
      <trkpt lat="46.16628" lon="0.9547">
        <ele>190.48</ele>
        <time>2021-08-06T21:21:22Z</time>
      </trkpt>
      <trkpt lat="46.16609" lon="0.95505">
        <ele>188.08</ele>
        <time>2021-08-06T21:21:23Z</time>
      </trkpt>
      <trkpt lat="46.16609" lon="0.95505">
        <ele>186.15</ele>
        <time>2021-08-06T21:21:24Z</time>
      </trkpt>
      <trkpt lat="46.16603" lon="0.95526">
        <ele>184.71</ele>
        <time>2021-08-06T21:21:25Z</time>
      </trkpt>
      <trkpt lat="46.16578" lon="0.95611">
        <ele>180.38</ele>
        <time>2021-08-06T21:21:29Z</time>
      </trkpt>
      <trkpt lat="46.16576" lon="0.95634">
        <ele>180.38</ele>
        <time>2021-08-06T21:21:30Z</time>
      </trkpt>
      <trkpt lat="46.16574" lon="0.95657">
        <ele>179.9</ele>
        <time>2021-08-06T21:21:31Z</time>
      </trkpt>
      <trkpt lat="46.16573" lon="0.95679">
        <ele>179.42</ele>
        <time>2021-08-06T21:21:32Z</time>
      </trkpt>
      <trkpt lat="46.16573" lon="0.957">
        <ele>178.94</ele>
        <time>2021-08-06T21:21:33Z</time>
      </trkpt>
      <trkpt lat="46.16577" lon="0.95721">
        <ele>178.46</ele>
        <time>2021-08-06T21:21:34Z</time>
      </trkpt>
      <trkpt lat="46.16589" lon="0.95782">
        <ele>176.06</ele>
        <time>2021-08-06T21:21:37Z</time>
      </trkpt>
      <trkpt lat="46.16591" lon="0.95803">
        <ele>174.14</ele>
        <time>2021-08-06T21:21:38Z</time>
      </trkpt>
      <trkpt lat="46.16591" lon="0.95824">
        <ele>173.66</ele>
        <time>2021-08-06T21:21:39Z</time>
      </trkpt>
      <trkpt lat="46.16588" lon="0.95846">
        <ele>172.21</ele>
        <time>2021-08-06T21:21:40Z</time>
      </trkpt>
      <trkpt lat="46.16582" lon="0.95865">
        <ele>170.77</ele>
        <time>2021-08-06T21:21:41Z</time>
      </trkpt>
      <trkpt lat="46.16575" lon="0.95884">
        <ele>169.81</ele>
        <time>2021-08-06T21:21:42Z</time>
      </trkpt>
      <trkpt lat="46.1654" lon="0.9596">
        <ele>168.85</ele>
        <time>2021-08-06T21:21:46Z</time>
      </trkpt>
      <trkpt lat="46.1653" lon="0.95978">
        <ele>166.93</ele>
        <time>2021-08-06T21:21:47Z</time>
      </trkpt>
      <trkpt lat="46.16517" lon="0.95989">
        <ele>167.41</ele>
        <time>2021-08-06T21:21:48Z</time>
      </trkpt>
      <trkpt lat="46.16505" lon="0.95999">
        <ele>167.41</ele>
        <time>2021-08-06T21:21:49Z</time>
      </trkpt>
      <trkpt lat="46.16493" lon="0.96001">
        <ele>166.45</ele>
        <time>2021-08-06T21:21:50Z</time>
      </trkpt>
      <trkpt lat="46.16481" lon="0.96002">
        <ele>165</ele>
        <time>2021-08-06T21:21:51Z</time>
      </trkpt>
      <trkpt lat="46.16466" lon="0.96002">
        <ele>165</ele>
        <time>2021-08-06T21:21:52Z</time>
      </trkpt>
      <trkpt lat="46.16258" lon="0.9598">
        <ele>174.62</ele>
        <time>2021-08-06T21:22:05Z</time>
      </trkpt>
      <trkpt lat="46.16137" lon="0.95962">
        <ele>182.79</ele>
        <time>2021-08-06T21:22:12Z</time>
      </trkpt>
      <trkpt lat="46.15988" lon="0.95998">
        <ele>190</ele>
        <time>2021-08-06T21:22:20Z</time>
      </trkpt>
      <trkpt lat="46.15951" lon="0.96014">
        <ele>192.88</ele>
        <time>2021-08-06T21:22:22Z</time>
      </trkpt>
      <trkpt lat="46.15934" lon="0.96021">
        <ele>192.88</ele>
        <time>2021-08-06T21:22:23Z</time>
      </trkpt>
      <trkpt lat="46.15916" lon="0.96021">
        <ele>192.4</ele>
        <time>2021-08-06T21:22:24Z</time>
      </trkpt>
      <trkpt lat="46.15897" lon="0.96019">
        <ele>193.36</ele>
        <time>2021-08-06T21:22:25Z</time>
      </trkpt>
      <trkpt lat="46.15879" lon="0.96015">
        <ele>194.32</ele>
        <time>2021-08-06T21:22:26Z</time>
      </trkpt>
      <trkpt lat="46.15824" lon="0.96008">
        <ele>197.69</ele>
        <time>2021-08-06T21:22:29Z</time>
      </trkpt>
      <trkpt lat="46.15806" lon="0.9601">
        <ele>198.17</ele>
        <time>2021-08-06T21:22:30Z</time>
      </trkpt>
      <trkpt lat="46.15786" lon="0.96012">
        <ele>199.13</ele>
        <time>2021-08-06T21:22:31Z</time>
      </trkpt>
      <trkpt lat="46.15512" lon="0.96154">
        <ele>215.95</ele>
        <time>2021-08-06T21:22:46Z</time>
      </trkpt>
      <trkpt lat="46.15336" lon="0.9628">
        <ele>223.64</ele>
        <time>2021-08-06T21:22:56Z</time>
      </trkpt>
      <trkpt lat="46.15142" lon="0.96433">
        <ele>235.18</ele>
        <time>2021-08-06T21:23:08Z</time>
      </trkpt>
      <trkpt lat="46.14936" lon="0.96595">
        <ele>238.54</ele>
        <time>2021-08-06T21:23:23Z</time>
      </trkpt>
      <trkpt lat="46.14862" lon="0.96657">
        <ele>240.47</ele>
        <time>2021-08-06T21:23:28Z</time>
      </trkpt>
      <trkpt lat="46.14848" lon="0.96672">
        <ele>240.47</ele>
        <time>2021-08-06T21:23:29Z</time>
      </trkpt>
      <trkpt lat="46.14704" lon="0.96892">
        <ele>237.1</ele>
        <time>2021-08-06T21:23:40Z</time>
      </trkpt>
      <trkpt lat="46.14416" lon="0.97334">
        <ele>239.51</ele>
        <time>2021-08-06T21:24:01Z</time>
      </trkpt>
      <trkpt lat="46.1423" lon="0.97578">
        <ele>238.06</ele>
        <time>2021-08-06T21:24:13Z</time>
      </trkpt>
      <trkpt lat="46.13888" lon="0.98011">
        <ele>244.31</ele>
        <time>2021-08-06T21:24:35Z</time>
      </trkpt>
      <trkpt lat="46.13515" lon="0.9848">
        <ele>248.64</ele>
        <time>2021-08-06T21:24:59Z</time>
      </trkpt>
      <trkpt lat="46.13366" lon="0.98667">
        <ele>255.37</ele>
        <time>2021-08-06T21:25:09Z</time>
      </trkpt>
      <trkpt lat="46.1311" lon="0.98992">
        <ele>253.44</ele>
        <time>2021-08-06T21:25:26Z</time>
      </trkpt>
      <trkpt lat="46.13018" lon="0.99062">
        <ele>255.85</ele>
        <time>2021-08-06T21:25:32Z</time>
      </trkpt>
      <trkpt lat="46.12987" lon="0.99073">
        <ele>256.33</ele>
        <time>2021-08-06T21:25:38Z</time>
      </trkpt>
      <trkpt lat="46.12973" lon="0.99065">
        <ele>255.85</ele>
        <time>2021-08-06T21:25:44Z</time>
      </trkpt>
      <trkpt lat="46.12967" lon="0.99062">
        <ele>255.85</ele>
        <time>2021-08-06T21:25:45Z</time>
      </trkpt>
      <trkpt lat="46.12962" lon="0.99062">
        <ele>256.33</ele>
        <time>2021-08-06T21:25:46Z</time>
      </trkpt>
      <trkpt lat="46.12956" lon="0.99066">
        <ele>256.33</ele>
        <time>2021-08-06T21:25:47Z</time>
      </trkpt>
      <trkpt lat="46.12951" lon="0.99072">
        <ele>255.85</ele>
        <time>2021-08-06T21:25:48Z</time>
      </trkpt>
      <trkpt lat="46.12949" lon="0.99074">
        <ele>254.89</ele>
        <time>2021-08-06T21:25:49Z</time>
      </trkpt>
      <trkpt lat="46.1295" lon="0.99089">
        <ele>254.41</ele>
        <time>2021-08-06T21:25:50Z</time>
      </trkpt>
      <trkpt lat="46.12947" lon="0.9911">
        <ele>253.93</ele>
        <time>2021-08-06T21:25:51Z</time>
      </trkpt>
      <trkpt lat="46.12935" lon="0.99127">
        <ele>253.44</ele>
        <time>2021-08-06T21:25:52Z</time>
      </trkpt>
      <trkpt lat="46.12928" lon="0.99139">
        <ele>253.44</ele>
        <time>2021-08-06T21:25:53Z</time>
      </trkpt>
      <trkpt lat="46.12874" lon="0.99246">
        <ele>249.6</ele>
        <time>2021-08-06T21:26:01Z</time>
      </trkpt>
      <trkpt lat="46.12831" lon="0.99423">
        <ele>247.68</ele>
        <time>2021-08-06T21:26:09Z</time>
      </trkpt>
      <trkpt lat="46.1276" lon="0.99781">
        <ele>240.95</ele>
        <time>2021-08-06T21:26:22Z</time>
      </trkpt>
      <trkpt lat="46.12718" lon="1.00134">
        <ele>227.49</ele>
        <time>2021-08-06T21:26:33Z</time>
      </trkpt>
      <trkpt lat="46.12725" lon="1.00488">
        <ele>210.67</ele>
        <time>2021-08-06T21:26:44Z</time>
      </trkpt>
      <trkpt lat="46.12778" lon="1.00831">
        <ele>194.8</ele>
        <time>2021-08-06T21:26:54Z</time>
      </trkpt>
      <trkpt lat="46.1289" lon="1.01453">
        <ele>195.28</ele>
        <time>2021-08-06T21:27:12Z</time>
      </trkpt>
      <trkpt lat="46.12937" lon="1.01835">
        <ele>194.8</ele>
        <time>2021-08-06T21:27:24Z</time>
      </trkpt>
      <trkpt lat="46.12918" lon="1.02123">
        <ele>190.96</ele>
        <time>2021-08-06T21:27:33Z</time>
      </trkpt>
      <trkpt lat="46.1285" lon="1.02604">
        <ele>184.23</ele>
        <time>2021-08-06T21:27:48Z</time>
      </trkpt>
      <trkpt lat="46.12822" lon="1.02944">
        <ele>191.92</ele>
        <time>2021-08-06T21:27:59Z</time>
      </trkpt>
      <trkpt lat="46.12855" lon="1.03201">
        <ele>200.09</ele>
        <time>2021-08-06T21:28:08Z</time>
      </trkpt>
      <trkpt lat="46.12934" lon="1.03412">
        <ele>207.78</ele>
        <time>2021-08-06T21:28:16Z</time>
      </trkpt>
      <trkpt lat="46.13057" lon="1.03597">
        <ele>217.88</ele>
        <time>2021-08-06T21:28:24Z</time>
      </trkpt>
      <trkpt lat="46.13216" lon="1.03839">
        <ele>225.57</ele>
        <time>2021-08-06T21:28:34Z</time>
      </trkpt>
      <trkpt lat="46.134" lon="1.0417">
        <ele>239.02</ele>
        <time>2021-08-06T21:28:47Z</time>
      </trkpt>
      <trkpt lat="46.13611" lon="1.04583">
        <ele>251.04</ele>
        <time>2021-08-06T21:29:02Z</time>
      </trkpt>
      <trkpt lat="46.13701" lon="1.04885">
        <ele>252.48</ele>
        <time>2021-08-06T21:29:11Z</time>
      </trkpt>
      <trkpt lat="46.13778" lon="1.05248">
        <ele>250.08</ele>
        <time>2021-08-06T21:29:22Z</time>
      </trkpt>
      <trkpt lat="46.13834" lon="1.05521">
        <ele>249.12</ele>
        <time>2021-08-06T21:29:32Z</time>
      </trkpt>
      <trkpt lat="46.13843" lon="1.05558">
        <ele>249.12</ele>
        <time>2021-08-06T21:29:34Z</time>
      </trkpt>
      <trkpt lat="46.13847" lon="1.05573">
        <ele>250.08</ele>
        <time>2021-08-06T21:29:35Z</time>
      </trkpt>
      <trkpt lat="46.13833" lon="1.05604">
        <ele>250.08</ele>
        <time>2021-08-06T21:29:36Z</time>
      </trkpt>
      <trkpt lat="46.13835" lon="1.05621">
        <ele>250.08</ele>
        <time>2021-08-06T21:29:39Z</time>
      </trkpt>
      <trkpt lat="46.13831" lon="1.05671">
        <ele>250.08</ele>
        <time>2021-08-06T21:29:40Z</time>
      </trkpt>
      <trkpt lat="46.13831" lon="1.05671">
        <ele>250.08</ele>
        <time>2021-08-06T21:29:41Z</time>
      </trkpt>
      <trkpt lat="46.13761" lon="1.05861">
        <ele>245.75</ele>
        <time>2021-08-06T21:29:50Z</time>
      </trkpt>
      <trkpt lat="46.13653" lon="1.06155">
        <ele>246.23</ele>
        <time>2021-08-06T21:30:01Z</time>
      </trkpt>
      <trkpt lat="46.13519" lon="1.0646">
        <ele>249.12</ele>
        <time>2021-08-06T21:30:13Z</time>
      </trkpt>
      <trkpt lat="46.13362" lon="1.06693">
        <ele>251.04</ele>
        <time>2021-08-06T21:30:24Z</time>
      </trkpt>
      <trkpt lat="46.13169" lon="1.06888">
        <ele>253.44</ele>
        <time>2021-08-06T21:30:36Z</time>
      </trkpt>
      <trkpt lat="46.12854" lon="1.07127">
        <ele>256.33</ele>
        <time>2021-08-06T21:30:54Z</time>
      </trkpt>
      <trkpt lat="46.12681" lon="1.07307">
        <ele>256.81</ele>
        <time>2021-08-06T21:31:05Z</time>
      </trkpt>
      <trkpt lat="46.1261" lon="1.07384">
        <ele>258.73</ele>
        <time>2021-08-06T21:31:11Z</time>
      </trkpt>
      <trkpt lat="46.12604" lon="1.0739">
        <ele>259.21</ele>
        <time>2021-08-06T21:31:13Z</time>
      </trkpt>
      <trkpt lat="46.12598" lon="1.07397">
        <ele>259.21</ele>
        <time>2021-08-06T21:31:14Z</time>
      </trkpt>
      <trkpt lat="46.12593" lon="1.07402">
        <ele>259.69</ele>
        <time>2021-08-06T21:31:15Z</time>
      </trkpt>
      <trkpt lat="46.12576" lon="1.07387">
        <ele>259.69</ele>
        <time>2021-08-06T21:31:16Z</time>
      </trkpt>
      <trkpt lat="46.12576" lon="1.07387">
        <ele>260.17</ele>
        <time>2021-08-06T21:31:17Z</time>
      </trkpt>
      <trkpt lat="46.12558" lon="1.07394">
        <ele>260.17</ele>
        <time>2021-08-06T21:31:18Z</time>
      </trkpt>
      <trkpt lat="46.12558" lon="1.07394">
        <ele>259.69</ele>
        <time>2021-08-06T21:31:19Z</time>
      </trkpt>
      <trkpt lat="46.12552" lon="1.074">
        <ele>259.69</ele>
        <time>2021-08-06T21:31:20Z</time>
      </trkpt>
      <trkpt lat="46.12547" lon="1.07412">
        <ele>259.21</ele>
        <time>2021-08-06T21:31:21Z</time>
      </trkpt>
      <trkpt lat="46.12546" lon="1.07419">
        <ele>259.21</ele>
        <time>2021-08-06T21:31:22Z</time>
      </trkpt>
      <trkpt lat="46.12549" lon="1.07433">
        <ele>258.73</ele>
        <time>2021-08-06T21:31:23Z</time>
      </trkpt>
      <trkpt lat="46.12552" lon="1.07443">
        <ele>258.73</ele>
        <time>2021-08-06T21:31:24Z</time>
      </trkpt>
      <trkpt lat="46.12557" lon="1.07449">
        <ele>258.25</ele>
        <time>2021-08-06T21:31:25Z</time>
      </trkpt>
      <trkpt lat="46.12563" lon="1.07458">
        <ele>257.77</ele>
        <time>2021-08-06T21:31:26Z</time>
      </trkpt>
      <trkpt lat="46.12571" lon="1.07458">
        <ele>257.29</ele>
        <time>2021-08-06T21:31:27Z</time>
      </trkpt>
      <trkpt lat="46.12595" lon="1.0745">
        <ele>257.29</ele>
        <time>2021-08-06T21:31:28Z</time>
      </trkpt>
      <trkpt lat="46.12595" lon="1.0745">
        <ele>258.25</ele>
        <time>2021-08-06T21:31:29Z</time>
      </trkpt>
      <trkpt lat="46.12603" lon="1.07459">
        <ele>257.77</ele>
        <time>2021-08-06T21:31:30Z</time>
      </trkpt>
      <trkpt lat="46.12613" lon="1.0747">
        <ele>257.29</ele>
        <time>2021-08-06T21:31:31Z</time>
      </trkpt>
      <trkpt lat="46.12624" lon="1.07481">
        <ele>256.81</ele>
        <time>2021-08-06T21:31:32Z</time>
      </trkpt>
      <trkpt lat="46.12725" lon="1.07591">
        <ele>253.93</ele>
        <time>2021-08-06T21:31:40Z</time>
      </trkpt>
      <trkpt lat="46.12816" lon="1.07734">
        <ele>251.52</ele>
        <time>2021-08-06T21:31:47Z</time>
      </trkpt>
      <trkpt lat="46.13022" lon="1.08196">
        <ele>255.37</ele>
        <time>2021-08-06T21:32:05Z</time>
      </trkpt>
      <trkpt lat="46.13243" lon="1.08684">
        <ele>252</ele>
        <time>2021-08-06T21:32:24Z</time>
      </trkpt>
      <trkpt lat="46.13416" lon="1.09068">
        <ele>246.23</ele>
        <time>2021-08-06T21:32:39Z</time>
      </trkpt>
      <trkpt lat="46.13646" lon="1.09573">
        <ele>238.54</ele>
        <time>2021-08-06T21:32:59Z</time>
      </trkpt>
      <trkpt lat="46.13747" lon="1.09716">
        <ele>235.66</ele>
        <time>2021-08-06T21:33:06Z</time>
      </trkpt>
      <trkpt lat="46.138" lon="1.09762">
        <ele>234.22</ele>
        <time>2021-08-06T21:33:09Z</time>
      </trkpt>
      <trkpt lat="46.1382" lon="1.09773">
        <ele>234.22</ele>
        <time>2021-08-06T21:33:10Z</time>
      </trkpt>
      <trkpt lat="46.13983" lon="1.09817">
        <ele>227.49</ele>
        <time>2021-08-06T21:33:18Z</time>
      </trkpt>
      <trkpt lat="46.14206" lon="1.09861">
        <ele>218.84</ele>
        <time>2021-08-06T21:33:29Z</time>
      </trkpt>
      <trkpt lat="46.14325" lon="1.09965">
        <ele>215.47</ele>
        <time>2021-08-06T21:33:36Z</time>
      </trkpt>
      <trkpt lat="46.14574" lon="1.10252">
        <ele>210.19</ele>
        <time>2021-08-06T21:33:52Z</time>
      </trkpt>
      <trkpt lat="46.14741" lon="1.1034">
        <ele>205.38</ele>
        <time>2021-08-06T21:34:01Z</time>
      </trkpt>
      <trkpt lat="46.1493" lon="1.10435">
        <ele>196.73</ele>
        <time>2021-08-06T21:34:11Z</time>
      </trkpt>
      <trkpt lat="46.14947" lon="1.1045">
        <ele>195.77</ele>
        <time>2021-08-06T21:34:12Z</time>
      </trkpt>
      <trkpt lat="46.14963" lon="1.10466">
        <ele>193.84</ele>
        <time>2021-08-06T21:34:13Z</time>
      </trkpt>
      <trkpt lat="46.14979" lon="1.10484">
        <ele>192.88</ele>
        <time>2021-08-06T21:34:14Z</time>
      </trkpt>
      <trkpt lat="46.14993" lon="1.10504">
        <ele>191.44</ele>
        <time>2021-08-06T21:34:15Z</time>
      </trkpt>
      <trkpt lat="46.15006" lon="1.10525">
        <ele>189.04</ele>
        <time>2021-08-06T21:34:16Z</time>
      </trkpt>
      <trkpt lat="46.15018" lon="1.10549">
        <ele>187.11</ele>
        <time>2021-08-06T21:34:17Z</time>
      </trkpt>
      <trkpt lat="46.15028" lon="1.10575">
        <ele>187.11</ele>
        <time>2021-08-06T21:34:18Z</time>
      </trkpt>
      <trkpt lat="46.15108" lon="1.10827">
        <ele>186.63</ele>
        <time>2021-08-06T21:34:28Z</time>
      </trkpt>
      <trkpt lat="46.15121" lon="1.11084">
        <ele>197.69</ele>
        <time>2021-08-06T21:34:37Z</time>
      </trkpt>
      <trkpt lat="46.15158" lon="1.1123">
        <ele>201.05</ele>
        <time>2021-08-06T21:34:44Z</time>
      </trkpt>
      <trkpt lat="46.15253" lon="1.11575">
        <ele>212.11</ele>
        <time>2021-08-06T21:34:56Z</time>
      </trkpt>
      <trkpt lat="46.15308" lon="1.11879">
        <ele>221.72</ele>
        <time>2021-08-06T21:35:08Z</time>
      </trkpt>
      <trkpt lat="46.15306" lon="1.12181">
        <ele>224.12</ele>
        <time>2021-08-06T21:35:18Z</time>
      </trkpt>
      <trkpt lat="46.15321" lon="1.12549">
        <ele>225.09</ele>
        <time>2021-08-06T21:35:30Z</time>
      </trkpt>
      <trkpt lat="46.1539" lon="1.12741">
        <ele>225.09</ele>
        <time>2021-08-06T21:35:37Z</time>
      </trkpt>
      <trkpt lat="46.15504" lon="1.12877">
        <ele>224.61</ele>
        <time>2021-08-06T21:35:44Z</time>
      </trkpt>
      <trkpt lat="46.1586" lon="1.13169">
        <ele>219.8</ele>
        <time>2021-08-06T21:36:03Z</time>
      </trkpt>
      <trkpt lat="46.16034" lon="1.13262">
        <ele>222.2</ele>
        <time>2021-08-06T21:36:13Z</time>
      </trkpt>
      <trkpt lat="46.16271" lon="1.13368">
        <ele>225.57</ele>
        <time>2021-08-06T21:36:26Z</time>
      </trkpt>
      <trkpt lat="46.1639" lon="1.13515">
        <ele>226.53</ele>
        <time>2021-08-06T21:36:33Z</time>
      </trkpt>
      <trkpt lat="46.16451" lon="1.13669">
        <ele>228.45</ele>
        <time>2021-08-06T21:36:40Z</time>
      </trkpt>
      <trkpt lat="46.16533" lon="1.13986">
        <ele>233.74</ele>
        <time>2021-08-06T21:36:52Z</time>
      </trkpt>
      <trkpt lat="46.16581" lon="1.14174">
        <ele>239.51</ele>
        <time>2021-08-06T21:37:01Z</time>
      </trkpt>
      <trkpt lat="46.16609" lon="1.14286">
        <ele>243.35</ele>
        <time>2021-08-06T21:37:07Z</time>
      </trkpt>
      <trkpt lat="46.16614" lon="1.14303">
        <ele>243.83</ele>
        <time>2021-08-06T21:37:08Z</time>
      </trkpt>
      <trkpt lat="46.1662" lon="1.14319">
        <ele>244.31</ele>
        <time>2021-08-06T21:37:09Z</time>
      </trkpt>
      <trkpt lat="46.16626" lon="1.14335">
        <ele>244.79</ele>
        <time>2021-08-06T21:37:10Z</time>
      </trkpt>
      <trkpt lat="46.16632" lon="1.14349">
        <ele>244.79</ele>
        <time>2021-08-06T21:37:11Z</time>
      </trkpt>
      <trkpt lat="46.1664" lon="1.14363">
        <ele>246.23</ele>
        <time>2021-08-06T21:37:12Z</time>
      </trkpt>
      <trkpt lat="46.16649" lon="1.14378">
        <ele>247.2</ele>
        <time>2021-08-06T21:37:13Z</time>
      </trkpt>
      <trkpt lat="46.16657" lon="1.14392">
        <ele>248.16</ele>
        <time>2021-08-06T21:37:14Z</time>
      </trkpt>
      <trkpt lat="46.16667" lon="1.14405">
        <ele>248.16</ele>
        <time>2021-08-06T21:37:15Z</time>
      </trkpt>
      <trkpt lat="46.16679" lon="1.14414">
        <ele>247.2</ele>
        <time>2021-08-06T21:37:16Z</time>
      </trkpt>
      <trkpt lat="46.16691" lon="1.14424">
        <ele>246.72</ele>
        <time>2021-08-06T21:37:17Z</time>
      </trkpt>
      <trkpt lat="46.16702" lon="1.14433">
        <ele>247.68</ele>
        <time>2021-08-06T21:37:18Z</time>
      </trkpt>
      <trkpt lat="46.1684" lon="1.14532">
        <ele>250.56</ele>
        <time>2021-08-06T21:37:29Z</time>
      </trkpt>
      <trkpt lat="46.16965" lon="1.14646">
        <ele>254.41</ele>
        <time>2021-08-06T21:37:38Z</time>
      </trkpt>
      <trkpt lat="46.17158" lon="1.14831">
        <ele>261.14</ele>
        <time>2021-08-06T21:37:50Z</time>
      </trkpt>
      <trkpt lat="46.17437" lon="1.15102">
        <ele>272.19</ele>
        <time>2021-08-06T21:38:07Z</time>
      </trkpt>
      <trkpt lat="46.17593" lon="1.15288">
        <ele>275.56</ele>
        <time>2021-08-06T21:38:17Z</time>
      </trkpt>
      <trkpt lat="46.17931" lon="1.15834">
        <ele>289.01</ele>
        <time>2021-08-06T21:38:41Z</time>
      </trkpt>
      <trkpt lat="46.17978" lon="1.15956">
        <ele>291.42</ele>
        <time>2021-08-06T21:38:47Z</time>
      </trkpt>
      <trkpt lat="46.17993" lon="1.16153">
        <ele>293.82</ele>
        <time>2021-08-06T21:38:54Z</time>
      </trkpt>
      <trkpt lat="46.17991" lon="1.16686">
        <ele>304.39</ele>
        <time>2021-08-06T21:39:13Z</time>
      </trkpt>
      <trkpt lat="46.18061" lon="1.16956">
        <ele>307.76</ele>
        <time>2021-08-06T21:39:23Z</time>
      </trkpt>
      <trkpt lat="46.18208" lon="1.17483">
        <ele>298.15</ele>
        <time>2021-08-06T21:39:41Z</time>
      </trkpt>
      <trkpt lat="46.18347" lon="1.17979">
        <ele>296.7</ele>
        <time>2021-08-06T21:39:59Z</time>
      </trkpt>
      <trkpt lat="46.18426" lon="1.18337">
        <ele>297.67</ele>
        <time>2021-08-06T21:40:12Z</time>
      </trkpt>
      <trkpt lat="46.18407" lon="1.18601">
        <ele>295.74</ele>
        <time>2021-08-06T21:40:21Z</time>
      </trkpt>
      <trkpt lat="46.18374" lon="1.18942">
        <ele>294.78</ele>
        <time>2021-08-06T21:40:33Z</time>
      </trkpt>
      <trkpt lat="46.18361" lon="1.19333">
        <ele>292.38</ele>
        <time>2021-08-06T21:40:46Z</time>
      </trkpt>
      <trkpt lat="46.18438" lon="1.19839">
        <ele>291.9</ele>
        <time>2021-08-06T21:41:04Z</time>
      </trkpt>
      <trkpt lat="46.18527" lon="1.20456">
        <ele>293.82</ele>
        <time>2021-08-06T21:41:26Z</time>
      </trkpt>
      <trkpt lat="46.18517" lon="1.20634">
        <ele>295.74</ele>
        <time>2021-08-06T21:41:33Z</time>
      </trkpt>
      <trkpt lat="46.18447" lon="1.20872">
        <ele>301.51</ele>
        <time>2021-08-06T21:41:42Z</time>
      </trkpt>
      <trkpt lat="46.18374" lon="1.21152">
        <ele>308.72</ele>
        <time>2021-08-06T21:41:53Z</time>
      </trkpt>
      <trkpt lat="46.18361" lon="1.21605">
        <ele>320.26</ele>
        <time>2021-08-06T21:42:08Z</time>
      </trkpt>
      <trkpt lat="46.18362" lon="1.22231">
        <ele>331.79</ele>
        <time>2021-08-06T21:42:30Z</time>
      </trkpt>
      <trkpt lat="46.18362" lon="1.22231">
        <ele>331.79</ele>
        <time>2021-08-06T21:42:31Z</time>
      </trkpt>
      <trkpt lat="46.1837" lon="1.22259">
        <ele>332.27</ele>
        <time>2021-08-06T21:42:32Z</time>
      </trkpt>
      <trkpt lat="46.18378" lon="1.22288">
        <ele>333.23</ele>
        <time>2021-08-06T21:42:33Z</time>
      </trkpt>
      <trkpt lat="46.18398" lon="1.22339">
        <ele>334.68</ele>
        <time>2021-08-06T21:42:34Z</time>
      </trkpt>
      <trkpt lat="46.18398" lon="1.22339">
        <ele>334.68</ele>
        <time>2021-08-06T21:42:35Z</time>
      </trkpt>
      <trkpt lat="46.18411" lon="1.22363">
        <ele>333.71</ele>
        <time>2021-08-06T21:42:36Z</time>
      </trkpt>
      <trkpt lat="46.18425" lon="1.22388">
        <ele>332.75</ele>
        <time>2021-08-06T21:42:37Z</time>
      </trkpt>
      <trkpt lat="46.1844" lon="1.2241">
        <ele>333.23</ele>
        <time>2021-08-06T21:42:38Z</time>
      </trkpt>
      <trkpt lat="46.18473" lon="1.22449">
        <ele>333.71</ele>
        <time>2021-08-06T21:42:39Z</time>
      </trkpt>
      <trkpt lat="46.18473" lon="1.22449">
        <ele>333.71</ele>
        <time>2021-08-06T21:42:40Z</time>
      </trkpt>
      <trkpt lat="46.18725" lon="1.22702">
        <ele>330.83</ele>
        <time>2021-08-06T21:42:54Z</time>
      </trkpt>
      <trkpt lat="46.18799" lon="1.22852">
        <ele>328.91</ele>
        <time>2021-08-06T21:43:00Z</time>
      </trkpt>
      <trkpt lat="46.18962" lon="1.23242">
        <ele>326.5</ele>
        <time>2021-08-06T21:43:14Z</time>
      </trkpt>
      <trkpt lat="46.19097" lon="1.23427">
        <ele>323.62</ele>
        <time>2021-08-06T21:43:24Z</time>
      </trkpt>
      <trkpt lat="46.19201" lon="1.23668">
        <ele>317.37</ele>
        <time>2021-08-06T21:43:33Z</time>
      </trkpt>
      <trkpt lat="46.19243" lon="1.23903">
        <ele>317.85</ele>
        <time>2021-08-06T21:43:42Z</time>
      </trkpt>
      <trkpt lat="46.1924" lon="1.2412">
        <ele>312.09</ele>
        <time>2021-08-06T21:43:51Z</time>
      </trkpt>
      <trkpt lat="46.19205" lon="1.24601">
        <ele>302.95</ele>
        <time>2021-08-06T21:44:07Z</time>
      </trkpt>
      <trkpt lat="46.19173" lon="1.25065">
        <ele>308.24</ele>
        <time>2021-08-06T21:44:23Z</time>
      </trkpt>
      <trkpt lat="46.1916" lon="1.25502">
        <ele>313.53</ele>
        <time>2021-08-06T21:44:38Z</time>
      </trkpt>
      <trkpt lat="46.1916" lon="1.25502">
        <ele>313.05</ele>
        <time>2021-08-06T21:44:39Z</time>
      </trkpt>
      <trkpt lat="46.19245" lon="1.25856">
        <ele>315.45</ele>
        <time>2021-08-06T21:44:53Z</time>
      </trkpt>
      <trkpt lat="46.19356" lon="1.26287">
        <ele>319.78</ele>
        <time>2021-08-06T21:45:08Z</time>
      </trkpt>
      <trkpt lat="46.19507" lon="1.26872">
        <ele>323.62</ele>
        <time>2021-08-06T21:45:29Z</time>
      </trkpt>
      <trkpt lat="46.19655" lon="1.27444">
        <ele>332.27</ele>
        <time>2021-08-06T21:45:50Z</time>
      </trkpt>
      <trkpt lat="46.19693" lon="1.27668">
        <ele>334.68</ele>
        <time>2021-08-06T21:45:58Z</time>
      </trkpt>
      <trkpt lat="46.19674" lon="1.28155">
        <ele>332.75</ele>
        <time>2021-08-06T21:46:14Z</time>
      </trkpt>
      <trkpt lat="46.19675" lon="1.28509">
        <ele>327.95</ele>
        <time>2021-08-06T21:46:26Z</time>
      </trkpt>
      <trkpt lat="46.1977" lon="1.28902">
        <ele>322.66</ele>
        <time>2021-08-06T21:46:41Z</time>
      </trkpt>
      <trkpt lat="46.19817" lon="1.29082">
        <ele>329.39</ele>
        <time>2021-08-06T21:46:49Z</time>
      </trkpt>
      <trkpt lat="46.1987" lon="1.29291">
        <ele>332.27</ele>
        <time>2021-08-06T21:47:01Z</time>
      </trkpt>
      <trkpt lat="46.19917" lon="1.29482">
        <ele>336.6</ele>
        <time>2021-08-06T21:47:13Z</time>
      </trkpt>
      <trkpt lat="46.1992" lon="1.2952">
        <ele>337.56</ele>
        <time>2021-08-06T21:47:14Z</time>
      </trkpt>
      <trkpt lat="46.1992" lon="1.29539">
        <ele>338.04</ele>
        <time>2021-08-06T21:47:15Z</time>
      </trkpt>
      <trkpt lat="46.1992" lon="1.29539">
        <ele>338.52</ele>
        <time>2021-08-06T21:47:16Z</time>
      </trkpt>
      <trkpt lat="46.19919" lon="1.29557">
        <ele>339</ele>
        <time>2021-08-06T21:47:17Z</time>
      </trkpt>
      <trkpt lat="46.19916" lon="1.29852">
        <ele>336.6</ele>
        <time>2021-08-06T21:47:33Z</time>
      </trkpt>
      <trkpt lat="46.19924" lon="1.30153">
        <ele>333.71</ele>
        <time>2021-08-06T21:47:50Z</time>
      </trkpt>
      <trkpt lat="46.19923" lon="1.30204">
        <ele>333.23</ele>
        <time>2021-08-06T21:47:54Z</time>
      </trkpt>
      <trkpt lat="46.1992" lon="1.3022">
        <ele>332.75</ele>
        <time>2021-08-06T21:47:55Z</time>
      </trkpt>
      <trkpt lat="46.19918" lon="1.30237">
        <ele>332.75</ele>
        <time>2021-08-06T21:47:56Z</time>
      </trkpt>
      <trkpt lat="46.19844" lon="1.30463">
        <ele>323.62</ele>
        <time>2021-08-06T21:48:08Z</time>
      </trkpt>
      <trkpt lat="46.19829" lon="1.30619">
        <ele>322.66</ele>
        <time>2021-08-06T21:48:16Z</time>
      </trkpt>
      <trkpt lat="46.19822" lon="1.309">
        <ele>316.89</ele>
        <time>2021-08-06T21:48:28Z</time>
      </trkpt>
      <trkpt lat="46.19853" lon="1.3111">
        <ele>317.37</ele>
        <time>2021-08-06T21:48:37Z</time>
      </trkpt>
      <trkpt lat="46.19934" lon="1.31425">
        <ele>321.7</ele>
        <time>2021-08-06T21:48:50Z</time>
      </trkpt>
      <trkpt lat="46.2" lon="1.31812">
        <ele>330.83</ele>
        <time>2021-08-06T21:49:04Z</time>
      </trkpt>
      <trkpt lat="46.20053" lon="1.32258">
        <ele>319.78</ele>
        <time>2021-08-06T21:49:19Z</time>
      </trkpt>
      <trkpt lat="46.20107" lon="1.32618">
        <ele>309.2</ele>
        <time>2021-08-06T21:49:31Z</time>
      </trkpt>
      <trkpt lat="46.2018" lon="1.32991">
        <ele>312.09</ele>
        <time>2021-08-06T21:49:44Z</time>
      </trkpt>
      <trkpt lat="46.20232" lon="1.3338">
        <ele>330.83</ele>
        <time>2021-08-06T21:49:58Z</time>
      </trkpt>
      <trkpt lat="46.20289" lon="1.33883">
        <ele>340.92</ele>
        <time>2021-08-06T21:50:16Z</time>
      </trkpt>
      <trkpt lat="46.20347" lon="1.34373">
        <ele>351.02</ele>
        <time>2021-08-06T21:50:33Z</time>
      </trkpt>
      <trkpt lat="46.20347" lon="1.34628">
        <ele>354.38</ele>
        <time>2021-08-06T21:50:41Z</time>
      </trkpt>
      <trkpt lat="46.20248" lon="1.35078">
        <ele>355.83</ele>
        <time>2021-08-06T21:50:57Z</time>
      </trkpt>
      <trkpt lat="46.20131" lon="1.35607">
        <ele>354.38</ele>
        <time>2021-08-06T21:51:17Z</time>
      </trkpt>
      <trkpt lat="46.20034" lon="1.36046">
        <ele>375.05</ele>
        <time>2021-08-06T21:51:33Z</time>
      </trkpt>
      <trkpt lat="46.19984" lon="1.36338">
        <ele>380.34</ele>
        <time>2021-08-06T21:51:45Z</time>
      </trkpt>
      <trkpt lat="46.20002" lon="1.36525">
        <ele>379.38</ele>
        <time>2021-08-06T21:51:52Z</time>
      </trkpt>
      <trkpt lat="46.20098" lon="1.36904">
        <ele>383.22</ele>
        <time>2021-08-06T21:52:06Z</time>
      </trkpt>
      <trkpt lat="46.20183" lon="1.3731">
        <ele>384.18</ele>
        <time>2021-08-06T21:52:20Z</time>
      </trkpt>
      <trkpt lat="46.20273" lon="1.37745">
        <ele>382.74</ele>
        <time>2021-08-06T21:52:36Z</time>
      </trkpt>
      <trkpt lat="46.20298" lon="1.37871">
        <ele>382.74</ele>
        <time>2021-08-06T21:52:42Z</time>
      </trkpt>
      <trkpt lat="46.20311" lon="1.37946">
        <ele>382.74</ele>
        <time>2021-08-06T21:52:47Z</time>
      </trkpt>
      <trkpt lat="46.20313" lon="1.37958">
        <ele>383.22</ele>
        <time>2021-08-06T21:52:48Z</time>
      </trkpt>
      <trkpt lat="46.20315" lon="1.37967">
        <ele>382.74</ele>
        <time>2021-08-06T21:52:49Z</time>
      </trkpt>
      <trkpt lat="46.20311" lon="1.37984">
        <ele>382.26</ele>
        <time>2021-08-06T21:52:51Z</time>
      </trkpt>
      <trkpt lat="46.20311" lon="1.37996">
        <ele>382.26</ele>
        <time>2021-08-06T21:52:52Z</time>
      </trkpt>
      <trkpt lat="46.20311" lon="1.37996">
        <ele>382.26</ele>
        <time>2021-08-06T21:52:53Z</time>
      </trkpt>
      <trkpt lat="46.20323" lon="1.38019">
        <ele>382.26</ele>
        <time>2021-08-06T21:52:54Z</time>
      </trkpt>
      <trkpt lat="46.20323" lon="1.38019">
        <ele>382.74</ele>
        <time>2021-08-06T21:52:55Z</time>
      </trkpt>
      <trkpt lat="46.20328" lon="1.38029">
        <ele>383.22</ele>
        <time>2021-08-06T21:52:56Z</time>
      </trkpt>
      <trkpt lat="46.20333" lon="1.38039">
        <ele>383.7</ele>
        <time>2021-08-06T21:52:57Z</time>
      </trkpt>
      <trkpt lat="46.20336" lon="1.38053">
        <ele>383.22</ele>
        <time>2021-08-06T21:52:58Z</time>
      </trkpt>
      <trkpt lat="46.2034" lon="1.3807">
        <ele>383.22</ele>
        <time>2021-08-06T21:52:59Z</time>
      </trkpt>
      <trkpt lat="46.20386" lon="1.38298">
        <ele>381.3</ele>
        <time>2021-08-06T21:53:11Z</time>
      </trkpt>
      <trkpt lat="46.20468" lon="1.38691">
        <ele>377.94</ele>
        <time>2021-08-06T21:53:30Z</time>
      </trkpt>
      <trkpt lat="46.20541" lon="1.38937">
        <ele>371.21</ele>
        <time>2021-08-06T21:53:41Z</time>
      </trkpt>
      <trkpt lat="46.20546" lon="1.3899">
        <ele>372.65</ele>
        <time>2021-08-06T21:53:44Z</time>
      </trkpt>
      <trkpt lat="46.20547" lon="1.39001">
        <ele>372.65</ele>
        <time>2021-08-06T21:53:45Z</time>
      </trkpt>
      <trkpt lat="46.20542" lon="1.39025">
        <ele>372.65</ele>
        <time>2021-08-06T21:53:46Z</time>
      </trkpt>
      <trkpt lat="46.20542" lon="1.39025">
        <ele>372.65</ele>
        <time>2021-08-06T21:53:47Z</time>
      </trkpt>
      <trkpt lat="46.20539" lon="1.39035">
        <ele>372.65</ele>
        <time>2021-08-06T21:53:48Z</time>
      </trkpt>
      <trkpt lat="46.20533" lon="1.39043">
        <ele>373.13</ele>
        <time>2021-08-06T21:53:49Z</time>
      </trkpt>
      <trkpt lat="46.20528" lon="1.39052">
        <ele>372.65</ele>
        <time>2021-08-06T21:53:50Z</time>
      </trkpt>
      <trkpt lat="46.20524" lon="1.39067">
        <ele>372.17</ele>
        <time>2021-08-06T21:53:51Z</time>
      </trkpt>
      <trkpt lat="46.20533" lon="1.39096">
        <ele>372.17</ele>
        <time>2021-08-06T21:53:52Z</time>
      </trkpt>
      <trkpt lat="46.20533" lon="1.39096">
        <ele>371.69</ele>
        <time>2021-08-06T21:53:53Z</time>
      </trkpt>
      <trkpt lat="46.20556" lon="1.39245">
        <ele>370.24</ele>
        <time>2021-08-06T21:54:01Z</time>
      </trkpt>
      <trkpt lat="46.20626" lon="1.39444">
        <ele>373.13</ele>
        <time>2021-08-06T21:54:10Z</time>
      </trkpt>
      <trkpt lat="46.20755" lon="1.39688">
        <ele>369.28</ele>
        <time>2021-08-06T21:54:20Z</time>
      </trkpt>
      <trkpt lat="46.20909" lon="1.39989">
        <ele>359.67</ele>
        <time>2021-08-06T21:54:30Z</time>
      </trkpt>
      <trkpt lat="46.21188" lon="1.40587">
        <ele>367.84</ele>
        <time>2021-08-06T21:54:49Z</time>
      </trkpt>
      <trkpt lat="46.21463" lon="1.41181">
        <ele>375.53</ele>
        <time>2021-08-06T21:55:08Z</time>
      </trkpt>
      <trkpt lat="46.21563" lon="1.41476">
        <ele>377.45</ele>
        <time>2021-08-06T21:55:17Z</time>
      </trkpt>
      <trkpt lat="46.21706" lon="1.42049">
        <ele>374.09</ele>
        <time>2021-08-06T21:55:33Z</time>
      </trkpt>
      <trkpt lat="46.21748" lon="1.4239">
        <ele>371.21</ele>
        <time>2021-08-06T21:55:42Z</time>
      </trkpt>
      <trkpt lat="46.21741" lon="1.42737">
        <ele>366.4</ele>
        <time>2021-08-06T21:55:51Z</time>
      </trkpt>
      <trkpt lat="46.2168" lon="1.43143">
        <ele>362.07</ele>
        <time>2021-08-06T21:56:02Z</time>
      </trkpt>
      <trkpt lat="46.21561" lon="1.43892">
        <ele>370.24</ele>
        <time>2021-08-06T21:56:22Z</time>
      </trkpt>
      <trkpt lat="46.21569" lon="1.44147">
        <ele>372.65</ele>
        <time>2021-08-06T21:56:30Z</time>
      </trkpt>
      <trkpt lat="46.21641" lon="1.44502">
        <ele>369.76</ele>
        <time>2021-08-06T21:56:40Z</time>
      </trkpt>
      <trkpt lat="46.21777" lon="1.45044">
        <ele>370.73</ele>
        <time>2021-08-06T21:56:55Z</time>
      </trkpt>
      <trkpt lat="46.21914" lon="1.45323">
        <ele>374.09</ele>
        <time>2021-08-06T21:57:03Z</time>
      </trkpt>
      <trkpt lat="46.22053" lon="1.45504">
        <ele>374.57</ele>
        <time>2021-08-06T21:57:11Z</time>
      </trkpt>
      <trkpt lat="46.22346" lon="1.45818">
        <ele>381.3</ele>
        <time>2021-08-06T21:57:25Z</time>
      </trkpt>
      <trkpt lat="46.22473" lon="1.46072">
        <ele>383.7</ele>
        <time>2021-08-06T21:57:33Z</time>
      </trkpt>
      <trkpt lat="46.22542" lon="1.46326">
        <ele>387.07</ele>
        <time>2021-08-06T21:57:42Z</time>
      </trkpt>
      <trkpt lat="46.22626" lon="1.46853">
        <ele>389.47</ele>
        <time>2021-08-06T21:57:56Z</time>
      </trkpt>
      <trkpt lat="46.22641" lon="1.47187">
        <ele>388.03</ele>
        <time>2021-08-06T21:58:06Z</time>
      </trkpt>
      <trkpt lat="46.22621" lon="1.47568">
        <ele>381.78</ele>
        <time>2021-08-06T21:58:16Z</time>
      </trkpt>
      <trkpt lat="46.22548" lon="1.47827">
        <ele>381.3</ele>
        <time>2021-08-06T21:58:23Z</time>
      </trkpt>
      <trkpt lat="46.22365" lon="1.48359">
        <ele>387.55</ele>
        <time>2021-08-06T21:58:39Z</time>
      </trkpt>
      <trkpt lat="46.22302" lon="1.4864">
        <ele>391.39</ele>
        <time>2021-08-06T21:58:47Z</time>
      </trkpt>
      <trkpt lat="46.22286" lon="1.48948">
        <ele>393.32</ele>
        <time>2021-08-06T21:58:55Z</time>
      </trkpt>
      <trkpt lat="46.22328" lon="1.49292">
        <ele>391.39</ele>
        <time>2021-08-06T21:59:03Z</time>
      </trkpt>
      <trkpt lat="46.22409" lon="1.4955">
        <ele>386.59</ele>
        <time>2021-08-06T21:59:11Z</time>
      </trkpt>
      <trkpt lat="46.2264" lon="1.5009">
        <ele>373.13</ele>
        <time>2021-08-06T21:59:27Z</time>
      </trkpt>
      <trkpt lat="46.22869" lon="1.50591">
        <ele>378.9</ele>
        <time>2021-08-06T21:59:43Z</time>
      </trkpt>
      <trkpt lat="46.23089" lon="1.50926">
        <ele>384.18</ele>
        <time>2021-08-06T21:59:57Z</time>
      </trkpt>
      <trkpt lat="46.23334" lon="1.51262">
        <ele>392.84</ele>
        <time>2021-08-06T22:00:11Z</time>
      </trkpt>
      <trkpt lat="46.23529" lon="1.51535">
        <ele>395.72</ele>
        <time>2021-08-06T22:00:22Z</time>
      </trkpt>
      <trkpt lat="46.23667" lon="1.51824">
        <ele>397.16</ele>
        <time>2021-08-06T22:00:32Z</time>
      </trkpt>
      <trkpt lat="46.23776" lon="1.5217">
        <ele>403.89</ele>
        <time>2021-08-06T22:00:43Z</time>
      </trkpt>
      <trkpt lat="46.23855" lon="1.52589">
        <ele>410.62</ele>
        <time>2021-08-06T22:00:56Z</time>
      </trkpt>
      <trkpt lat="46.23857" lon="1.52924">
        <ele>414.47</ele>
        <time>2021-08-06T22:01:06Z</time>
      </trkpt>
      <trkpt lat="46.23803" lon="1.53248">
        <ele>418.79</ele>
        <time>2021-08-06T22:01:16Z</time>
      </trkpt>
      <trkpt lat="46.237" lon="1.53699">
        <ele>421.19</ele>
        <time>2021-08-06T22:01:31Z</time>
      </trkpt>
      <trkpt lat="46.2359" lon="1.53957">
        <ele>431.77</ele>
        <time>2021-08-06T22:01:40Z</time>
      </trkpt>
      <trkpt lat="46.23429" lon="1.54321">
        <ele>436.58</ele>
        <time>2021-08-06T22:01:52Z</time>
      </trkpt>
      <trkpt lat="46.23288" lon="1.54684">
        <ele>433.21</ele>
        <time>2021-08-06T22:02:05Z</time>
      </trkpt>
      <trkpt lat="46.23148" lon="1.54894">
        <ele>429.85</ele>
        <time>2021-08-06T22:02:13Z</time>
      </trkpt>
      <trkpt lat="46.22971" lon="1.55048">
        <ele>430.81</ele>
        <time>2021-08-06T22:02:21Z</time>
      </trkpt>
      <trkpt lat="46.22782" lon="1.55214">
        <ele>433.69</ele>
        <time>2021-08-06T22:02:30Z</time>
      </trkpt>
      <trkpt lat="46.22647" lon="1.55422">
        <ele>434.17</ele>
        <time>2021-08-06T22:02:38Z</time>
      </trkpt>
      <trkpt lat="46.22563" lon="1.55652">
        <ele>430.33</ele>
        <time>2021-08-06T22:02:45Z</time>
      </trkpt>
      <trkpt lat="46.22467" lon="1.56127">
        <ele>425.04</ele>
        <time>2021-08-06T22:02:58Z</time>
      </trkpt>
      <trkpt lat="46.22312" lon="1.56988">
        <ele>417.83</ele>
        <time>2021-08-06T22:03:20Z</time>
      </trkpt>
      <trkpt lat="46.22292" lon="1.5736">
        <ele>414.47</ele>
        <time>2021-08-06T22:03:31Z</time>
      </trkpt>
      <trkpt lat="46.22281" lon="1.57856">
        <ele>412.06</ele>
        <time>2021-08-06T22:03:44Z</time>
      </trkpt>
      <trkpt lat="46.22225" lon="1.58269">
        <ele>415.91</ele>
        <time>2021-08-06T22:03:55Z</time>
      </trkpt>
      <trkpt lat="46.22151" lon="1.58623">
        <ele>419.75</ele>
        <time>2021-08-06T22:04:05Z</time>
      </trkpt>
      <trkpt lat="46.22103" lon="1.58989">
        <ele>417.83</ele>
        <time>2021-08-06T22:04:15Z</time>
      </trkpt>
      <trkpt lat="46.22092" lon="1.59492">
        <ele>413.02</ele>
        <time>2021-08-06T22:04:27Z</time>
      </trkpt>
      <trkpt lat="46.22125" lon="1.59805">
        <ele>406.29</ele>
        <time>2021-08-06T22:04:36Z</time>
      </trkpt>
      <trkpt lat="46.22206" lon="1.60461">
        <ele>412.54</ele>
        <time>2021-08-06T22:04:54Z</time>
      </trkpt>
      <trkpt lat="46.22246" lon="1.609">
        <ele>420.23</ele>
        <time>2021-08-06T22:05:07Z</time>
      </trkpt>
      <trkpt lat="46.22215" lon="1.61203">
        <ele>426</ele>
        <time>2021-08-06T22:05:16Z</time>
      </trkpt>
      <trkpt lat="46.22126" lon="1.61561">
        <ele>433.21</ele>
        <time>2021-08-06T22:05:27Z</time>
      </trkpt>
      <trkpt lat="46.2198" lon="1.62105">
        <ele>432.25</ele>
        <time>2021-08-06T22:05:43Z</time>
      </trkpt>
      <trkpt lat="46.21812" lon="1.6263">
        <ele>418.31</ele>
        <time>2021-08-06T22:05:58Z</time>
      </trkpt>
      <trkpt lat="46.21588" lon="1.63304">
        <ele>400.53</ele>
        <time>2021-08-06T22:06:17Z</time>
      </trkpt>
      <trkpt lat="46.21425" lon="1.63823">
        <ele>401.97</ele>
        <time>2021-08-06T22:06:32Z</time>
      </trkpt>
      <trkpt lat="46.21405" lon="1.64113">
        <ele>403.41</ele>
        <time>2021-08-06T22:06:39Z</time>
      </trkpt>
      <trkpt lat="46.21442" lon="1.64371">
        <ele>405.33</ele>
        <time>2021-08-06T22:06:46Z</time>
      </trkpt>
      <trkpt lat="46.21591" lon="1.64985">
        <ele>401.97</ele>
        <time>2021-08-06T22:07:03Z</time>
      </trkpt>
      <trkpt lat="46.21726" lon="1.6551">
        <ele>405.33</ele>
        <time>2021-08-06T22:07:19Z</time>
      </trkpt>
      <trkpt lat="46.21835" lon="1.65698">
        <ele>413.5</ele>
        <time>2021-08-06T22:07:26Z</time>
      </trkpt>
      <trkpt lat="46.2204" lon="1.66037">
        <ele>426.96</ele>
        <time>2021-08-06T22:07:38Z</time>
      </trkpt>
      <trkpt lat="46.22091" lon="1.6623">
        <ele>432.25</ele>
        <time>2021-08-06T22:07:45Z</time>
      </trkpt>
      <trkpt lat="46.22195" lon="1.66749">
        <ele>434.17</ele>
        <time>2021-08-06T22:08:00Z</time>
      </trkpt>
      <trkpt lat="46.22251" lon="1.67298">
        <ele>432.73</ele>
        <time>2021-08-06T22:08:15Z</time>
      </trkpt>
      <trkpt lat="46.2223" lon="1.67684">
        <ele>427.92</ele>
        <time>2021-08-06T22:08:25Z</time>
      </trkpt>
      <trkpt lat="46.2218" lon="1.68248">
        <ele>435.13</ele>
        <time>2021-08-06T22:08:40Z</time>
      </trkpt>
      <trkpt lat="46.22128" lon="1.68808">
        <ele>450.52</ele>
        <time>2021-08-06T22:08:56Z</time>
      </trkpt>
      <trkpt lat="46.22092" lon="1.69188">
        <ele>457.24</ele>
        <time>2021-08-06T22:09:07Z</time>
      </trkpt>
      <trkpt lat="46.22111" lon="1.69545">
        <ele>455.8</ele>
        <time>2021-08-06T22:09:17Z</time>
      </trkpt>
      <trkpt lat="46.22122" lon="1.69867">
        <ele>446.67</ele>
        <time>2021-08-06T22:09:26Z</time>
      </trkpt>
      <trkpt lat="46.2207" lon="1.70083">
        <ele>442.82</ele>
        <time>2021-08-06T22:09:32Z</time>
      </trkpt>
      <trkpt lat="46.21848" lon="1.70705">
        <ele>431.77</ele>
        <time>2021-08-06T22:09:50Z</time>
      </trkpt>
      <trkpt lat="46.21709" lon="1.71108">
        <ele>442.34</ele>
        <time>2021-08-06T22:10:02Z</time>
      </trkpt>
      <trkpt lat="46.21676" lon="1.71368">
        <ele>449.07</ele>
        <time>2021-08-06T22:10:10Z</time>
      </trkpt>
      <trkpt lat="46.21687" lon="1.71659">
        <ele>454.84</ele>
        <time>2021-08-06T22:10:19Z</time>
      </trkpt>
      <trkpt lat="46.21666" lon="1.71893">
        <ele>451.96</ele>
        <time>2021-08-06T22:10:26Z</time>
      </trkpt>
      <trkpt lat="46.21579" lon="1.72476">
        <ele>439.46</ele>
        <time>2021-08-06T22:10:43Z</time>
      </trkpt>
      <trkpt lat="46.21553" lon="1.72877">
        <ele>442.82</ele>
        <time>2021-08-06T22:10:54Z</time>
      </trkpt>
      <trkpt lat="46.21511" lon="1.73332">
        <ele>455.32</ele>
        <time>2021-08-06T22:11:07Z</time>
      </trkpt>
      <trkpt lat="46.21433" lon="1.73661">
        <ele>459.65</ele>
        <time>2021-08-06T22:11:17Z</time>
      </trkpt>
      <trkpt lat="46.21269" lon="1.74277">
        <ele>459.17</ele>
        <time>2021-08-06T22:11:36Z</time>
      </trkpt>
      <trkpt lat="46.21188" lon="1.745">
        <ele>457.24</ele>
        <time>2021-08-06T22:11:43Z</time>
      </trkpt>
      <trkpt lat="46.21045" lon="1.74705">
        <ele>453.88</ele>
        <time>2021-08-06T22:11:50Z</time>
      </trkpt>
      <trkpt lat="46.20868" lon="1.74855">
        <ele>452.44</ele>
        <time>2021-08-06T22:11:59Z</time>
      </trkpt>
      <trkpt lat="46.20694" lon="1.74939">
        <ele>451</ele>
        <time>2021-08-06T22:12:06Z</time>
      </trkpt>
      <trkpt lat="46.20415" lon="1.74993">
        <ele>449.07</ele>
        <time>2021-08-06T22:12:17Z</time>
      </trkpt>
      <trkpt lat="46.20225" lon="1.75075">
        <ele>451.96</ele>
        <time>2021-08-06T22:12:25Z</time>
      </trkpt>
      <trkpt lat="46.20069" lon="1.75226">
        <ele>454.84</ele>
        <time>2021-08-06T22:12:33Z</time>
      </trkpt>
      <trkpt lat="46.19947" lon="1.75434">
        <ele>454.84</ele>
        <time>2021-08-06T22:12:41Z</time>
      </trkpt>
      <trkpt lat="46.19865" lon="1.75689">
        <ele>450.52</ele>
        <time>2021-08-06T22:12:49Z</time>
      </trkpt>
      <trkpt lat="46.19784" lon="1.76178">
        <ele>458.69</ele>
        <time>2021-08-06T22:13:03Z</time>
      </trkpt>
      <trkpt lat="46.19707" lon="1.76642">
        <ele>478.39</ele>
        <time>2021-08-06T22:13:18Z</time>
      </trkpt>
      <trkpt lat="46.19648" lon="1.77118">
        <ele>494.74</ele>
        <time>2021-08-06T22:13:34Z</time>
      </trkpt>
      <trkpt lat="46.19682" lon="1.77404">
        <ele>499.06</ele>
        <time>2021-08-06T22:13:42Z</time>
      </trkpt>
      <trkpt lat="46.19752" lon="1.77669">
        <ele>499.54</ele>
        <time>2021-08-06T22:13:51Z</time>
      </trkpt>
      <trkpt lat="46.19772" lon="1.77892">
        <ele>495.7</ele>
        <time>2021-08-06T22:13:57Z</time>
      </trkpt>
      <trkpt lat="46.19749" lon="1.78154">
        <ele>487.05</ele>
        <time>2021-08-06T22:14:04Z</time>
      </trkpt>
      <trkpt lat="46.19622" lon="1.78825">
        <ele>481.76</ele>
        <time>2021-08-06T22:14:23Z</time>
      </trkpt>
      <trkpt lat="46.19442" lon="1.79521">
        <ele>486.08</ele>
        <time>2021-08-06T22:14:44Z</time>
      </trkpt>
      <trkpt lat="46.19322" lon="1.79977">
        <ele>493.77</ele>
        <time>2021-08-06T22:14:58Z</time>
      </trkpt>
      <trkpt lat="46.19148" lon="1.80636">
        <ele>494.26</ele>
        <time>2021-08-06T22:15:18Z</time>
      </trkpt>
      <trkpt lat="46.19027" lon="1.81016">
        <ele>480.32</ele>
        <time>2021-08-06T22:15:29Z</time>
      </trkpt>
      <trkpt lat="46.18833" lon="1.81454">
        <ele>459.65</ele>
        <time>2021-08-06T22:15:41Z</time>
      </trkpt>
      <trkpt lat="46.18794" lon="1.81645">
        <ele>447.63</ele>
        <time>2021-08-06T22:15:47Z</time>
      </trkpt>
      <trkpt lat="46.18706" lon="1.82097">
        <ele>429.85</ele>
        <time>2021-08-06T22:15:59Z</time>
      </trkpt>
      <trkpt lat="46.18614" lon="1.82462">
        <ele>414.47</ele>
        <time>2021-08-06T22:16:09Z</time>
      </trkpt>
      <trkpt lat="46.18594" lon="1.82807">
        <ele>412.54</ele>
        <time>2021-08-06T22:16:17Z</time>
      </trkpt>
      <trkpt lat="46.18576" lon="1.8314">
        <ele>408.7</ele>
        <time>2021-08-06T22:16:27Z</time>
      </trkpt>
      <trkpt lat="46.18513" lon="1.83858">
        <ele>405.33</ele>
        <time>2021-08-06T22:16:47Z</time>
      </trkpt>
      <trkpt lat="46.18461" lon="1.84526">
        <ele>389.95</ele>
        <time>2021-08-06T22:17:05Z</time>
      </trkpt>
      <trkpt lat="46.18456" lon="1.85">
        <ele>380.34</ele>
        <time>2021-08-06T22:17:18Z</time>
      </trkpt>
      <trkpt lat="46.18483" lon="1.85526">
        <ele>369.28</ele>
        <time>2021-08-06T22:17:32Z</time>
      </trkpt>
      <trkpt lat="46.18487" lon="1.85986">
        <ele>374.09</ele>
        <time>2021-08-06T22:17:44Z</time>
      </trkpt>
      <trkpt lat="46.18455" lon="1.86473">
        <ele>387.07</ele>
        <time>2021-08-06T22:17:58Z</time>
      </trkpt>
      <trkpt lat="46.18376" lon="1.87012">
        <ele>392.36</ele>
        <time>2021-08-06T22:18:14Z</time>
      </trkpt>
      <trkpt lat="46.18288" lon="1.8754">
        <ele>387.55</ele>
        <time>2021-08-06T22:18:30Z</time>
      </trkpt>
      <trkpt lat="46.18177" lon="1.8814">
        <ele>387.07</ele>
        <time>2021-08-06T22:18:47Z</time>
      </trkpt>
      <trkpt lat="46.1804" lon="1.88707">
        <ele>397.16</ele>
        <time>2021-08-06T22:19:04Z</time>
      </trkpt>
      <trkpt lat="46.17858" lon="1.89447">
        <ele>395.24</ele>
        <time>2021-08-06T22:19:26Z</time>
      </trkpt>
      <trkpt lat="46.17773" lon="1.89862">
        <ele>391.87</ele>
        <time>2021-08-06T22:19:38Z</time>
      </trkpt>
      <trkpt lat="46.17777" lon="1.90117">
        <ele>393.32</ele>
        <time>2021-08-06T22:19:45Z</time>
      </trkpt>
      <trkpt lat="46.17851" lon="1.90507">
        <ele>392.84</ele>
        <time>2021-08-06T22:19:56Z</time>
      </trkpt>
      <trkpt lat="46.17969" lon="1.91077">
        <ele>380.34</ele>
        <time>2021-08-06T22:20:13Z</time>
      </trkpt>
      <trkpt lat="46.1807" lon="1.91448">
        <ele>371.21</ele>
        <time>2021-08-06T22:20:25Z</time>
      </trkpt>
      <trkpt lat="46.18217" lon="1.9182">
        <ele>371.69</ele>
        <time>2021-08-06T22:20:38Z</time>
      </trkpt>
      <trkpt lat="46.18417" lon="1.92305">
        <ele>358.71</ele>
        <time>2021-08-06T22:20:56Z</time>
      </trkpt>
      <trkpt lat="46.18497" lon="1.92507">
        <ele>352.94</ele>
        <time>2021-08-06T22:21:05Z</time>
      </trkpt>
      <trkpt lat="46.18533" lon="1.92596">
        <ele>353.9</ele>
        <time>2021-08-06T22:21:10Z</time>
      </trkpt>
      <trkpt lat="46.18552" lon="1.92643">
        <ele>354.86</ele>
        <time>2021-08-06T22:21:12Z</time>
      </trkpt>
      <trkpt lat="46.18552" lon="1.92643">
        <ele>354.86</ele>
        <time>2021-08-06T22:21:13Z</time>
      </trkpt>
      <trkpt lat="46.1861" lon="1.9279">
        <ele>354.86</ele>
        <time>2021-08-06T22:21:21Z</time>
      </trkpt>
      <trkpt lat="46.18728" lon="1.93084">
        <ele>352.94</ele>
        <time>2021-08-06T22:21:34Z</time>
      </trkpt>
      <trkpt lat="46.18823" lon="1.93375">
        <ele>349.58</ele>
        <time>2021-08-06T22:21:45Z</time>
      </trkpt>
      <trkpt lat="46.18854" lon="1.93662">
        <ele>342.85</ele>
        <time>2021-08-06T22:21:55Z</time>
      </trkpt>
      <trkpt lat="46.18877" lon="1.94157">
        <ele>328.43</ele>
        <time>2021-08-06T22:22:12Z</time>
      </trkpt>
      <trkpt lat="46.18887" lon="1.94375">
        <ele>329.87</ele>
        <time>2021-08-06T22:22:22Z</time>
      </trkpt>
      <trkpt lat="46.18895" lon="1.94536">
        <ele>336.12</ele>
        <time>2021-08-06T22:22:30Z</time>
      </trkpt>
      <trkpt lat="46.18909" lon="1.94785">
        <ele>345.25</ele>
        <time>2021-08-06T22:22:40Z</time>
      </trkpt>
      <trkpt lat="46.18954" lon="1.95033">
        <ele>354.86</ele>
        <time>2021-08-06T22:22:49Z</time>
      </trkpt>
      <trkpt lat="46.19039" lon="1.95207">
        <ele>362.07</ele>
        <time>2021-08-06T22:22:56Z</time>
      </trkpt>
      <trkpt lat="46.19163" lon="1.95322">
        <ele>368.32</ele>
        <time>2021-08-06T22:23:03Z</time>
      </trkpt>
      <trkpt lat="46.19404" lon="1.95451">
        <ele>382.74</ele>
        <time>2021-08-06T22:23:15Z</time>
      </trkpt>
      <trkpt lat="46.19543" lon="1.95589">
        <ele>391.87</ele>
        <time>2021-08-06T22:23:23Z</time>
      </trkpt>
      <trkpt lat="46.19665" lon="1.95801">
        <ele>401.01</ele>
        <time>2021-08-06T22:23:32Z</time>
      </trkpt>
      <trkpt lat="46.19887" lon="1.96321">
        <ele>423.12</ele>
        <time>2021-08-06T22:23:52Z</time>
      </trkpt>
      <trkpt lat="46.19966" lon="1.96647">
        <ele>430.81</ele>
        <time>2021-08-06T22:24:03Z</time>
      </trkpt>
      <trkpt lat="46.20103" lon="1.97344">
        <ele>450.03</ele>
        <time>2021-08-06T22:24:25Z</time>
      </trkpt>
      <trkpt lat="46.20222" lon="1.97926">
        <ele>463.97</ele>
        <time>2021-08-06T22:24:42Z</time>
      </trkpt>
      <trkpt lat="46.20354" lon="1.98328">
        <ele>464.93</ele>
        <time>2021-08-06T22:24:54Z</time>
      </trkpt>
      <trkpt lat="46.20425" lon="1.98657">
        <ele>464.45</ele>
        <time>2021-08-06T22:25:03Z</time>
      </trkpt>
      <trkpt lat="46.20448" lon="1.9899">
        <ele>465.42</ele>
        <time>2021-08-06T22:25:12Z</time>
      </trkpt>
      <trkpt lat="46.20428" lon="1.99347">
        <ele>468.78</ele>
        <time>2021-08-06T22:25:22Z</time>
      </trkpt>
      <trkpt lat="46.20414" lon="1.99785">
        <ele>475.99</ele>
        <time>2021-08-06T22:25:35Z</time>
      </trkpt>
      <trkpt lat="46.20453" lon="2.00189">
        <ele>482.72</ele>
        <time>2021-08-06T22:25:47Z</time>
      </trkpt>
      <trkpt lat="46.20539" lon="2.00591">
        <ele>486.08</ele>
        <time>2021-08-06T22:25:59Z</time>
      </trkpt>
      <trkpt lat="46.20669" lon="2.0105">
        <ele>488.97</ele>
        <time>2021-08-06T22:26:13Z</time>
      </trkpt>
      <trkpt lat="46.20716" lon="2.0138">
        <ele>496.18</ele>
        <time>2021-08-06T22:26:23Z</time>
      </trkpt>
      <trkpt lat="46.20715" lon="2.01718">
        <ele>499.06</ele>
        <time>2021-08-06T22:26:33Z</time>
      </trkpt>
      <trkpt lat="46.20655" lon="2.02537">
        <ele>516.37</ele>
        <time>2021-08-06T22:26:58Z</time>
      </trkpt>
      <trkpt lat="46.20599" lon="2.03263">
        <ele>523.58</ele>
        <time>2021-08-06T22:27:19Z</time>
      </trkpt>
      <trkpt lat="46.20543" lon="2.03824">
        <ele>520.21</ele>
        <time>2021-08-06T22:27:34Z</time>
      </trkpt>
      <trkpt lat="46.20471" lon="2.04328">
        <ele>514.92</ele>
        <time>2021-08-06T22:27:47Z</time>
      </trkpt>
      <trkpt lat="46.20473" lon="2.04731">
        <ele>510.6</ele>
        <time>2021-08-06T22:27:56Z</time>
      </trkpt>
      <trkpt lat="46.2047" lon="2.05098">
        <ele>503.39</ele>
        <time>2021-08-06T22:28:06Z</time>
      </trkpt>
      <trkpt lat="46.20408" lon="2.05877">
        <ele>492.33</ele>
        <time>2021-08-06T22:28:26Z</time>
      </trkpt>
      <trkpt lat="46.20338" lon="2.06781">
        <ele>481.28</ele>
        <time>2021-08-06T22:28:50Z</time>
      </trkpt>
      <trkpt lat="46.20337" lon="2.07184">
        <ele>475.99</ele>
        <time>2021-08-06T22:29:01Z</time>
      </trkpt>
      <trkpt lat="46.20394" lon="2.07619">
        <ele>471.18</ele>
        <time>2021-08-06T22:29:13Z</time>
      </trkpt>
      <trkpt lat="46.20447" lon="2.08024">
        <ele>465.9</ele>
        <time>2021-08-06T22:29:24Z</time>
      </trkpt>
      <trkpt lat="46.20522" lon="2.0898">
        <ele>443.79</ele>
        <time>2021-08-06T22:29:49Z</time>
      </trkpt>
      <trkpt lat="46.20516" lon="2.0928">
        <ele>439.94</ele>
        <time>2021-08-06T22:29:57Z</time>
      </trkpt>
      <trkpt lat="46.2046" lon="2.09558">
        <ele>438.5</ele>
        <time>2021-08-06T22:30:05Z</time>
      </trkpt>
      <trkpt lat="46.20343" lon="2.09846">
        <ele>434.65</ele>
        <time>2021-08-06T22:30:13Z</time>
      </trkpt>
      <trkpt lat="46.20228" lon="2.10139">
        <ele>427.92</ele>
        <time>2021-08-06T22:30:23Z</time>
      </trkpt>
      <trkpt lat="46.20175" lon="2.10405">
        <ele>418.79</ele>
        <time>2021-08-06T22:30:30Z</time>
      </trkpt>
      <trkpt lat="46.20114" lon="2.11108">
        <ele>403.89</ele>
        <time>2021-08-06T22:30:48Z</time>
      </trkpt>
      <trkpt lat="46.20048" lon="2.11884">
        <ele>390.91</ele>
        <time>2021-08-06T22:31:08Z</time>
      </trkpt>
      <trkpt lat="46.19972" lon="2.12776">
        <ele>402.45</ele>
        <time>2021-08-06T22:31:31Z</time>
      </trkpt>
      <trkpt lat="46.19909" lon="2.13512">
        <ele>398.12</ele>
        <time>2021-08-06T22:31:49Z</time>
      </trkpt>
      <trkpt lat="46.19856" lon="2.13937">
        <ele>392.84</ele>
        <time>2021-08-06T22:32:00Z</time>
      </trkpt>
      <trkpt lat="46.19738" lon="2.1448">
        <ele>391.39</ele>
        <time>2021-08-06T22:32:14Z</time>
      </trkpt>
      <trkpt lat="46.19665" lon="2.14952">
        <ele>388.51</ele>
        <time>2021-08-06T22:32:28Z</time>
      </trkpt>
      <trkpt lat="46.19579" lon="2.15568">
        <ele>394.76</ele>
        <time>2021-08-06T22:32:45Z</time>
      </trkpt>
      <trkpt lat="46.19472" lon="2.16338">
        <ele>401.01</ele>
        <time>2021-08-06T22:33:06Z</time>
      </trkpt>
      <trkpt lat="46.19375" lon="2.17101">
        <ele>421.19</ele>
        <time>2021-08-06T22:33:27Z</time>
      </trkpt>
      <trkpt lat="46.1938" lon="2.17429">
        <ele>425.04</ele>
        <time>2021-08-06T22:33:36Z</time>
      </trkpt>
      <trkpt lat="46.19436" lon="2.17765">
        <ele>425.52</ele>
        <time>2021-08-06T22:33:45Z</time>
      </trkpt>
      <trkpt lat="46.19603" lon="2.18399">
        <ele>412.06</ele>
        <time>2021-08-06T22:34:03Z</time>
      </trkpt>
      <trkpt lat="46.19725" lon="2.18942">
        <ele>396.68</ele>
        <time>2021-08-06T22:34:15Z</time>
      </trkpt>
      <trkpt lat="46.19749" lon="2.19291">
        <ele>392.36</ele>
        <time>2021-08-06T22:34:25Z</time>
      </trkpt>
      <trkpt lat="46.19782" lon="2.19916">
        <ele>388.03</ele>
        <time>2021-08-06T22:34:41Z</time>
      </trkpt>
      <trkpt lat="46.19798" lon="2.20435">
        <ele>384.18</ele>
        <time>2021-08-06T22:34:56Z</time>
      </trkpt>
      <trkpt lat="46.19756" lon="2.20767">
        <ele>385.15</ele>
        <time>2021-08-06T22:35:05Z</time>
      </trkpt>
      <trkpt lat="46.19597" lon="2.21539">
        <ele>382.74</ele>
        <time>2021-08-06T22:35:26Z</time>
      </trkpt>
      <trkpt lat="46.19531" lon="2.21946">
        <ele>381.78</ele>
        <time>2021-08-06T22:35:37Z</time>
      </trkpt>
      <trkpt lat="46.19533" lon="2.22244">
        <ele>380.34</ele>
        <time>2021-08-06T22:35:45Z</time>
      </trkpt>
      <trkpt lat="46.19588" lon="2.22567">
        <ele>378.9</ele>
        <time>2021-08-06T22:35:54Z</time>
      </trkpt>
      <trkpt lat="46.19723" lon="2.23149">
        <ele>375.53</ele>
        <time>2021-08-06T22:36:10Z</time>
      </trkpt>
      <trkpt lat="46.19831" lon="2.23617">
        <ele>373.13</ele>
        <time>2021-08-06T22:36:25Z</time>
      </trkpt>
      <trkpt lat="46.19905" lon="2.24039">
        <ele>372.65</ele>
        <time>2021-08-06T22:36:36Z</time>
      </trkpt>
      <trkpt lat="46.19914" lon="2.24332">
        <ele>375.53</ele>
        <time>2021-08-06T22:36:45Z</time>
      </trkpt>
      <trkpt lat="46.19886" lon="2.24654">
        <ele>379.38</ele>
        <time>2021-08-06T22:36:54Z</time>
      </trkpt>
      <trkpt lat="46.19837" lon="2.25042">
        <ele>380.34</ele>
        <time>2021-08-06T22:37:05Z</time>
      </trkpt>
      <trkpt lat="46.19859" lon="2.2529">
        <ele>379.38</ele>
        <time>2021-08-06T22:37:12Z</time>
      </trkpt>
      <trkpt lat="46.19931" lon="2.25527">
        <ele>378.9</ele>
        <time>2021-08-06T22:37:19Z</time>
      </trkpt>
      <trkpt lat="46.20187" lon="2.26053">
        <ele>378.9</ele>
        <time>2021-08-06T22:37:36Z</time>
      </trkpt>
      <trkpt lat="46.20605" lon="2.26894">
        <ele>377.94</ele>
        <time>2021-08-06T22:38:04Z</time>
      </trkpt>
      <trkpt lat="46.20847" lon="2.27296">
        <ele>377.45</ele>
        <time>2021-08-06T22:38:19Z</time>
      </trkpt>
      <trkpt lat="46.2126" lon="2.2797">
        <ele>375.05</ele>
        <time>2021-08-06T22:38:43Z</time>
      </trkpt>
      <trkpt lat="46.21578" lon="2.28522">
        <ele>376.01</ele>
        <time>2021-08-06T22:39:02Z</time>
      </trkpt>
      <trkpt lat="46.21791" lon="2.29003">
        <ele>374.57</ele>
        <time>2021-08-06T22:39:17Z</time>
      </trkpt>
      <trkpt lat="46.22067" lon="2.29647">
        <ele>384.18</ele>
        <time>2021-08-06T22:39:37Z</time>
      </trkpt>
      <trkpt lat="46.22242" lon="2.29933">
        <ele>388.51</ele>
        <time>2021-08-06T22:39:47Z</time>
      </trkpt>
      <trkpt lat="46.22483" lon="2.30212">
        <ele>398.12</ele>
        <time>2021-08-06T22:39:59Z</time>
      </trkpt>
      <trkpt lat="46.22694" lon="2.30522">
        <ele>403.89</ele>
        <time>2021-08-06T22:40:11Z</time>
      </trkpt>
      <trkpt lat="46.23162" lon="2.31273">
        <ele>414.47</ele>
        <time>2021-08-06T22:40:38Z</time>
      </trkpt>
      <trkpt lat="46.23586" lon="2.31987">
        <ele>422.64</ele>
        <time>2021-08-06T22:41:02Z</time>
      </trkpt>
      <trkpt lat="46.23744" lon="2.32354">
        <ele>413.5</ele>
        <time>2021-08-06T22:41:14Z</time>
      </trkpt>
      <trkpt lat="46.23887" lon="2.32811">
        <ele>400.53</ele>
        <time>2021-08-06T22:41:27Z</time>
      </trkpt>
      <trkpt lat="46.2405" lon="2.33317">
        <ele>399.57</ele>
        <time>2021-08-06T22:41:42Z</time>
      </trkpt>
      <trkpt lat="46.24231" lon="2.33742">
        <ele>406.29</ele>
        <time>2021-08-06T22:41:56Z</time>
      </trkpt>
      <trkpt lat="46.24564" lon="2.34487">
        <ele>415.91</ele>
        <time>2021-08-06T22:42:21Z</time>
      </trkpt>
      <trkpt lat="46.24799" lon="2.3497">
        <ele>424.08</ele>
        <time>2021-08-06T22:42:37Z</time>
      </trkpt>
      <trkpt lat="46.24983" lon="2.35215">
        <ele>431.29</ele>
        <time>2021-08-06T22:42:47Z</time>
      </trkpt>
      <trkpt lat="46.25411" lon="2.35691">
        <ele>445.71</ele>
        <time>2021-08-06T22:43:08Z</time>
      </trkpt>
      <trkpt lat="46.2592" lon="2.36254">
        <ele>456.28</ele>
        <time>2021-08-06T22:43:35Z</time>
      </trkpt>
      <trkpt lat="46.26261" lon="2.36647">
        <ele>450.03</ele>
        <time>2021-08-06T22:43:51Z</time>
      </trkpt>
      <trkpt lat="46.26497" lon="2.37009">
        <ele>445.23</ele>
        <time>2021-08-06T22:44:03Z</time>
      </trkpt>
      <trkpt lat="46.26842" lon="2.37583">
        <ele>441.38</ele>
        <time>2021-08-06T22:44:22Z</time>
      </trkpt>
      <trkpt lat="46.27263" lon="2.38282">
        <ele>449.55</ele>
        <time>2021-08-06T22:44:46Z</time>
      </trkpt>
      <trkpt lat="46.27664" lon="2.38948">
        <ele>451.48</ele>
        <time>2021-08-06T22:45:08Z</time>
      </trkpt>
      <trkpt lat="46.27985" lon="2.39481">
        <ele>455.32</ele>
        <time>2021-08-06T22:45:28Z</time>
      </trkpt>
      <trkpt lat="46.28334" lon="2.40056">
        <ele>455.32</ele>
        <time>2021-08-06T22:45:48Z</time>
      </trkpt>
      <trkpt lat="46.28674" lon="2.40623">
        <ele>462.05</ele>
        <time>2021-08-06T22:46:09Z</time>
      </trkpt>
      <trkpt lat="46.28865" lon="2.40982">
        <ele>465.42</ele>
        <time>2021-08-06T22:46:21Z</time>
      </trkpt>
      <trkpt lat="46.29032" lon="2.41418">
        <ele>466.86</ele>
        <time>2021-08-06T22:46:34Z</time>
      </trkpt>
      <trkpt lat="46.29295" lon="2.42148">
        <ele>471.66</ele>
        <time>2021-08-06T22:46:56Z</time>
      </trkpt>
      <trkpt lat="46.29577" lon="2.42926">
        <ele>482.72</ele>
        <time>2021-08-06T22:47:20Z</time>
      </trkpt>
      <trkpt lat="46.29737" lon="2.43307">
        <ele>488.01</ele>
        <time>2021-08-06T22:47:32Z</time>
      </trkpt>
      <trkpt lat="46.29911" lon="2.43606">
        <ele>484.64</ele>
        <time>2021-08-06T22:47:42Z</time>
      </trkpt>
      <trkpt lat="46.30201" lon="2.44017">
        <ele>468.78</ele>
        <time>2021-08-06T22:47:56Z</time>
      </trkpt>
      <trkpt lat="46.30377" lon="2.44341">
        <ele>457.72</ele>
        <time>2021-08-06T22:48:06Z</time>
      </trkpt>
      <trkpt lat="46.30514" lon="2.44695">
        <ele>441.86</ele>
        <time>2021-08-06T22:48:16Z</time>
      </trkpt>
      <trkpt lat="46.30665" lon="2.45203">
        <ele>448.59</ele>
        <time>2021-08-06T22:48:30Z</time>
      </trkpt>
      <trkpt lat="46.30869" lon="2.45895">
        <ele>451.48</ele>
        <time>2021-08-06T22:48:50Z</time>
      </trkpt>
      <trkpt lat="46.31038" lon="2.46469">
        <ele>434.65</ele>
        <time>2021-08-06T22:49:06Z</time>
      </trkpt>
      <trkpt lat="46.3119" lon="2.46886">
        <ele>424.08</ele>
        <time>2021-08-06T22:49:17Z</time>
      </trkpt>
      <trkpt lat="46.31359" lon="2.47286">
        <ele>409.66</ele>
        <time>2021-08-06T22:49:30Z</time>
      </trkpt>
      <trkpt lat="46.31496" lon="2.47716">
        <ele>401.49</ele>
        <time>2021-08-06T22:49:42Z</time>
      </trkpt>
      <trkpt lat="46.31587" lon="2.48162">
        <ele>399.57</ele>
        <time>2021-08-06T22:49:54Z</time>
      </trkpt>
      <trkpt lat="46.31634" lon="2.48662">
        <ele>398.12</ele>
        <time>2021-08-06T22:50:07Z</time>
      </trkpt>
      <trkpt lat="46.3169" lon="2.49636">
        <ele>395.72</ele>
        <time>2021-08-06T22:50:32Z</time>
      </trkpt>
      <trkpt lat="46.31738" lon="2.50089">
        <ele>393.8</ele>
        <time>2021-08-06T22:50:44Z</time>
      </trkpt>
      <trkpt lat="46.31848" lon="2.50648">
        <ele>383.22</ele>
        <time>2021-08-06T22:50:59Z</time>
      </trkpt>
      <trkpt lat="46.32018" lon="2.51465">
        <ele>362.55</ele>
        <time>2021-08-06T22:51:21Z</time>
      </trkpt>
      <trkpt lat="46.32189" lon="2.52241">
        <ele>340.92</ele>
        <time>2021-08-06T22:51:43Z</time>
      </trkpt>
      <trkpt lat="46.32331" lon="2.52662">
        <ele>331.31</ele>
        <time>2021-08-06T22:51:56Z</time>
      </trkpt>
      <trkpt lat="46.325" lon="2.53145">
        <ele>317.85</ele>
        <time>2021-08-06T22:52:12Z</time>
      </trkpt>
      <trkpt lat="46.32602" lon="2.53351">
        <ele>312.09</ele>
        <time>2021-08-06T22:52:19Z</time>
      </trkpt>
      <trkpt lat="46.32745" lon="2.53523">
        <ele>304.88</ele>
        <time>2021-08-06T22:52:26Z</time>
      </trkpt>
      <trkpt lat="46.32936" lon="2.53648">
        <ele>302.47</ele>
        <time>2021-08-06T22:52:33Z</time>
      </trkpt>
      <trkpt lat="46.33075" lon="2.53684">
        <ele>302.47</ele>
        <time>2021-08-06T22:52:40Z</time>
      </trkpt>
      <trkpt lat="46.33252" lon="2.53692">
        <ele>304.88</ele>
        <time>2021-08-06T22:52:49Z</time>
      </trkpt>
      <trkpt lat="46.33378" lon="2.53701">
        <ele>303.43</ele>
        <time>2021-08-06T22:52:56Z</time>
      </trkpt>
      <trkpt lat="46.33378" lon="2.53701">
        <ele>302.95</ele>
        <time>2021-08-06T22:52:57Z</time>
      </trkpt>
      <trkpt lat="46.33391" lon="2.53708">
        <ele>302.95</ele>
        <time>2021-08-06T22:52:58Z</time>
      </trkpt>
      <trkpt lat="46.33403" lon="2.53715">
        <ele>303.91</ele>
        <time>2021-08-06T22:52:59Z</time>
      </trkpt>
      <trkpt lat="46.33414" lon="2.53725">
        <ele>304.39</ele>
        <time>2021-08-06T22:53:00Z</time>
      </trkpt>
      <trkpt lat="46.33425" lon="2.53736">
        <ele>304.88</ele>
        <time>2021-08-06T22:53:01Z</time>
      </trkpt>
      <trkpt lat="46.33435" lon="2.53748">
        <ele>305.36</ele>
        <time>2021-08-06T22:53:02Z</time>
      </trkpt>
      <trkpt lat="46.33445" lon="2.53762">
        <ele>305.36</ele>
        <time>2021-08-06T22:53:03Z</time>
      </trkpt>
      <trkpt lat="46.33456" lon="2.53776">
        <ele>305.36</ele>
        <time>2021-08-06T22:53:04Z</time>
      </trkpt>
      <trkpt lat="46.33467" lon="2.53791">
        <ele>304.88</ele>
        <time>2021-08-06T22:53:05Z</time>
      </trkpt>
      <trkpt lat="46.33481" lon="2.53831">
        <ele>304.88</ele>
        <time>2021-08-06T22:53:06Z</time>
      </trkpt>
      <trkpt lat="46.33481" lon="2.53831">
        <ele>303.91</ele>
        <time>2021-08-06T22:53:07Z</time>
      </trkpt>
      <trkpt lat="46.33486" lon="2.53854">
        <ele>303.43</ele>
        <time>2021-08-06T22:53:08Z</time>
      </trkpt>
      <trkpt lat="46.3349" lon="2.53877">
        <ele>303.43</ele>
        <time>2021-08-06T22:53:09Z</time>
      </trkpt>
      <trkpt lat="46.33492" lon="2.53902">
        <ele>304.39</ele>
        <time>2021-08-06T22:53:10Z</time>
      </trkpt>
      <trkpt lat="46.33492" lon="2.53925">
        <ele>304.88</ele>
        <time>2021-08-06T22:53:11Z</time>
      </trkpt>
      <trkpt lat="46.33491" lon="2.53948">
        <ele>305.36</ele>
        <time>2021-08-06T22:53:12Z</time>
      </trkpt>
      <trkpt lat="46.33488" lon="2.54029">
        <ele>307.76</ele>
        <time>2021-08-06T22:53:16Z</time>
      </trkpt>
      <trkpt lat="46.33487" lon="2.54044">
        <ele>308.72</ele>
        <time>2021-08-06T22:53:17Z</time>
      </trkpt>
      <trkpt lat="46.33471" lon="2.5408">
        <ele>310.16</ele>
        <time>2021-08-06T22:53:19Z</time>
      </trkpt>
      <trkpt lat="46.33471" lon="2.54085">
        <ele>310.16</ele>
        <time>2021-08-06T22:53:20Z</time>
      </trkpt>
      <trkpt lat="46.33471" lon="2.54093">
        <ele>309.68</ele>
        <time>2021-08-06T22:53:21Z</time>
      </trkpt>
      <trkpt lat="46.33476" lon="2.54115">
        <ele>310.64</ele>
        <time>2021-08-06T22:53:22Z</time>
      </trkpt>
      <trkpt lat="46.33472" lon="2.54129">
        <ele>310.64</ele>
        <time>2021-08-06T22:53:23Z</time>
      </trkpt>
      <trkpt lat="46.33468" lon="2.54145">
        <ele>311.6</ele>
        <time>2021-08-06T22:53:24Z</time>
      </trkpt>
      <trkpt lat="46.3346" lon="2.54178">
        <ele>311.6</ele>
        <time>2021-08-06T22:53:26Z</time>
      </trkpt>
      <trkpt lat="46.33459" lon="2.54207">
        <ele>311.12</ele>
        <time>2021-08-06T22:53:27Z</time>
      </trkpt>
      <trkpt lat="46.33459" lon="2.54207">
        <ele>310.64</ele>
        <time>2021-08-06T22:53:28Z</time>
      </trkpt>
      <trkpt lat="46.33461" lon="2.54221">
        <ele>310.64</ele>
        <time>2021-08-06T22:53:29Z</time>
      </trkpt>
      <trkpt lat="46.33468" lon="2.54247">
        <ele>309.68</ele>
        <time>2021-08-06T22:53:30Z</time>
      </trkpt>
      <trkpt lat="46.33468" lon="2.54247">
        <ele>310.16</ele>
        <time>2021-08-06T22:53:31Z</time>
      </trkpt>
      <trkpt lat="46.33543" lon="2.5443">
        <ele>305.84</ele>
        <time>2021-08-06T22:53:41Z</time>
      </trkpt>
      <trkpt lat="46.33643" lon="2.54679">
        <ele>297.67</ele>
        <time>2021-08-06T22:53:54Z</time>
      </trkpt>
      <trkpt lat="46.33714" lon="2.54936">
        <ele>283.73</ele>
        <time>2021-08-06T22:54:04Z</time>
      </trkpt>
      <trkpt lat="46.33749" lon="2.55241">
        <ele>276.52</ele>
        <time>2021-08-06T22:54:15Z</time>
      </trkpt>
      <trkpt lat="46.33768" lon="2.5576">
        <ele>260.17</ele>
        <time>2021-08-06T22:54:35Z</time>
      </trkpt>
      <trkpt lat="46.33782" lon="2.56086">
        <ele>250.56</ele>
        <time>2021-08-06T22:54:49Z</time>
      </trkpt>
      <trkpt lat="46.33784" lon="2.56208">
        <ele>250.08</ele>
        <time>2021-08-06T22:54:57Z</time>
      </trkpt>
      <trkpt lat="46.33784" lon="2.56208">
        <ele>249.6</ele>
        <time>2021-08-06T22:54:58Z</time>
      </trkpt>
      <trkpt lat="46.33784" lon="2.56216">
        <ele>249.12</ele>
        <time>2021-08-06T22:54:59Z</time>
      </trkpt>
      <trkpt lat="46.33781" lon="2.5622">
        <ele>248.16</ele>
        <time>2021-08-06T22:55:00Z</time>
      </trkpt>
      <trkpt lat="46.33769" lon="2.56224">
        <ele>247.68</ele>
        <time>2021-08-06T22:55:01Z</time>
      </trkpt>
      <trkpt lat="46.33769" lon="2.56224">
        <ele>246.72</ele>
        <time>2021-08-06T22:55:02Z</time>
      </trkpt>
      <trkpt lat="46.33763" lon="2.5622">
        <ele>245.75</ele>
        <time>2021-08-06T22:55:03Z</time>
      </trkpt>
      <trkpt lat="46.33757" lon="2.56215">
        <ele>244.79</ele>
        <time>2021-08-06T22:55:04Z</time>
      </trkpt>
      <trkpt lat="46.33749" lon="2.5621">
        <ele>244.31</ele>
        <time>2021-08-06T22:55:05Z</time>
      </trkpt>
      <trkpt lat="46.33741" lon="2.56204">
        <ele>245.27</ele>
        <time>2021-08-06T22:55:06Z</time>
      </trkpt>
      <trkpt lat="46.33735" lon="2.56193">
        <ele>244.79</ele>
        <time>2021-08-06T22:55:07Z</time>
      </trkpt>
      <trkpt lat="46.33727" lon="2.56181">
        <ele>244.31</ele>
        <time>2021-08-06T22:55:08Z</time>
      </trkpt>
      <trkpt lat="46.33706" lon="2.56144">
        <ele>242.39</ele>
        <time>2021-08-06T22:55:11Z</time>
      </trkpt>
      <trkpt lat="46.33698" lon="2.56135">
        <ele>242.87</ele>
        <time>2021-08-06T22:55:12Z</time>
      </trkpt>
      <trkpt lat="46.33689" lon="2.56126">
        <ele>242.39</ele>
        <time>2021-08-06T22:55:13Z</time>
      </trkpt>
      <trkpt lat="46.33671" lon="2.5611">
        <ele>241.91</ele>
        <time>2021-08-06T22:55:14Z</time>
      </trkpt>
      <trkpt lat="46.33671" lon="2.5611">
        <ele>241.91</ele>
        <time>2021-08-06T22:55:15Z</time>
      </trkpt>
      <trkpt lat="46.33651" lon="2.56107">
        <ele>242.39</ele>
        <time>2021-08-06T22:55:16Z</time>
      </trkpt>
      <trkpt lat="46.33651" lon="2.56107">
        <ele>243.35</ele>
        <time>2021-08-06T22:55:17Z</time>
      </trkpt>
      <trkpt lat="46.33628" lon="2.56103">
        <ele>243.35</ele>
        <time>2021-08-06T22:55:18Z</time>
      </trkpt>
      <trkpt lat="46.33575" lon="2.56095">
        <ele>241.91</ele>
        <time>2021-08-06T22:55:23Z</time>
      </trkpt>
      <trkpt lat="46.33567" lon="2.56093">
        <ele>240.95</ele>
        <time>2021-08-06T22:55:24Z</time>
      </trkpt>
      <trkpt lat="46.33515" lon="2.56063">
        <ele>240.95</ele>
        <time>2021-08-06T22:55:31Z</time>
      </trkpt>
      <trkpt lat="46.33511" lon="2.56058">
        <ele>240.95</ele>
        <time>2021-08-06T22:55:32Z</time>
      </trkpt>
      <trkpt lat="46.33511" lon="2.56058">
        <ele>241.43</ele>
        <time>2021-08-06T22:55:33Z</time>
      </trkpt>
      <trkpt lat="46.33505" lon="2.56046">
        <ele>241.43</ele>
        <time>2021-08-06T22:55:34Z</time>
      </trkpt>
      <trkpt lat="46.33505" lon="2.56046">
        <ele>241.43</ele>
        <time>2021-08-06T22:55:35Z</time>
      </trkpt>
      <trkpt lat="46.33502" lon="2.5604">
        <ele>241.43</ele>
        <time>2021-08-06T22:55:36Z</time>
      </trkpt>
      <trkpt lat="46.335" lon="2.56034">
        <ele>241.43</ele>
        <time>2021-08-06T22:55:37Z</time>
      </trkpt>
      <trkpt lat="46.33497" lon="2.56027">
        <ele>241.43</ele>
        <time>2021-08-06T22:55:38Z</time>
      </trkpt>
      <trkpt lat="46.33465" lon="2.55916">
        <ele>241.91</ele>
        <time>2021-08-06T22:55:49Z</time>
      </trkpt>
      <trkpt lat="46.33455" lon="2.55881">
        <ele>241.91</ele>
        <time>2021-08-06T22:55:52Z</time>
      </trkpt>
      <trkpt lat="46.33449" lon="2.55871">
        <ele>241.91</ele>
        <time>2021-08-06T22:55:53Z</time>
      </trkpt>
      <trkpt lat="46.33443" lon="2.55861">
        <ele>241.91</ele>
        <time>2021-08-06T22:55:54Z</time>
      </trkpt>
      <trkpt lat="46.33436" lon="2.55852">
        <ele>242.39</ele>
        <time>2021-08-06T22:55:55Z</time>
      </trkpt>
      <trkpt lat="46.3342" lon="2.55836">
        <ele>242.39</ele>
        <time>2021-08-06T22:55:56Z</time>
      </trkpt>
      <trkpt lat="46.3342" lon="2.55836">
        <ele>242.39</ele>
        <time>2021-08-06T22:55:57Z</time>
      </trkpt>
      <trkpt lat="46.33412" lon="2.55832">
        <ele>242.39</ele>
        <time>2021-08-06T22:55:58Z</time>
      </trkpt>
      <trkpt lat="46.33403" lon="2.55827">
        <ele>242.39</ele>
        <time>2021-08-06T22:55:59Z</time>
      </trkpt>
      <trkpt lat="46.33387" lon="2.55819">
        <ele>242.39</ele>
        <time>2021-08-06T22:56:00Z</time>
      </trkpt>
      <trkpt lat="46.33335" lon="2.55792">
        <ele>242.39</ele>
        <time>2021-08-06T22:56:10Z</time>
      </trkpt>
      <trkpt lat="46.33258" lon="2.55753">
        <ele>241.43</ele>
        <time>2021-08-06T22:56:19Z</time>
      </trkpt>
      <trkpt lat="46.33155" lon="2.55684">
        <ele>242.39</ele>
        <time>2021-08-06T22:56:29Z</time>
      </trkpt>
      <trkpt lat="46.33131" lon="2.55667">
        <ele>243.83</ele>
        <time>2021-08-06T22:56:35Z</time>
      </trkpt>
      <trkpt lat="46.33092" lon="2.55631">
        <ele>244.79</ele>
        <time>2021-08-06T22:56:42Z</time>
      </trkpt>
      <trkpt lat="46.33018" lon="2.55518">
        <ele>243.83</ele>
        <time>2021-08-06T22:56:52Z</time>
      </trkpt>
      <trkpt lat="46.32981" lon="2.55466">
        <ele>243.35</ele>
        <time>2021-08-06T22:56:59Z</time>
      </trkpt>
      <trkpt lat="46.32969" lon="2.55454">
        <ele>243.83</ele>
        <time>2021-08-06T22:57:08Z</time>
      </trkpt>
      <trkpt lat="46.32965" lon="2.55451">
        <ele>243.83</ele>
        <time>2021-08-06T22:57:14Z</time>
      </trkpt>
      <trkpt lat="46.32963" lon="2.5545">
        <ele>243.35</ele>
        <time>2021-08-06T22:57:15Z</time>
      </trkpt>
      <trkpt lat="46.32951" lon="2.55446">
        <ele>243.35</ele>
        <time>2021-08-06T22:57:19Z</time>
      </trkpt>
      <trkpt lat="46.32946" lon="2.55446">
        <ele>242.87</ele>
        <time>2021-08-06T22:57:20Z</time>
      </trkpt>
      <trkpt lat="46.32934" lon="2.55448">
        <ele>242.87</ele>
        <time>2021-08-06T22:57:21Z</time>
      </trkpt>
      <trkpt lat="46.32934" lon="2.55448">
        <ele>242.87</ele>
        <time>2021-08-06T22:57:22Z</time>
      </trkpt>
      <trkpt lat="46.32928" lon="2.55452">
        <ele>242.39</ele>
        <time>2021-08-06T22:57:23Z</time>
      </trkpt>
      <trkpt lat="46.32921" lon="2.55456">
        <ele>242.39</ele>
        <time>2021-08-06T22:57:24Z</time>
      </trkpt>
      <trkpt lat="46.32914" lon="2.55461">
        <ele>242.39</ele>
        <time>2021-08-06T22:57:25Z</time>
      </trkpt>
      <trkpt lat="46.32844" lon="2.55523">
        <ele>242.39</ele>
        <time>2021-08-06T22:57:37Z</time>
      </trkpt>
      <trkpt lat="46.32777" lon="2.5556">
        <ele>243.83</ele>
        <time>2021-08-06T22:57:47Z</time>
      </trkpt>
      <trkpt lat="46.32769" lon="2.55566">
        <ele>243.83</ele>
        <time>2021-08-06T22:57:48Z</time>
      </trkpt>
      <trkpt lat="46.32762" lon="2.55573">
        <ele>244.31</ele>
        <time>2021-08-06T22:57:49Z</time>
      </trkpt>
      <trkpt lat="46.32755" lon="2.55582">
        <ele>244.79</ele>
        <time>2021-08-06T22:57:50Z</time>
      </trkpt>
      <trkpt lat="46.32748" lon="2.55591">
        <ele>245.27</ele>
        <time>2021-08-06T22:57:51Z</time>
      </trkpt>
      <trkpt lat="46.32743" lon="2.55606">
        <ele>245.27</ele>
        <time>2021-08-06T22:57:52Z</time>
      </trkpt>
      <trkpt lat="46.32676" lon="2.55791">
        <ele>250.56</ele>
        <time>2021-08-06T22:58:03Z</time>
      </trkpt>
      <trkpt lat="46.32632" lon="2.55888">
        <ele>252.48</ele>
        <time>2021-08-06T22:58:10Z</time>
      </trkpt>
      <trkpt lat="46.32624" lon="2.55904">
        <ele>252.48</ele>
        <time>2021-08-06T22:58:11Z</time>
      </trkpt>
      <trkpt lat="46.32622" lon="2.55909">
        <ele>252.96</ele>
        <time>2021-08-06T22:58:12Z</time>
      </trkpt>
      <trkpt lat="46.32622" lon="2.55909">
        <ele>252.96</ele>
        <time>2021-08-06T22:58:13Z</time>
      </trkpt>
      <trkpt lat="46.32611" lon="2.55911">
        <ele>252.96</ele>
        <time>2021-08-06T22:58:14Z</time>
      </trkpt>
      <trkpt lat="46.32607" lon="2.5591">
        <ele>253.44</ele>
        <time>2021-08-06T22:58:15Z</time>
      </trkpt>
      <trkpt lat="46.32602" lon="2.55907">
        <ele>253.44</ele>
        <time>2021-08-06T22:58:16Z</time>
      </trkpt>
      <trkpt lat="46.32595" lon="2.55904">
        <ele>253.44</ele>
        <time>2021-08-06T22:58:17Z</time>
      </trkpt>
      <trkpt lat="46.32563" lon="2.5589">
        <ele>252.96</ele>
        <time>2021-08-06T22:58:21Z</time>
      </trkpt>
      <trkpt lat="46.32552" lon="2.5589">
        <ele>252</ele>
        <time>2021-08-06T22:58:22Z</time>
      </trkpt>
      <trkpt lat="46.32541" lon="2.55891">
        <ele>252.48</ele>
        <time>2021-08-06T22:58:23Z</time>
      </trkpt>
      <trkpt lat="46.32532" lon="2.55894">
        <ele>253.44</ele>
        <time>2021-08-06T22:58:24Z</time>
      </trkpt>
      <trkpt lat="46.32523" lon="2.55898">
        <ele>253.44</ele>
        <time>2021-08-06T22:58:25Z</time>
      </trkpt>
      <trkpt lat="46.32514" lon="2.55901">
        <ele>253.44</ele>
        <time>2021-08-06T22:58:26Z</time>
      </trkpt>
      <trkpt lat="46.32507" lon="2.55903">
        <ele>253.93</ele>
        <time>2021-08-06T22:58:27Z</time>
      </trkpt>
      <trkpt lat="46.32494" lon="2.55908">
        <ele>252.96</ele>
        <time>2021-08-06T22:58:28Z</time>
      </trkpt>
      <trkpt lat="46.32494" lon="2.55908">
        <ele>252.96</ele>
        <time>2021-08-06T22:58:29Z</time>
      </trkpt>
      <trkpt lat="46.32488" lon="2.55902">
        <ele>252</ele>
        <time>2021-08-06T22:58:30Z</time>
      </trkpt>
      <trkpt lat="46.32484" lon="2.55902">
        <ele>250.08</ele>
        <time>2021-08-06T22:58:31Z</time>
      </trkpt>
      <trkpt lat="46.32483" lon="2.55907">
        <ele>249.6</ele>
        <time>2021-08-06T22:58:32Z</time>
      </trkpt>
      <trkpt lat="46.32482" lon="2.55914">
        <ele>248.64</ele>
        <time>2021-08-06T22:58:33Z</time>
      </trkpt>
      <trkpt lat="46.32491" lon="2.55917">
        <ele>249.6</ele>
        <time>2021-08-06T22:58:34Z</time>
      </trkpt>
      <trkpt lat="46.32489" lon="2.55917">
        <ele>250.56</ele>
        <time>2021-08-06T22:58:35Z</time>
      </trkpt>
      <trkpt lat="46.32494" lon="2.55927">
        <ele>250.56</ele>
        <time>2021-08-06T22:58:36Z</time>
      </trkpt>
      <trkpt lat="46.32497" lon="2.55934">
        <ele>251.04</ele>
        <time>2021-08-06T22:58:37Z</time>
      </trkpt>
      <trkpt lat="46.325" lon="2.55944">
        <ele>252</ele>
        <time>2021-08-06T22:58:38Z</time>
      </trkpt>
      <trkpt lat="46.32504" lon="2.55954">
        <ele>252.48</ele>
        <time>2021-08-06T22:58:39Z</time>
      </trkpt>
      <trkpt lat="46.32542" lon="2.56077">
        <ele>263.54</ele>
        <time>2021-08-06T22:58:47Z</time>
      </trkpt>
      <trkpt lat="46.3257" lon="2.56268">
        <ele>270.75</ele>
        <time>2021-08-06T22:58:57Z</time>
      </trkpt>
      <trkpt lat="46.32639" lon="2.56517">
        <ele>269.31</ele>
        <time>2021-08-06T22:59:10Z</time>
      </trkpt>
      <trkpt lat="46.32714" lon="2.5674">
        <ele>259.69</ele>
        <time>2021-08-06T22:59:21Z</time>
      </trkpt>
      <trkpt lat="46.32776" lon="2.56903">
        <ele>255.85</ele>
        <time>2021-08-06T22:59:30Z</time>
      </trkpt>
      <trkpt lat="46.32781" lon="2.56919">
        <ele>255.37</ele>
        <time>2021-08-06T22:59:31Z</time>
      </trkpt>
      <trkpt lat="46.32802" lon="2.57008">
        <ele>249.6</ele>
        <time>2021-08-06T22:59:35Z</time>
      </trkpt>
      <trkpt lat="46.32802" lon="2.57008">
        <ele>249.6</ele>
        <time>2021-08-06T22:59:36Z</time>
      </trkpt>
      <trkpt lat="46.32806" lon="2.57025">
        <ele>248.64</ele>
        <time>2021-08-06T22:59:37Z</time>
      </trkpt>
      <trkpt lat="46.32903" lon="2.5724">
        <ele>237.58</ele>
        <time>2021-08-06T22:59:49Z</time>
      </trkpt>
      <trkpt lat="46.3291" lon="2.57257">
        <ele>237.58</ele>
        <time>2021-08-06T22:59:50Z</time>
      </trkpt>
      <trkpt lat="46.32936" lon="2.57326">
        <ele>234.7</ele>
        <time>2021-08-06T22:59:54Z</time>
      </trkpt>
      <trkpt lat="46.32942" lon="2.57343">
        <ele>234.22</ele>
        <time>2021-08-06T22:59:55Z</time>
      </trkpt>
      <trkpt lat="46.3295" lon="2.57359">
        <ele>234.7</ele>
        <time>2021-08-06T22:59:56Z</time>
      </trkpt>
      <trkpt lat="46.32959" lon="2.57371">
        <ele>235.66</ele>
        <time>2021-08-06T22:59:57Z</time>
      </trkpt>
      <trkpt lat="46.32968" lon="2.57384">
        <ele>235.66</ele>
        <time>2021-08-06T22:59:58Z</time>
      </trkpt>
      <trkpt lat="46.3298" lon="2.57394">
        <ele>235.66</ele>
        <time>2021-08-06T22:59:59Z</time>
      </trkpt>
      <trkpt lat="46.33062" lon="2.57463">
        <ele>235.66</ele>
        <time>2021-08-06T23:00:06Z</time>
      </trkpt>
      <trkpt lat="46.3307" lon="2.57475">
        <ele>235.66</ele>
        <time>2021-08-06T23:00:07Z</time>
      </trkpt>
      <trkpt lat="46.33078" lon="2.57488">
        <ele>236.14</ele>
        <time>2021-08-06T23:00:08Z</time>
      </trkpt>
      <trkpt lat="46.33087" lon="2.57501">
        <ele>236.62</ele>
        <time>2021-08-06T23:00:09Z</time>
      </trkpt>
      <trkpt lat="46.33094" lon="2.57513">
        <ele>237.1</ele>
        <time>2021-08-06T23:00:10Z</time>
      </trkpt>
      <trkpt lat="46.33144" lon="2.57634">
        <ele>237.58</ele>
        <time>2021-08-06T23:00:20Z</time>
      </trkpt>
      <trkpt lat="46.33152" lon="2.57651">
        <ele>237.58</ele>
        <time>2021-08-06T23:00:27Z</time>
      </trkpt>
      <trkpt lat="46.33154" lon="2.57658">
        <ele>237.58</ele>
        <time>2021-08-06T23:00:36Z</time>
      </trkpt>
      <trkpt lat="46.33155" lon="2.57669">
        <ele>238.06</ele>
        <time>2021-08-06T23:00:37Z</time>
      </trkpt>
      <trkpt lat="46.33151" lon="2.57673">
        <ele>238.06</ele>
        <time>2021-08-06T23:00:38Z</time>
      </trkpt>
      <trkpt lat="46.33147" lon="2.57677">
        <ele>238.06</ele>
        <time>2021-08-06T23:00:39Z</time>
      </trkpt>
      <trkpt lat="46.33141" lon="2.57682">
        <ele>238.54</ele>
        <time>2021-08-06T23:00:40Z</time>
      </trkpt>
      <trkpt lat="46.33069" lon="2.57762">
        <ele>239.51</ele>
        <time>2021-08-06T23:00:49Z</time>
      </trkpt>
      <trkpt lat="46.33036" lon="2.57827">
        <ele>239.02</ele>
        <time>2021-08-06T23:00:55Z</time>
      </trkpt>
      <trkpt lat="46.33033" lon="2.57836">
        <ele>239.02</ele>
        <time>2021-08-06T23:00:56Z</time>
      </trkpt>
      <trkpt lat="46.33026" lon="2.57842">
        <ele>239.02</ele>
        <time>2021-08-06T23:00:57Z</time>
      </trkpt>
      <trkpt lat="46.33023" lon="2.57855">
        <ele>239.02</ele>
        <time>2021-08-06T23:00:58Z</time>
      </trkpt>
      <trkpt lat="46.33021" lon="2.57859">
        <ele>238.54</ele>
        <time>2021-08-06T23:00:59Z</time>
      </trkpt>
      <trkpt lat="46.33018" lon="2.5787">
        <ele>238.06</ele>
        <time>2021-08-06T23:01:00Z</time>
      </trkpt>
      <trkpt lat="46.33015" lon="2.57881">
        <ele>238.54</ele>
        <time>2021-08-06T23:01:01Z</time>
      </trkpt>
      <trkpt lat="46.33011" lon="2.57894">
        <ele>237.1</ele>
        <time>2021-08-06T23:01:02Z</time>
      </trkpt>
      <trkpt lat="46.32955" lon="2.58075">
        <ele>230.85</ele>
        <time>2021-08-06T23:01:13Z</time>
      </trkpt>
      <trkpt lat="46.32952" lon="2.58084">
        <ele>230.85</ele>
        <time>2021-08-06T23:01:15Z</time>
      </trkpt>
      <trkpt lat="46.32949" lon="2.58093">
        <ele>230.85</ele>
        <time>2021-08-06T23:01:16Z</time>
      </trkpt>
      <trkpt lat="46.32945" lon="2.58101">
        <ele>231.33</ele>
        <time>2021-08-06T23:01:17Z</time>
      </trkpt>
      <trkpt lat="46.32943" lon="2.58114">
        <ele>231.33</ele>
        <time>2021-08-06T23:01:18Z</time>
      </trkpt>
      <trkpt lat="46.32942" lon="2.5812">
        <ele>231.33</ele>
        <time>2021-08-06T23:01:19Z</time>
      </trkpt>
      <trkpt lat="46.32939" lon="2.5813">
        <ele>231.33</ele>
        <time>2021-08-06T23:01:20Z</time>
      </trkpt>
      <trkpt lat="46.32936" lon="2.58141">
        <ele>231.33</ele>
        <time>2021-08-06T23:01:21Z</time>
      </trkpt>
      <trkpt lat="46.32922" lon="2.58185">
        <ele>230.85</ele>
        <time>2021-08-06T23:01:25Z</time>
      </trkpt>
      <trkpt lat="46.32919" lon="2.58196">
        <ele>230.37</ele>
        <time>2021-08-06T23:01:26Z</time>
      </trkpt>
      <trkpt lat="46.32915" lon="2.58204">
        <ele>229.89</ele>
        <time>2021-08-06T23:01:27Z</time>
      </trkpt>
      <trkpt lat="46.32912" lon="2.58211">
        <ele>230.37</ele>
        <time>2021-08-06T23:01:28Z</time>
      </trkpt>
      <trkpt lat="46.32896" lon="2.58212">
        <ele>230.37</ele>
        <time>2021-08-06T23:01:29Z</time>
      </trkpt>
      <trkpt lat="46.32892" lon="2.58218">
        <ele>230.85</ele>
        <time>2021-08-06T23:01:30Z</time>
      </trkpt>
      <trkpt lat="46.32888" lon="2.58223">
        <ele>230.37</ele>
        <time>2021-08-06T23:01:31Z</time>
      </trkpt>
      <trkpt lat="46.32888" lon="2.58223">
        <ele>229.89</ele>
        <time>2021-08-06T23:01:32Z</time>
      </trkpt>
      <trkpt lat="46.32893" lon="2.58238">
        <ele>229.89</ele>
        <time>2021-08-06T23:01:33Z</time>
      </trkpt>
      <trkpt lat="46.32893" lon="2.58238">
        <ele>229.41</ele>
        <time>2021-08-06T23:01:34Z</time>
      </trkpt>
      <trkpt lat="46.32885" lon="2.58251">
        <ele>229.41</ele>
        <time>2021-08-06T23:01:35Z</time>
      </trkpt>
      <trkpt lat="46.3288" lon="2.58257">
        <ele>229.41</ele>
        <time>2021-08-06T23:01:36Z</time>
      </trkpt>
      <trkpt lat="46.32873" lon="2.58264">
        <ele>229.89</ele>
        <time>2021-08-06T23:01:37Z</time>
      </trkpt>
      <trkpt lat="46.32815" lon="2.58346">
        <ele>236.14</ele>
        <time>2021-08-06T23:01:44Z</time>
      </trkpt>
      <trkpt lat="46.32809" lon="2.58362">
        <ele>237.1</ele>
        <time>2021-08-06T23:01:45Z</time>
      </trkpt>
      <trkpt lat="46.32803" lon="2.58377">
        <ele>238.06</ele>
        <time>2021-08-06T23:01:46Z</time>
      </trkpt>
      <trkpt lat="46.32797" lon="2.58392">
        <ele>238.54</ele>
        <time>2021-08-06T23:01:47Z</time>
      </trkpt>
      <trkpt lat="46.32795" lon="2.5841">
        <ele>239.99</ele>
        <time>2021-08-06T23:01:48Z</time>
      </trkpt>
      <trkpt lat="46.32795" lon="2.58426">
        <ele>240.95</ele>
        <time>2021-08-06T23:01:49Z</time>
      </trkpt>
      <trkpt lat="46.32795" lon="2.58444">
        <ele>241.43</ele>
        <time>2021-08-06T23:01:50Z</time>
      </trkpt>
      <trkpt lat="46.32795" lon="2.5846">
        <ele>242.39</ele>
        <time>2021-08-06T23:01:51Z</time>
      </trkpt>
      <trkpt lat="46.32795" lon="2.58476">
        <ele>243.83</ele>
        <time>2021-08-06T23:01:52Z</time>
      </trkpt>
      <trkpt lat="46.32802" lon="2.58509">
        <ele>245.75</ele>
        <time>2021-08-06T23:01:53Z</time>
      </trkpt>
      <trkpt lat="46.32802" lon="2.58509">
        <ele>246.23</ele>
        <time>2021-08-06T23:01:54Z</time>
      </trkpt>
      <trkpt lat="46.32807" lon="2.58525">
        <ele>245.27</ele>
        <time>2021-08-06T23:01:55Z</time>
      </trkpt>
      <trkpt lat="46.32813" lon="2.58542">
        <ele>244.79</ele>
        <time>2021-08-06T23:01:56Z</time>
      </trkpt>
      <trkpt lat="46.32843" lon="2.58626">
        <ele>250.56</ele>
        <time>2021-08-06T23:02:00Z</time>
      </trkpt>
      <trkpt lat="46.32843" lon="2.58626">
        <ele>251.52</ele>
        <time>2021-08-06T23:02:01Z</time>
      </trkpt>
      <trkpt lat="46.32845" lon="2.58644">
        <ele>252</ele>
        <time>2021-08-06T23:02:02Z</time>
      </trkpt>
      <trkpt lat="46.32845" lon="2.58664">
        <ele>253.93</ele>
        <time>2021-08-06T23:02:03Z</time>
      </trkpt>
      <trkpt lat="46.32845" lon="2.58685">
        <ele>254.89</ele>
        <time>2021-08-06T23:02:04Z</time>
      </trkpt>
      <trkpt lat="46.32834" lon="2.58723">
        <ele>255.85</ele>
        <time>2021-08-06T23:02:05Z</time>
      </trkpt>
      <trkpt lat="46.32834" lon="2.58723">
        <ele>256.33</ele>
        <time>2021-08-06T23:02:06Z</time>
      </trkpt>
      <trkpt lat="46.32828" lon="2.58742">
        <ele>257.29</ele>
        <time>2021-08-06T23:02:07Z</time>
      </trkpt>
      <trkpt lat="46.32812" lon="2.58773">
        <ele>257.29</ele>
        <time>2021-08-06T23:02:08Z</time>
      </trkpt>
      <trkpt lat="46.32812" lon="2.58773">
        <ele>258.25</ele>
        <time>2021-08-06T23:02:09Z</time>
      </trkpt>
      <trkpt lat="46.32794" lon="2.58802">
        <ele>258.73</ele>
        <time>2021-08-06T23:02:10Z</time>
      </trkpt>
      <trkpt lat="46.32782" lon="2.58813">
        <ele>259.69</ele>
        <time>2021-08-06T23:02:11Z</time>
      </trkpt>
      <trkpt lat="46.32771" lon="2.58824">
        <ele>260.17</ele>
        <time>2021-08-06T23:02:12Z</time>
      </trkpt>
      <trkpt lat="46.32771" lon="2.58824">
        <ele>260.65</ele>
        <time>2021-08-06T23:02:13Z</time>
      </trkpt>
      <trkpt lat="46.32758" lon="2.58833">
        <ele>261.14</ele>
        <time>2021-08-06T23:02:14Z</time>
      </trkpt>
      <trkpt lat="46.32655" lon="2.58899">
        <ele>263.54</ele>
        <time>2021-08-06T23:02:24Z</time>
      </trkpt>
      <trkpt lat="46.32643" lon="2.58886">
        <ele>263.06</ele>
        <time>2021-08-06T23:02:25Z</time>
      </trkpt>
      <trkpt lat="46.32639" lon="2.5889">
        <ele>262.58</ele>
        <time>2021-08-06T23:02:26Z</time>
      </trkpt>
      <trkpt lat="46.32636" lon="2.58892">
        <ele>262.1</ele>
        <time>2021-08-06T23:02:27Z</time>
      </trkpt>
      <trkpt lat="46.32634" lon="2.58903">
        <ele>262.1</ele>
        <time>2021-08-06T23:02:28Z</time>
      </trkpt>
      <trkpt lat="46.32639" lon="2.58915">
        <ele>262.1</ele>
        <time>2021-08-06T23:02:29Z</time>
      </trkpt>
      <trkpt lat="46.32639" lon="2.58915">
        <ele>261.62</ele>
        <time>2021-08-06T23:02:30Z</time>
      </trkpt>
      <trkpt lat="46.32641" lon="2.58917">
        <ele>261.62</ele>
        <time>2021-08-06T23:02:31Z</time>
      </trkpt>
      <trkpt lat="46.32653" lon="2.58915">
        <ele>261.14</ele>
        <time>2021-08-06T23:02:32Z</time>
      </trkpt>
      <trkpt lat="46.32659" lon="2.58921">
        <ele>260.65</ele>
        <time>2021-08-06T23:02:33Z</time>
      </trkpt>
      <trkpt lat="46.32665" lon="2.58928">
        <ele>260.17</ele>
        <time>2021-08-06T23:02:34Z</time>
      </trkpt>
      <trkpt lat="46.32671" lon="2.58938">
        <ele>259.69</ele>
        <time>2021-08-06T23:02:35Z</time>
      </trkpt>
      <trkpt lat="46.32675" lon="2.58949">
        <ele>258.25</ele>
        <time>2021-08-06T23:02:36Z</time>
      </trkpt>
      <trkpt lat="46.32679" lon="2.58961">
        <ele>257.77</ele>
        <time>2021-08-06T23:02:37Z</time>
      </trkpt>
      <trkpt lat="46.32707" lon="2.59038">
        <ele>250.08</ele>
        <time>2021-08-06T23:02:43Z</time>
      </trkpt>
      <trkpt lat="46.32766" lon="2.59167">
        <ele>233.26</ele>
        <time>2021-08-06T23:02:52Z</time>
      </trkpt>
      <trkpt lat="46.32819" lon="2.59318">
        <ele>221.24</ele>
        <time>2021-08-06T23:03:01Z</time>
      </trkpt>
      <trkpt lat="46.32824" lon="2.59334">
        <ele>220.76</ele>
        <time>2021-08-06T23:03:02Z</time>
      </trkpt>
      <trkpt lat="46.32826" lon="2.59352">
        <ele>217.88</ele>
        <time>2021-08-06T23:03:03Z</time>
      </trkpt>
      <trkpt lat="46.32857" lon="2.59507">
        <ele>208.26</ele>
        <time>2021-08-06T23:03:12Z</time>
      </trkpt>
      <trkpt lat="46.32891" lon="2.59658">
        <ele>202.49</ele>
        <time>2021-08-06T23:03:23Z</time>
      </trkpt>
      <trkpt lat="46.32885" lon="2.59674">
        <ele>202.98</ele>
        <time>2021-08-06T23:03:24Z</time>
      </trkpt>
      <trkpt lat="46.32882" lon="2.59682">
        <ele>204.42</ele>
        <time>2021-08-06T23:03:25Z</time>
      </trkpt>
      <trkpt lat="46.32882" lon="2.59682">
        <ele>204.9</ele>
        <time>2021-08-06T23:03:26Z</time>
      </trkpt>
      <trkpt lat="46.32879" lon="2.59688">
        <ele>205.38</ele>
        <time>2021-08-06T23:03:27Z</time>
      </trkpt>
      <trkpt lat="46.32873" lon="2.59693">
        <ele>205.86</ele>
        <time>2021-08-06T23:03:28Z</time>
      </trkpt>
      <trkpt lat="46.32868" lon="2.59699">
        <ele>206.34</ele>
        <time>2021-08-06T23:03:29Z</time>
      </trkpt>
      <trkpt lat="46.32863" lon="2.59704">
        <ele>206.82</ele>
        <time>2021-08-06T23:03:30Z</time>
      </trkpt>
      <trkpt lat="46.32859" lon="2.59709">
        <ele>206.34</ele>
        <time>2021-08-06T23:03:31Z</time>
      </trkpt>
      <trkpt lat="46.32855" lon="2.59712">
        <ele>205.86</ele>
        <time>2021-08-06T23:03:32Z</time>
      </trkpt>
      <trkpt lat="46.32853" lon="2.59715">
        <ele>205.38</ele>
        <time>2021-08-06T23:03:33Z</time>
      </trkpt>
      <trkpt lat="46.32855" lon="2.59731">
        <ele>205.38</ele>
        <time>2021-08-06T23:03:34Z</time>
      </trkpt>
      <trkpt lat="46.32859" lon="2.59734">
        <ele>204.9</ele>
        <time>2021-08-06T23:03:35Z</time>
      </trkpt>
      <trkpt lat="46.32864" lon="2.59738">
        <ele>204.42</ele>
        <time>2021-08-06T23:03:36Z</time>
      </trkpt>
      <trkpt lat="46.3287" lon="2.59743">
        <ele>203.94</ele>
        <time>2021-08-06T23:03:37Z</time>
      </trkpt>
      <trkpt lat="46.32954" lon="2.59834">
        <ele>204.9</ele>
        <time>2021-08-06T23:03:47Z</time>
      </trkpt>
      <trkpt lat="46.33057" lon="2.59947">
        <ele>205.38</ele>
        <time>2021-08-06T23:03:58Z</time>
      </trkpt>
      <trkpt lat="46.33097" lon="2.59989">
        <ele>205.38</ele>
        <time>2021-08-06T23:04:04Z</time>
      </trkpt>
      <trkpt lat="46.331" lon="2.59994">
        <ele>205.38</ele>
        <time>2021-08-06T23:04:05Z</time>
      </trkpt>
      <trkpt lat="46.33102" lon="2.59999">
        <ele>205.38</ele>
        <time>2021-08-06T23:04:06Z</time>
      </trkpt>
      <trkpt lat="46.33104" lon="2.60004">
        <ele>205.38</ele>
        <time>2021-08-06T23:04:07Z</time>
      </trkpt>
      <trkpt lat="46.33102" lon="2.60013">
        <ele>205.38</ele>
        <time>2021-08-06T23:04:08Z</time>
      </trkpt>
      <trkpt lat="46.33098" lon="2.60018">
        <ele>205.38</ele>
        <time>2021-08-06T23:04:09Z</time>
      </trkpt>
      <trkpt lat="46.33043" lon="2.60152">
        <ele>204.9</ele>
        <time>2021-08-06T23:04:19Z</time>
      </trkpt>
      <trkpt lat="46.32965" lon="2.60335">
        <ele>204.42</ele>
        <time>2021-08-06T23:04:31Z</time>
      </trkpt>
      <trkpt lat="46.32923" lon="2.60472">
        <ele>206.82</ele>
        <time>2021-08-06T23:04:42Z</time>
      </trkpt>
      <trkpt lat="46.32897" lon="2.60569">
        <ele>208.26</ele>
        <time>2021-08-06T23:04:53Z</time>
      </trkpt>
      <trkpt lat="46.32853" lon="2.60726">
        <ele>210.19</ele>
        <time>2021-08-06T23:05:05Z</time>
      </trkpt>
      <trkpt lat="46.32823" lon="2.60835">
        <ele>211.63</ele>
        <time>2021-08-06T23:05:14Z</time>
      </trkpt>
      <trkpt lat="46.32821" lon="2.60845">
        <ele>211.15</ele>
        <time>2021-08-06T23:05:15Z</time>
      </trkpt>
      <trkpt lat="46.3282" lon="2.60855">
        <ele>210.67</ele>
        <time>2021-08-06T23:05:16Z</time>
      </trkpt>
      <trkpt lat="46.32809" lon="2.60867">
        <ele>210.19</ele>
        <time>2021-08-06T23:05:17Z</time>
      </trkpt>
      <trkpt lat="46.32802" lon="2.60867">
        <ele>209.7</ele>
        <time>2021-08-06T23:05:18Z</time>
      </trkpt>
      <trkpt lat="46.32793" lon="2.60866">
        <ele>209.7</ele>
        <time>2021-08-06T23:05:19Z</time>
      </trkpt>
      <trkpt lat="46.32783" lon="2.60866">
        <ele>209.22</ele>
        <time>2021-08-06T23:05:20Z</time>
      </trkpt>
    </trkseg>
  </trk>
</gpx>